<?xml version="1.0" encoding="UTF-8" standalone="no" ?>
<gpx xmlns="http://www.topografix.com/GPX/1/1" xmlns:xsi="http://www.w3.org/2001/XMLSchema-instance" xsi:schemaLocation="http://www.topografix.com/GPX/1/1 http://www.topografix.com/GPX/1/1/gpx.xsd" version="1.1" creator="VisuGPX - https://www.visugpx.com">
  <metadata>
    <name>Montagne de la Lance par le rocher des Aures</name>
    <desc><![CDATA[Au départ de la chapelle de la Roche montée via le rocher des Aures et la ferme de la Lance. Descente en suivant la crête jusqu\'à son extrémité nord-ouest.]]></desc>
  </metadata>
  <trk>
    <name><![CDATA[2015-12-20 14:39:41]]></name>
    <trkseg>
      <trkpt lat="44.47938" lon="5.04782">
        <ele>445.71</ele>
        <time>2015-12-20T08:09:33Z</time>
      </trkpt>
      <trkpt lat="44.47938" lon="5.04782">
        <ele>445.71</ele>
        <time>2015-12-20T08:09:34Z</time>
      </trkpt>
      <trkpt lat="44.47938" lon="5.04782">
        <ele>445.23</ele>
        <time>2015-12-20T08:09:51Z</time>
      </trkpt>
      <trkpt lat="44.47938" lon="5.04781">
        <ele>445.23</ele>
        <time>2015-12-20T08:10:15Z</time>
      </trkpt>
      <trkpt lat="44.47938" lon="5.0478">
        <ele>445.23</ele>
        <time>2015-12-20T08:10:34Z</time>
      </trkpt>
      <trkpt lat="44.47938" lon="5.04781">
        <ele>445.71</ele>
        <time>2015-12-20T08:10:59Z</time>
      </trkpt>
      <trkpt lat="44.4793" lon="5.04788">
        <ele>445.71</ele>
        <time>2015-12-20T08:11:13Z</time>
      </trkpt>
      <trkpt lat="44.47927" lon="5.04791">
        <ele>445.71</ele>
        <time>2015-12-20T08:11:16Z</time>
      </trkpt>
      <trkpt lat="44.47918" lon="5.04803">
        <ele>445.71</ele>
        <time>2015-12-20T08:11:28Z</time>
      </trkpt>
      <trkpt lat="44.47912" lon="5.04812">
        <ele>446.67</ele>
        <time>2015-12-20T08:11:36Z</time>
      </trkpt>
      <trkpt lat="44.47909" lon="5.04815">
        <ele>446.67</ele>
        <time>2015-12-20T08:11:39Z</time>
      </trkpt>
      <trkpt lat="44.47895" lon="5.04824">
        <ele>447.15</ele>
        <time>2015-12-20T08:11:53Z</time>
      </trkpt>
      <trkpt lat="44.47888" lon="5.04828">
        <ele>448.11</ele>
        <time>2015-12-20T08:12:00Z</time>
      </trkpt>
      <trkpt lat="44.47879" lon="5.0483">
        <ele>448.59</ele>
        <time>2015-12-20T08:12:08Z</time>
      </trkpt>
      <trkpt lat="44.47865" lon="5.04822">
        <ele>447.15</ele>
        <time>2015-12-20T08:12:23Z</time>
      </trkpt>
      <trkpt lat="44.47851" lon="5.04809">
        <ele>447.15</ele>
        <time>2015-12-20T08:12:37Z</time>
      </trkpt>
      <trkpt lat="44.47838" lon="5.04801">
        <ele>448.59</ele>
        <time>2015-12-20T08:12:49Z</time>
      </trkpt>
      <trkpt lat="44.47833" lon="5.04802">
        <ele>449.55</ele>
        <time>2015-12-20T08:12:53Z</time>
      </trkpt>
      <trkpt lat="44.4782" lon="5.04808">
        <ele>451</ele>
        <time>2015-12-20T08:13:06Z</time>
      </trkpt>
      <trkpt lat="44.47807" lon="5.04818">
        <ele>453.4</ele>
        <time>2015-12-20T08:13:19Z</time>
      </trkpt>
      <trkpt lat="44.47798" lon="5.04829">
        <ele>455.32</ele>
        <time>2015-12-20T08:13:32Z</time>
      </trkpt>
      <trkpt lat="44.47788" lon="5.04841">
        <ele>457.24</ele>
        <time>2015-12-20T08:13:44Z</time>
      </trkpt>
      <trkpt lat="44.4778" lon="5.04853">
        <ele>459.17</ele>
        <time>2015-12-20T08:13:57Z</time>
      </trkpt>
      <trkpt lat="44.47772" lon="5.04868">
        <ele>461.57</ele>
        <time>2015-12-20T08:14:11Z</time>
      </trkpt>
      <trkpt lat="44.47771" lon="5.04871">
        <ele>461.57</ele>
        <time>2015-12-20T08:14:13Z</time>
      </trkpt>
      <trkpt lat="44.4776" lon="5.04878">
        <ele>462.53</ele>
        <time>2015-12-20T08:14:26Z</time>
      </trkpt>
      <trkpt lat="44.47754" lon="5.04882">
        <ele>463.49</ele>
        <time>2015-12-20T08:14:34Z</time>
      </trkpt>
      <trkpt lat="44.47739" lon="5.04891">
        <ele>464.93</ele>
        <time>2015-12-20T08:14:47Z</time>
      </trkpt>
      <trkpt lat="44.47725" lon="5.04901">
        <ele>466.38</ele>
        <time>2015-12-20T08:15:00Z</time>
      </trkpt>
      <trkpt lat="44.47723" lon="5.04901">
        <ele>466.38</ele>
        <time>2015-12-20T08:15:02Z</time>
      </trkpt>
      <trkpt lat="44.47711" lon="5.0491">
        <ele>467.82</ele>
        <time>2015-12-20T08:15:15Z</time>
      </trkpt>
      <trkpt lat="44.477" lon="5.04917">
        <ele>468.3</ele>
        <time>2015-12-20T08:15:28Z</time>
      </trkpt>
      <trkpt lat="44.47687" lon="5.04918">
        <ele>468.3</ele>
        <time>2015-12-20T08:15:41Z</time>
      </trkpt>
      <trkpt lat="44.47687" lon="5.04917">
        <ele>468.3</ele>
        <time>2015-12-20T08:15:42Z</time>
      </trkpt>
      <trkpt lat="44.47682" lon="5.04914">
        <ele>469.74</ele>
        <time>2015-12-20T08:15:48Z</time>
      </trkpt>
      <trkpt lat="44.47672" lon="5.04906">
        <ele>472.14</ele>
        <time>2015-12-20T08:16:01Z</time>
      </trkpt>
      <trkpt lat="44.47671" lon="5.04905">
        <ele>472.14</ele>
        <time>2015-12-20T08:16:02Z</time>
      </trkpt>
      <trkpt lat="44.4766" lon="5.04911">
        <ele>474.07</ele>
        <time>2015-12-20T08:16:15Z</time>
      </trkpt>
      <trkpt lat="44.47653" lon="5.04924">
        <ele>476.95</ele>
        <time>2015-12-20T08:16:28Z</time>
      </trkpt>
      <trkpt lat="44.4765" lon="5.04928">
        <ele>477.43</ele>
        <time>2015-12-20T08:16:33Z</time>
      </trkpt>
      <trkpt lat="44.47643" lon="5.04942">
        <ele>479.84</ele>
        <time>2015-12-20T08:16:49Z</time>
      </trkpt>
      <trkpt lat="44.47638" lon="5.04951">
        <ele>480.8</ele>
        <time>2015-12-20T08:16:58Z</time>
      </trkpt>
      <trkpt lat="44.47631" lon="5.04949">
        <ele>483.2</ele>
        <time>2015-12-20T08:17:11Z</time>
      </trkpt>
      <trkpt lat="44.47631" lon="5.04943">
        <ele>483.2</ele>
        <time>2015-12-20T08:17:16Z</time>
      </trkpt>
      <trkpt lat="44.47629" lon="5.04923">
        <ele>484.16</ele>
        <time>2015-12-20T08:17:29Z</time>
      </trkpt>
      <trkpt lat="44.47625" lon="5.04899">
        <ele>484.64</ele>
        <time>2015-12-20T08:17:44Z</time>
      </trkpt>
      <trkpt lat="44.47626" lon="5.04879">
        <ele>485.12</ele>
        <time>2015-12-20T08:17:57Z</time>
      </trkpt>
      <trkpt lat="44.47626" lon="5.04862">
        <ele>486.08</ele>
        <time>2015-12-20T08:18:08Z</time>
      </trkpt>
      <trkpt lat="44.47623" lon="5.04842">
        <ele>487.05</ele>
        <time>2015-12-20T08:18:22Z</time>
      </trkpt>
      <trkpt lat="44.47615" lon="5.04826">
        <ele>488.49</ele>
        <time>2015-12-20T08:18:35Z</time>
      </trkpt>
      <trkpt lat="44.47609" lon="5.04819">
        <ele>489.45</ele>
        <time>2015-12-20T08:18:48Z</time>
      </trkpt>
      <trkpt lat="44.47601" lon="5.04808">
        <ele>491.37</ele>
        <time>2015-12-20T08:19:01Z</time>
      </trkpt>
      <trkpt lat="44.47599" lon="5.04794">
        <ele>493.77</ele>
        <time>2015-12-20T08:19:14Z</time>
      </trkpt>
      <trkpt lat="44.47599" lon="5.04787">
        <ele>494.26</ele>
        <time>2015-12-20T08:19:19Z</time>
      </trkpt>
      <trkpt lat="44.47603" lon="5.04776">
        <ele>495.7</ele>
        <time>2015-12-20T08:19:28Z</time>
      </trkpt>
      <trkpt lat="44.47604" lon="5.04773">
        <ele>495.7</ele>
        <time>2015-12-20T08:19:30Z</time>
      </trkpt>
      <trkpt lat="44.47606" lon="5.04763">
        <ele>495.7</ele>
        <time>2015-12-20T08:19:45Z</time>
      </trkpt>
      <trkpt lat="44.47606" lon="5.04762">
        <ele>496.18</ele>
        <time>2015-12-20T08:20:04Z</time>
      </trkpt>
      <trkpt lat="44.47601" lon="5.04748">
        <ele>497.14</ele>
        <time>2015-12-20T08:20:18Z</time>
      </trkpt>
      <trkpt lat="44.47597" lon="5.04743">
        <ele>498.1</ele>
        <time>2015-12-20T08:20:23Z</time>
      </trkpt>
      <trkpt lat="44.47584" lon="5.04745">
        <ele>500.5</ele>
        <time>2015-12-20T08:20:36Z</time>
      </trkpt>
      <trkpt lat="44.47576" lon="5.04758">
        <ele>503.39</ele>
        <time>2015-12-20T08:20:51Z</time>
      </trkpt>
      <trkpt lat="44.47568" lon="5.0477">
        <ele>503.39</ele>
        <time>2015-12-20T08:21:03Z</time>
      </trkpt>
      <trkpt lat="44.47563" lon="5.04778">
        <ele>504.83</ele>
        <time>2015-12-20T08:21:19Z</time>
      </trkpt>
      <trkpt lat="44.47564" lon="5.04786">
        <ele>505.31</ele>
        <time>2015-12-20T08:21:34Z</time>
      </trkpt>
      <trkpt lat="44.47563" lon="5.04788">
        <ele>505.31</ele>
        <time>2015-12-20T08:21:36Z</time>
      </trkpt>
      <trkpt lat="44.47557" lon="5.04801">
        <ele>507.23</ele>
        <time>2015-12-20T08:21:49Z</time>
      </trkpt>
      <trkpt lat="44.47554" lon="5.04813">
        <ele>509.16</ele>
        <time>2015-12-20T08:22:00Z</time>
      </trkpt>
      <trkpt lat="44.47553" lon="5.04826">
        <ele>509.64</ele>
        <time>2015-12-20T08:22:14Z</time>
      </trkpt>
      <trkpt lat="44.47547" lon="5.04828">
        <ele>510.12</ele>
        <time>2015-12-20T08:22:32Z</time>
      </trkpt>
      <trkpt lat="44.47542" lon="5.04839">
        <ele>513</ele>
        <time>2015-12-20T08:22:47Z</time>
      </trkpt>
      <trkpt lat="44.4754" lon="5.04857">
        <ele>515.4</ele>
        <time>2015-12-20T08:23:03Z</time>
      </trkpt>
      <trkpt lat="44.47536" lon="5.04872">
        <ele>517.33</ele>
        <time>2015-12-20T08:23:17Z</time>
      </trkpt>
      <trkpt lat="44.47533" lon="5.04888">
        <ele>519.73</ele>
        <time>2015-12-20T08:23:32Z</time>
      </trkpt>
      <trkpt lat="44.4753" lon="5.04901">
        <ele>522.13</ele>
        <time>2015-12-20T08:23:44Z</time>
      </trkpt>
      <trkpt lat="44.47525" lon="5.04914">
        <ele>524.06</ele>
        <time>2015-12-20T08:23:58Z</time>
      </trkpt>
      <trkpt lat="44.47514" lon="5.04928">
        <ele>526.46</ele>
        <time>2015-12-20T08:24:16Z</time>
      </trkpt>
      <trkpt lat="44.47505" lon="5.04938">
        <ele>529.34</ele>
        <time>2015-12-20T08:24:30Z</time>
      </trkpt>
      <trkpt lat="44.47499" lon="5.04949">
        <ele>531.27</ele>
        <time>2015-12-20T08:24:44Z</time>
      </trkpt>
      <trkpt lat="44.47497" lon="5.04951">
        <ele>531.75</ele>
        <time>2015-12-20T08:24:47Z</time>
      </trkpt>
      <trkpt lat="44.47491" lon="5.04964">
        <ele>534.15</ele>
        <time>2015-12-20T08:25:01Z</time>
      </trkpt>
      <trkpt lat="44.47489" lon="5.04972">
        <ele>534.63</ele>
        <time>2015-12-20T08:25:08Z</time>
      </trkpt>
      <trkpt lat="44.47487" lon="5.04991">
        <ele>537.03</ele>
        <time>2015-12-20T08:25:24Z</time>
      </trkpt>
      <trkpt lat="44.47482" lon="5.05011">
        <ele>538.48</ele>
        <time>2015-12-20T08:25:40Z</time>
      </trkpt>
      <trkpt lat="44.4748" lon="5.05014">
        <ele>538.48</ele>
        <time>2015-12-20T08:25:43Z</time>
      </trkpt>
      <trkpt lat="44.4747" lon="5.05031">
        <ele>539.44</ele>
        <time>2015-12-20T08:25:58Z</time>
      </trkpt>
      <trkpt lat="44.47458" lon="5.0505">
        <ele>540.4</ele>
        <time>2015-12-20T08:26:13Z</time>
      </trkpt>
      <trkpt lat="44.47455" lon="5.05057">
        <ele>540.88</ele>
        <time>2015-12-20T08:26:19Z</time>
      </trkpt>
      <trkpt lat="44.47446" lon="5.05072">
        <ele>542.32</ele>
        <time>2015-12-20T08:26:33Z</time>
      </trkpt>
      <trkpt lat="44.47441" lon="5.05088">
        <ele>544.24</ele>
        <time>2015-12-20T08:26:46Z</time>
      </trkpt>
      <trkpt lat="44.47433" lon="5.05106">
        <ele>546.65</ele>
        <time>2015-12-20T08:27:01Z</time>
      </trkpt>
      <trkpt lat="44.47424" lon="5.0512">
        <ele>548.09</ele>
        <time>2015-12-20T08:27:16Z</time>
      </trkpt>
      <trkpt lat="44.47416" lon="5.05136">
        <ele>550.01</ele>
        <time>2015-12-20T08:27:29Z</time>
      </trkpt>
      <trkpt lat="44.47406" lon="5.05148">
        <ele>550.97</ele>
        <time>2015-12-20T08:27:42Z</time>
      </trkpt>
      <trkpt lat="44.47398" lon="5.05168">
        <ele>552.9</ele>
        <time>2015-12-20T08:27:56Z</time>
      </trkpt>
      <trkpt lat="44.4739" lon="5.05181">
        <ele>555.3</ele>
        <time>2015-12-20T08:28:12Z</time>
      </trkpt>
      <trkpt lat="44.47392" lon="5.05188">
        <ele>555.78</ele>
        <time>2015-12-20T08:28:28Z</time>
      </trkpt>
      <trkpt lat="44.47391" lon="5.0519">
        <ele>555.78</ele>
        <time>2015-12-20T08:28:30Z</time>
      </trkpt>
      <trkpt lat="44.47389" lon="5.05205">
        <ele>557.22</ele>
        <time>2015-12-20T08:28:43Z</time>
      </trkpt>
      <trkpt lat="44.47391" lon="5.05223">
        <ele>558.18</ele>
        <time>2015-12-20T08:28:54Z</time>
      </trkpt>
      <trkpt lat="44.47392" lon="5.05241">
        <ele>559.14</ele>
        <time>2015-12-20T08:29:06Z</time>
      </trkpt>
      <trkpt lat="44.47393" lon="5.05259">
        <ele>560.11</ele>
        <time>2015-12-20T08:29:18Z</time>
      </trkpt>
      <trkpt lat="44.47389" lon="5.05274">
        <ele>562.03</ele>
        <time>2015-12-20T08:29:30Z</time>
      </trkpt>
      <trkpt lat="44.47384" lon="5.05285">
        <ele>563.47</ele>
        <time>2015-12-20T08:29:42Z</time>
      </trkpt>
      <trkpt lat="44.47379" lon="5.05294">
        <ele>564.43</ele>
        <time>2015-12-20T08:29:58Z</time>
      </trkpt>
      <trkpt lat="44.47379" lon="5.05296">
        <ele>564.43</ele>
        <time>2015-12-20T08:30:01Z</time>
      </trkpt>
      <trkpt lat="44.47376" lon="5.05303">
        <ele>564.43</ele>
        <time>2015-12-20T08:30:08Z</time>
      </trkpt>
      <trkpt lat="44.47375" lon="5.05308">
        <ele>564.91</ele>
        <time>2015-12-20T08:30:12Z</time>
      </trkpt>
      <trkpt lat="44.47366" lon="5.05318">
        <ele>565.39</ele>
        <time>2015-12-20T08:30:29Z</time>
      </trkpt>
      <trkpt lat="44.47357" lon="5.05316">
        <ele>564.43</ele>
        <time>2015-12-20T08:30:43Z</time>
      </trkpt>
      <trkpt lat="44.47355" lon="5.05316">
        <ele>563.95</ele>
        <time>2015-12-20T08:30:51Z</time>
      </trkpt>
      <trkpt lat="44.47345" lon="5.05316">
        <ele>562.51</ele>
        <time>2015-12-20T08:31:05Z</time>
      </trkpt>
      <trkpt lat="44.47339" lon="5.05318">
        <ele>560.11</ele>
        <time>2015-12-20T08:31:18Z</time>
      </trkpt>
      <trkpt lat="44.47329" lon="5.05321">
        <ele>556.74</ele>
        <time>2015-12-20T08:31:32Z</time>
      </trkpt>
      <trkpt lat="44.47319" lon="5.05326">
        <ele>553.86</ele>
        <time>2015-12-20T08:31:46Z</time>
      </trkpt>
      <trkpt lat="44.47307" lon="5.05326">
        <ele>551.93</ele>
        <time>2015-12-20T08:32:00Z</time>
      </trkpt>
      <trkpt lat="44.47303" lon="5.05327">
        <ele>550.97</ele>
        <time>2015-12-20T08:32:05Z</time>
      </trkpt>
      <trkpt lat="44.4729" lon="5.05329">
        <ele>548.09</ele>
        <time>2015-12-20T08:32:18Z</time>
      </trkpt>
      <trkpt lat="44.47281" lon="5.05334">
        <ele>545.69</ele>
        <time>2015-12-20T08:32:30Z</time>
      </trkpt>
      <trkpt lat="44.47271" lon="5.05334">
        <ele>544.72</ele>
        <time>2015-12-20T08:32:40Z</time>
      </trkpt>
      <trkpt lat="44.47259" lon="5.05329">
        <ele>541.84</ele>
        <time>2015-12-20T08:32:52Z</time>
      </trkpt>
      <trkpt lat="44.47248" lon="5.05323">
        <ele>538.96</ele>
        <time>2015-12-20T08:33:04Z</time>
      </trkpt>
      <trkpt lat="44.47237" lon="5.05315">
        <ele>536.55</ele>
        <time>2015-12-20T08:33:18Z</time>
      </trkpt>
      <trkpt lat="44.47228" lon="5.05307">
        <ele>534.15</ele>
        <time>2015-12-20T08:33:30Z</time>
      </trkpt>
      <trkpt lat="44.4722" lon="5.05298">
        <ele>532.71</ele>
        <time>2015-12-20T08:33:41Z</time>
      </trkpt>
      <trkpt lat="44.47206" lon="5.0529">
        <ele>530.79</ele>
        <time>2015-12-20T08:33:56Z</time>
      </trkpt>
      <trkpt lat="44.47203" lon="5.05288">
        <ele>528.86</ele>
        <time>2015-12-20T08:34:01Z</time>
      </trkpt>
      <trkpt lat="44.47191" lon="5.05275">
        <ele>526.46</ele>
        <time>2015-12-20T08:34:14Z</time>
      </trkpt>
      <trkpt lat="44.47185" lon="5.05269">
        <ele>524.54</ele>
        <time>2015-12-20T08:34:25Z</time>
      </trkpt>
      <trkpt lat="44.47177" lon="5.05264">
        <ele>524.54</ele>
        <time>2015-12-20T08:34:38Z</time>
      </trkpt>
      <trkpt lat="44.47174" lon="5.05258">
        <ele>526.46</ele>
        <time>2015-12-20T08:34:50Z</time>
      </trkpt>
      <trkpt lat="44.47171" lon="5.05251">
        <ele>526.46</ele>
        <time>2015-12-20T08:35:08Z</time>
      </trkpt>
      <trkpt lat="44.47164" lon="5.05244">
        <ele>528.38</ele>
        <time>2015-12-20T08:35:20Z</time>
      </trkpt>
      <trkpt lat="44.47157" lon="5.05238">
        <ele>530.3</ele>
        <time>2015-12-20T08:35:31Z</time>
      </trkpt>
      <trkpt lat="44.47147" lon="5.05234">
        <ele>530.3</ele>
        <time>2015-12-20T08:35:44Z</time>
      </trkpt>
      <trkpt lat="44.47139" lon="5.05229">
        <ele>532.71</ele>
        <time>2015-12-20T08:35:53Z</time>
      </trkpt>
      <trkpt lat="44.4713" lon="5.05222">
        <ele>533.19</ele>
        <time>2015-12-20T08:36:04Z</time>
      </trkpt>
      <trkpt lat="44.4712" lon="5.05216">
        <ele>534.63</ele>
        <time>2015-12-20T08:36:15Z</time>
      </trkpt>
      <trkpt lat="44.47115" lon="5.05213">
        <ele>534.63</ele>
        <time>2015-12-20T08:36:34Z</time>
      </trkpt>
      <trkpt lat="44.47118" lon="5.05206">
        <ele>534.15</ele>
        <time>2015-12-20T08:37:04Z</time>
      </trkpt>
      <trkpt lat="44.47118" lon="5.05203">
        <ele>534.15</ele>
        <time>2015-12-20T08:37:35Z</time>
      </trkpt>
      <trkpt lat="44.47116" lon="5.05202">
        <ele>534.15</ele>
        <time>2015-12-20T08:37:58Z</time>
      </trkpt>
      <trkpt lat="44.47109" lon="5.05199">
        <ele>536.07</ele>
        <time>2015-12-20T08:38:11Z</time>
      </trkpt>
      <trkpt lat="44.47105" lon="5.05196">
        <ele>536.55</ele>
        <time>2015-12-20T08:38:16Z</time>
      </trkpt>
      <trkpt lat="44.47097" lon="5.05184">
        <ele>537.51</ele>
        <time>2015-12-20T08:38:28Z</time>
      </trkpt>
      <trkpt lat="44.47093" lon="5.05179">
        <ele>537.51</ele>
        <time>2015-12-20T08:38:46Z</time>
      </trkpt>
      <trkpt lat="44.47093" lon="5.05161">
        <ele>536.07</ele>
        <time>2015-12-20T08:38:59Z</time>
      </trkpt>
      <trkpt lat="44.47093" lon="5.0516">
        <ele>536.07</ele>
        <time>2015-12-20T08:39:00Z</time>
      </trkpt>
      <trkpt lat="44.47086" lon="5.05143">
        <ele>536.07</ele>
        <time>2015-12-20T08:39:13Z</time>
      </trkpt>
      <trkpt lat="44.47077" lon="5.05136">
        <ele>535.59</ele>
        <time>2015-12-20T08:39:25Z</time>
      </trkpt>
      <trkpt lat="44.47064" lon="5.05129">
        <ele>535.59</ele>
        <time>2015-12-20T08:39:36Z</time>
      </trkpt>
      <trkpt lat="44.47052" lon="5.05122">
        <ele>535.59</ele>
        <time>2015-12-20T08:39:47Z</time>
      </trkpt>
      <trkpt lat="44.4704" lon="5.05119">
        <ele>534.63</ele>
        <time>2015-12-20T08:40:00Z</time>
      </trkpt>
      <trkpt lat="44.4703" lon="5.05119">
        <ele>535.59</ele>
        <time>2015-12-20T08:40:13Z</time>
      </trkpt>
      <trkpt lat="44.47029" lon="5.05119">
        <ele>535.59</ele>
        <time>2015-12-20T08:40:14Z</time>
      </trkpt>
      <trkpt lat="44.47019" lon="5.0512">
        <ele>536.55</ele>
        <time>2015-12-20T08:40:27Z</time>
      </trkpt>
      <trkpt lat="44.47" lon="5.05118">
        <ele>537.51</ele>
        <time>2015-12-20T08:40:42Z</time>
      </trkpt>
      <trkpt lat="44.46983" lon="5.05111">
        <ele>537.51</ele>
        <time>2015-12-20T08:40:58Z</time>
      </trkpt>
      <trkpt lat="44.46975" lon="5.05108">
        <ele>536.07</ele>
        <time>2015-12-20T08:41:04Z</time>
      </trkpt>
      <trkpt lat="44.46959" lon="5.05105">
        <ele>535.11</ele>
        <time>2015-12-20T08:41:18Z</time>
      </trkpt>
      <trkpt lat="44.46947" lon="5.05107">
        <ele>535.11</ele>
        <time>2015-12-20T08:41:30Z</time>
      </trkpt>
      <trkpt lat="44.46932" lon="5.0511">
        <ele>536.55</ele>
        <time>2015-12-20T08:41:42Z</time>
      </trkpt>
      <trkpt lat="44.46918" lon="5.05116">
        <ele>537.51</ele>
        <time>2015-12-20T08:41:56Z</time>
      </trkpt>
      <trkpt lat="44.46915" lon="5.05117">
        <ele>537.51</ele>
        <time>2015-12-20T08:41:59Z</time>
      </trkpt>
      <trkpt lat="44.46899" lon="5.05128">
        <ele>538.96</ele>
        <time>2015-12-20T08:42:13Z</time>
      </trkpt>
      <trkpt lat="44.46889" lon="5.05137">
        <ele>540.4</ele>
        <time>2015-12-20T08:42:26Z</time>
      </trkpt>
      <trkpt lat="44.46877" lon="5.0515">
        <ele>541.84</ele>
        <time>2015-12-20T08:42:39Z</time>
      </trkpt>
      <trkpt lat="44.46863" lon="5.05163">
        <ele>541.84</ele>
        <time>2015-12-20T08:42:54Z</time>
      </trkpt>
      <trkpt lat="44.46858" lon="5.05168">
        <ele>540.4</ele>
        <time>2015-12-20T08:43:03Z</time>
      </trkpt>
      <trkpt lat="44.46855" lon="5.05176">
        <ele>537.51</ele>
        <time>2015-12-20T08:43:15Z</time>
      </trkpt>
      <trkpt lat="44.46849" lon="5.05186">
        <ele>536.55</ele>
        <time>2015-12-20T08:43:26Z</time>
      </trkpt>
      <trkpt lat="44.46834" lon="5.05209">
        <ele>534.63</ele>
        <time>2015-12-20T08:43:39Z</time>
      </trkpt>
      <trkpt lat="44.46825" lon="5.05221">
        <ele>534.63</ele>
        <time>2015-12-20T08:43:53Z</time>
      </trkpt>
      <trkpt lat="44.46816" lon="5.05239">
        <ele>534.63</ele>
        <time>2015-12-20T08:44:07Z</time>
      </trkpt>
      <trkpt lat="44.46808" lon="5.05257">
        <ele>533.19</ele>
        <time>2015-12-20T08:44:20Z</time>
      </trkpt>
      <trkpt lat="44.4681" lon="5.05268">
        <ele>531.75</ele>
        <time>2015-12-20T08:44:32Z</time>
      </trkpt>
      <trkpt lat="44.46813" lon="5.05279">
        <ele>531.27</ele>
        <time>2015-12-20T08:44:43Z</time>
      </trkpt>
      <trkpt lat="44.46812" lon="5.053">
        <ele>530.79</ele>
        <time>2015-12-20T08:44:55Z</time>
      </trkpt>
      <trkpt lat="44.46812" lon="5.053">
        <ele>530.79</ele>
        <time>2015-12-20T08:44:56Z</time>
      </trkpt>
      <trkpt lat="44.46811" lon="5.0532">
        <ele>526.94</ele>
        <time>2015-12-20T08:45:12Z</time>
      </trkpt>
      <trkpt lat="44.46804" lon="5.05348">
        <ele>526.46</ele>
        <time>2015-12-20T08:45:25Z</time>
      </trkpt>
      <trkpt lat="44.46795" lon="5.05376">
        <ele>525.98</ele>
        <time>2015-12-20T08:45:38Z</time>
      </trkpt>
      <trkpt lat="44.46785" lon="5.05394">
        <ele>525.02</ele>
        <time>2015-12-20T08:45:52Z</time>
      </trkpt>
      <trkpt lat="44.46779" lon="5.05408">
        <ele>525.02</ele>
        <time>2015-12-20T08:46:04Z</time>
      </trkpt>
      <trkpt lat="44.46767" lon="5.05423">
        <ele>524.54</ele>
        <time>2015-12-20T08:46:20Z</time>
      </trkpt>
      <trkpt lat="44.46754" lon="5.05445">
        <ele>526.46</ele>
        <time>2015-12-20T08:46:32Z</time>
      </trkpt>
      <trkpt lat="44.46744" lon="5.05461">
        <ele>527.42</ele>
        <time>2015-12-20T08:46:44Z</time>
      </trkpt>
      <trkpt lat="44.46735" lon="5.05476">
        <ele>528.86</ele>
        <time>2015-12-20T08:46:58Z</time>
      </trkpt>
      <trkpt lat="44.46726" lon="5.0549">
        <ele>529.34</ele>
        <time>2015-12-20T08:47:11Z</time>
      </trkpt>
      <trkpt lat="44.46719" lon="5.05501">
        <ele>529.34</ele>
        <time>2015-12-20T08:47:23Z</time>
      </trkpt>
      <trkpt lat="44.4671" lon="5.05515">
        <ele>530.3</ele>
        <time>2015-12-20T08:47:36Z</time>
      </trkpt>
      <trkpt lat="44.46705" lon="5.0553">
        <ele>531.75</ele>
        <time>2015-12-20T08:47:48Z</time>
      </trkpt>
      <trkpt lat="44.46692" lon="5.05545">
        <ele>532.71</ele>
        <time>2015-12-20T08:48:00Z</time>
      </trkpt>
      <trkpt lat="44.46682" lon="5.0556">
        <ele>533.67</ele>
        <time>2015-12-20T08:48:11Z</time>
      </trkpt>
      <trkpt lat="44.46676" lon="5.05576">
        <ele>535.11</ele>
        <time>2015-12-20T08:48:23Z</time>
      </trkpt>
      <trkpt lat="44.46668" lon="5.05591">
        <ele>535.59</ele>
        <time>2015-12-20T08:48:31Z</time>
      </trkpt>
      <trkpt lat="44.46661" lon="5.05603">
        <ele>536.55</ele>
        <time>2015-12-20T08:48:39Z</time>
      </trkpt>
      <trkpt lat="44.46654" lon="5.05612">
        <ele>537.03</ele>
        <time>2015-12-20T08:48:51Z</time>
      </trkpt>
      <trkpt lat="44.46653" lon="5.05622">
        <ele>538.48</ele>
        <time>2015-12-20T08:49:03Z</time>
      </trkpt>
      <trkpt lat="44.46654" lon="5.05624">
        <ele>538.48</ele>
        <time>2015-12-20T08:49:18Z</time>
      </trkpt>
      <trkpt lat="44.46654" lon="5.05621">
        <ele>538.96</ele>
        <time>2015-12-20T08:49:40Z</time>
      </trkpt>
      <trkpt lat="44.46654" lon="5.0562">
        <ele>538.96</ele>
        <time>2015-12-20T08:50:00Z</time>
      </trkpt>
      <trkpt lat="44.46656" lon="5.05622">
        <ele>538.96</ele>
        <time>2015-12-20T08:50:23Z</time>
      </trkpt>
      <trkpt lat="44.46659" lon="5.05621">
        <ele>539.44</ele>
        <time>2015-12-20T08:50:39Z</time>
      </trkpt>
      <trkpt lat="44.46659" lon="5.05618">
        <ele>539.44</ele>
        <time>2015-12-20T08:50:59Z</time>
      </trkpt>
      <trkpt lat="44.46662" lon="5.0562">
        <ele>539.44</ele>
        <time>2015-12-20T08:51:21Z</time>
      </trkpt>
      <trkpt lat="44.46661" lon="5.05624">
        <ele>540.4</ele>
        <time>2015-12-20T08:51:41Z</time>
      </trkpt>
      <trkpt lat="44.46666" lon="5.0562">
        <ele>541.36</ele>
        <time>2015-12-20T08:51:56Z</time>
      </trkpt>
      <trkpt lat="44.46668" lon="5.05619">
        <ele>541.84</ele>
        <time>2015-12-20T08:51:59Z</time>
      </trkpt>
      <trkpt lat="44.46679" lon="5.05616">
        <ele>543.76</ele>
        <time>2015-12-20T08:52:13Z</time>
      </trkpt>
      <trkpt lat="44.46687" lon="5.05611">
        <ele>546.17</ele>
        <time>2015-12-20T08:52:28Z</time>
      </trkpt>
      <trkpt lat="44.46696" lon="5.05607">
        <ele>548.57</ele>
        <time>2015-12-20T08:52:43Z</time>
      </trkpt>
      <trkpt lat="44.46706" lon="5.05601">
        <ele>550.97</ele>
        <time>2015-12-20T08:52:57Z</time>
      </trkpt>
      <trkpt lat="44.46716" lon="5.05595">
        <ele>552.41</ele>
        <time>2015-12-20T08:53:11Z</time>
      </trkpt>
      <trkpt lat="44.46724" lon="5.0559">
        <ele>553.86</ele>
        <time>2015-12-20T08:53:23Z</time>
      </trkpt>
      <trkpt lat="44.46734" lon="5.05586">
        <ele>555.78</ele>
        <time>2015-12-20T08:53:36Z</time>
      </trkpt>
      <trkpt lat="44.46742" lon="5.05581">
        <ele>558.18</ele>
        <time>2015-12-20T08:53:50Z</time>
      </trkpt>
      <trkpt lat="44.46749" lon="5.05575">
        <ele>558.66</ele>
        <time>2015-12-20T08:54:03Z</time>
      </trkpt>
      <trkpt lat="44.46758" lon="5.05569">
        <ele>562.03</ele>
        <time>2015-12-20T08:54:17Z</time>
      </trkpt>
      <trkpt lat="44.46766" lon="5.05562">
        <ele>563.95</ele>
        <time>2015-12-20T08:54:29Z</time>
      </trkpt>
      <trkpt lat="44.46778" lon="5.05554">
        <ele>566.35</ele>
        <time>2015-12-20T08:54:44Z</time>
      </trkpt>
      <trkpt lat="44.46789" lon="5.05551">
        <ele>567.32</ele>
        <time>2015-12-20T08:54:57Z</time>
      </trkpt>
      <trkpt lat="44.46799" lon="5.05545">
        <ele>567.8</ele>
        <time>2015-12-20T08:55:07Z</time>
      </trkpt>
      <trkpt lat="44.46801" lon="5.05545">
        <ele>567.8</ele>
        <time>2015-12-20T08:55:09Z</time>
      </trkpt>
      <trkpt lat="44.46815" lon="5.05539">
        <ele>569.72</ele>
        <time>2015-12-20T08:55:22Z</time>
      </trkpt>
      <trkpt lat="44.46823" lon="5.05534">
        <ele>571.64</ele>
        <time>2015-12-20T08:55:33Z</time>
      </trkpt>
      <trkpt lat="44.46836" lon="5.05528">
        <ele>574.04</ele>
        <time>2015-12-20T08:55:47Z</time>
      </trkpt>
      <trkpt lat="44.4684" lon="5.05529">
        <ele>576.45</ele>
        <time>2015-12-20T08:56:01Z</time>
      </trkpt>
      <trkpt lat="44.46837" lon="5.05536">
        <ele>578.85</ele>
        <time>2015-12-20T08:56:15Z</time>
      </trkpt>
      <trkpt lat="44.46835" lon="5.05545">
        <ele>581.25</ele>
        <time>2015-12-20T08:56:29Z</time>
      </trkpt>
      <trkpt lat="44.46828" lon="5.05556">
        <ele>584.62</ele>
        <time>2015-12-20T08:56:44Z</time>
      </trkpt>
      <trkpt lat="44.46821" lon="5.05562">
        <ele>585.58</ele>
        <time>2015-12-20T08:56:56Z</time>
      </trkpt>
      <trkpt lat="44.46817" lon="5.05575">
        <ele>588.95</ele>
        <time>2015-12-20T08:57:11Z</time>
      </trkpt>
      <trkpt lat="44.46813" lon="5.05589">
        <ele>592.31</ele>
        <time>2015-12-20T08:57:26Z</time>
      </trkpt>
      <trkpt lat="44.46815" lon="5.056">
        <ele>595.67</ele>
        <time>2015-12-20T08:57:44Z</time>
      </trkpt>
      <trkpt lat="44.46824" lon="5.05602">
        <ele>598.08</ele>
        <time>2015-12-20T08:57:57Z</time>
      </trkpt>
      <trkpt lat="44.46837" lon="5.05601">
        <ele>600.96</ele>
        <time>2015-12-20T08:58:14Z</time>
      </trkpt>
      <trkpt lat="44.46846" lon="5.056">
        <ele>603.85</ele>
        <time>2015-12-20T08:58:27Z</time>
      </trkpt>
      <trkpt lat="44.46841" lon="5.05609">
        <ele>605.29</ele>
        <time>2015-12-20T08:58:39Z</time>
      </trkpt>
      <trkpt lat="44.46834" lon="5.05617">
        <ele>604.33</ele>
        <time>2015-12-20T08:58:48Z</time>
      </trkpt>
      <trkpt lat="44.46829" lon="5.05625">
        <ele>605.77</ele>
        <time>2015-12-20T08:58:55Z</time>
      </trkpt>
      <trkpt lat="44.4682" lon="5.0564">
        <ele>607.69</ele>
        <time>2015-12-20T08:59:08Z</time>
      </trkpt>
      <trkpt lat="44.46814" lon="5.05651">
        <ele>608.17</ele>
        <time>2015-12-20T08:59:17Z</time>
      </trkpt>
      <trkpt lat="44.46813" lon="5.05654">
        <ele>608.17</ele>
        <time>2015-12-20T08:59:19Z</time>
      </trkpt>
      <trkpt lat="44.46806" lon="5.05666">
        <ele>608.17</ele>
        <time>2015-12-20T08:59:27Z</time>
      </trkpt>
      <trkpt lat="44.46804" lon="5.05672">
        <ele>608.17</ele>
        <time>2015-12-20T08:59:31Z</time>
      </trkpt>
      <trkpt lat="44.46803" lon="5.05695">
        <ele>609.61</ele>
        <time>2015-12-20T08:59:46Z</time>
      </trkpt>
      <trkpt lat="44.46804" lon="5.05716">
        <ele>612.02</ele>
        <time>2015-12-20T09:00:02Z</time>
      </trkpt>
      <trkpt lat="44.46805" lon="5.05724">
        <ele>613.46</ele>
        <time>2015-12-20T09:00:11Z</time>
      </trkpt>
      <trkpt lat="44.4681" lon="5.05741">
        <ele>616.82</ele>
        <time>2015-12-20T09:00:23Z</time>
      </trkpt>
      <trkpt lat="44.46812" lon="5.05751">
        <ele>619.23</ele>
        <time>2015-12-20T09:00:33Z</time>
      </trkpt>
      <trkpt lat="44.4681" lon="5.05772">
        <ele>621.15</ele>
        <time>2015-12-20T09:00:48Z</time>
      </trkpt>
      <trkpt lat="44.468" lon="5.0579">
        <ele>621.15</ele>
        <time>2015-12-20T09:01:02Z</time>
      </trkpt>
      <trkpt lat="44.46798" lon="5.05793">
        <ele>621.15</ele>
        <time>2015-12-20T09:01:04Z</time>
      </trkpt>
      <trkpt lat="44.46799" lon="5.05809">
        <ele>623.07</ele>
        <time>2015-12-20T09:01:18Z</time>
      </trkpt>
      <trkpt lat="44.46804" lon="5.0581">
        <ele>625.96</ele>
        <time>2015-12-20T09:01:27Z</time>
      </trkpt>
      <trkpt lat="44.46817" lon="5.05803">
        <ele>628.84</ele>
        <time>2015-12-20T09:01:42Z</time>
      </trkpt>
      <trkpt lat="44.46827" lon="5.05794">
        <ele>630.28</ele>
        <time>2015-12-20T09:01:55Z</time>
      </trkpt>
      <trkpt lat="44.46834" lon="5.05783">
        <ele>632.68</ele>
        <time>2015-12-20T09:02:06Z</time>
      </trkpt>
      <trkpt lat="44.46843" lon="5.05773">
        <ele>634.61</ele>
        <time>2015-12-20T09:02:19Z</time>
      </trkpt>
      <trkpt lat="44.46851" lon="5.05758">
        <ele>637.49</ele>
        <time>2015-12-20T09:02:33Z</time>
      </trkpt>
      <trkpt lat="44.46857" lon="5.05749">
        <ele>640.38</ele>
        <time>2015-12-20T09:02:46Z</time>
      </trkpt>
      <trkpt lat="44.46864" lon="5.05741">
        <ele>643.26</ele>
        <time>2015-12-20T09:03:00Z</time>
      </trkpt>
      <trkpt lat="44.46871" lon="5.05729">
        <ele>645.66</ele>
        <time>2015-12-20T09:03:15Z</time>
      </trkpt>
      <trkpt lat="44.46877" lon="5.05718">
        <ele>648.55</ele>
        <time>2015-12-20T09:03:28Z</time>
      </trkpt>
      <trkpt lat="44.46883" lon="5.05705">
        <ele>650.47</ele>
        <time>2015-12-20T09:03:40Z</time>
      </trkpt>
      <trkpt lat="44.46893" lon="5.05702">
        <ele>652.87</ele>
        <time>2015-12-20T09:03:55Z</time>
      </trkpt>
      <trkpt lat="44.46898" lon="5.05711">
        <ele>655.28</ele>
        <time>2015-12-20T09:04:10Z</time>
      </trkpt>
      <trkpt lat="44.46899" lon="5.05723">
        <ele>658.16</ele>
        <time>2015-12-20T09:04:26Z</time>
      </trkpt>
      <trkpt lat="44.46899" lon="5.05728">
        <ele>658.64</ele>
        <time>2015-12-20T09:04:46Z</time>
      </trkpt>
      <trkpt lat="44.46901" lon="5.05726">
        <ele>658.64</ele>
        <time>2015-12-20T09:05:14Z</time>
      </trkpt>
      <trkpt lat="44.46901" lon="5.05726">
        <ele>660.08</ele>
        <time>2015-12-20T09:05:20Z</time>
      </trkpt>
      <trkpt lat="44.46901" lon="5.05727">
        <ele>658.64</ele>
        <time>2015-12-20T09:05:23Z</time>
      </trkpt>
      <trkpt lat="44.46898" lon="5.05732">
        <ele>658.64</ele>
        <time>2015-12-20T09:05:39Z</time>
      </trkpt>
      <trkpt lat="44.46899" lon="5.05737">
        <ele>660.08</ele>
        <time>2015-12-20T09:05:48Z</time>
      </trkpt>
      <trkpt lat="44.469" lon="5.05742">
        <ele>661.52</ele>
        <time>2015-12-20T09:06:03Z</time>
      </trkpt>
      <trkpt lat="44.469" lon="5.05748">
        <ele>661.52</ele>
        <time>2015-12-20T09:06:50Z</time>
      </trkpt>
      <trkpt lat="44.46897" lon="5.05732">
        <ele>659.12</ele>
        <time>2015-12-20T09:07:04Z</time>
      </trkpt>
      <trkpt lat="44.46898" lon="5.0573">
        <ele>659.12</ele>
        <time>2015-12-20T09:07:22Z</time>
      </trkpt>
      <trkpt lat="44.46897" lon="5.05724">
        <ele>659.12</ele>
        <time>2015-12-20T09:07:45Z</time>
      </trkpt>
      <trkpt lat="44.46898" lon="5.05723">
        <ele>659.12</ele>
        <time>2015-12-20T09:08:06Z</time>
      </trkpt>
      <trkpt lat="44.46898" lon="5.05723">
        <ele>659.12</ele>
        <time>2015-12-20T09:08:29Z</time>
      </trkpt>
      <trkpt lat="44.46899" lon="5.05727">
        <ele>659.6</ele>
        <time>2015-12-20T09:08:49Z</time>
      </trkpt>
      <trkpt lat="44.46901" lon="5.05729">
        <ele>659.6</ele>
        <time>2015-12-20T09:09:06Z</time>
      </trkpt>
      <trkpt lat="44.469" lon="5.05729">
        <ele>659.6</ele>
        <time>2015-12-20T09:09:23Z</time>
      </trkpt>
      <trkpt lat="44.46901" lon="5.05727">
        <ele>659.6</ele>
        <time>2015-12-20T09:09:54Z</time>
      </trkpt>
      <trkpt lat="44.46903" lon="5.05723">
        <ele>660.08</ele>
        <time>2015-12-20T09:10:07Z</time>
      </trkpt>
      <trkpt lat="44.46908" lon="5.05717">
        <ele>661.04</ele>
        <time>2015-12-20T09:10:15Z</time>
      </trkpt>
      <trkpt lat="44.46914" lon="5.05709">
        <ele>663.45</ele>
        <time>2015-12-20T09:10:27Z</time>
      </trkpt>
      <trkpt lat="44.4692" lon="5.05706">
        <ele>664.89</ele>
        <time>2015-12-20T09:10:39Z</time>
      </trkpt>
      <trkpt lat="44.46923" lon="5.05718">
        <ele>667.77</ele>
        <time>2015-12-20T09:10:55Z</time>
      </trkpt>
      <trkpt lat="44.46925" lon="5.05735">
        <ele>670.18</ele>
        <time>2015-12-20T09:11:10Z</time>
      </trkpt>
      <trkpt lat="44.46926" lon="5.05747">
        <ele>671.62</ele>
        <time>2015-12-20T09:11:23Z</time>
      </trkpt>
      <trkpt lat="44.46926" lon="5.0576">
        <ele>673.54</ele>
        <time>2015-12-20T09:11:36Z</time>
      </trkpt>
      <trkpt lat="44.46923" lon="5.0577">
        <ele>675.46</ele>
        <time>2015-12-20T09:11:49Z</time>
      </trkpt>
      <trkpt lat="44.46923" lon="5.05785">
        <ele>678.35</ele>
        <time>2015-12-20T09:12:03Z</time>
      </trkpt>
      <trkpt lat="44.46921" lon="5.05802">
        <ele>680.27</ele>
        <time>2015-12-20T09:12:16Z</time>
      </trkpt>
      <trkpt lat="44.46918" lon="5.0582">
        <ele>682.67</ele>
        <time>2015-12-20T09:12:31Z</time>
      </trkpt>
      <trkpt lat="44.46915" lon="5.05837">
        <ele>684.6</ele>
        <time>2015-12-20T09:12:45Z</time>
      </trkpt>
      <trkpt lat="44.46912" lon="5.05853">
        <ele>687.48</ele>
        <time>2015-12-20T09:13:00Z</time>
      </trkpt>
      <trkpt lat="44.46907" lon="5.05873">
        <ele>689.4</ele>
        <time>2015-12-20T09:13:17Z</time>
      </trkpt>
      <trkpt lat="44.46905" lon="5.05891">
        <ele>690.36</ele>
        <time>2015-12-20T09:13:31Z</time>
      </trkpt>
      <trkpt lat="44.46901" lon="5.05908">
        <ele>690.36</ele>
        <time>2015-12-20T09:13:44Z</time>
      </trkpt>
      <trkpt lat="44.469" lon="5.05926">
        <ele>691.81</ele>
        <time>2015-12-20T09:13:59Z</time>
      </trkpt>
      <trkpt lat="44.46905" lon="5.05936">
        <ele>694.69</ele>
        <time>2015-12-20T09:14:12Z</time>
      </trkpt>
      <trkpt lat="44.46911" lon="5.05942">
        <ele>696.61</ele>
        <time>2015-12-20T09:14:24Z</time>
      </trkpt>
      <trkpt lat="44.46918" lon="5.05954">
        <ele>699.5</ele>
        <time>2015-12-20T09:14:38Z</time>
      </trkpt>
      <trkpt lat="44.46922" lon="5.05965">
        <ele>701.9</ele>
        <time>2015-12-20T09:14:52Z</time>
      </trkpt>
      <trkpt lat="44.46928" lon="5.05976">
        <ele>703.82</ele>
        <time>2015-12-20T09:15:05Z</time>
      </trkpt>
      <trkpt lat="44.46937" lon="5.05988">
        <ele>707.19</ele>
        <time>2015-12-20T09:15:20Z</time>
      </trkpt>
      <trkpt lat="44.46945" lon="5.05998">
        <ele>709.59</ele>
        <time>2015-12-20T09:15:35Z</time>
      </trkpt>
      <trkpt lat="44.46951" lon="5.06005">
        <ele>711.51</ele>
        <time>2015-12-20T09:15:49Z</time>
      </trkpt>
      <trkpt lat="44.46958" lon="5.06012">
        <ele>714.4</ele>
        <time>2015-12-20T09:16:02Z</time>
      </trkpt>
      <trkpt lat="44.46966" lon="5.06017">
        <ele>716.8</ele>
        <time>2015-12-20T09:16:18Z</time>
      </trkpt>
      <trkpt lat="44.46974" lon="5.06016">
        <ele>719.2</ele>
        <time>2015-12-20T09:16:31Z</time>
      </trkpt>
      <trkpt lat="44.46979" lon="5.06011">
        <ele>721.13</ele>
        <time>2015-12-20T09:16:40Z</time>
      </trkpt>
      <trkpt lat="44.46982" lon="5.05999">
        <ele>723.53</ele>
        <time>2015-12-20T09:16:52Z</time>
      </trkpt>
      <trkpt lat="44.46987" lon="5.05991">
        <ele>724.49</ele>
        <time>2015-12-20T09:17:02Z</time>
      </trkpt>
      <trkpt lat="44.46995" lon="5.05985">
        <ele>725.93</ele>
        <time>2015-12-20T09:17:14Z</time>
      </trkpt>
      <trkpt lat="44.46999" lon="5.0599">
        <ele>726.41</ele>
        <time>2015-12-20T09:17:21Z</time>
      </trkpt>
      <trkpt lat="44.47005" lon="5.06005">
        <ele>726.41</ele>
        <time>2015-12-20T09:17:34Z</time>
      </trkpt>
      <trkpt lat="44.47006" lon="5.06008">
        <ele>726.89</ele>
        <time>2015-12-20T09:17:53Z</time>
      </trkpt>
      <trkpt lat="44.47006" lon="5.0601">
        <ele>727.86</ele>
        <time>2015-12-20T09:18:16Z</time>
      </trkpt>
      <trkpt lat="44.47006" lon="5.06009">
        <ele>727.86</ele>
        <time>2015-12-20T09:18:37Z</time>
      </trkpt>
      <trkpt lat="44.47003" lon="5.06017">
        <ele>727.86</ele>
        <time>2015-12-20T09:18:54Z</time>
      </trkpt>
      <trkpt lat="44.47005" lon="5.06029">
        <ele>729.78</ele>
        <time>2015-12-20T09:19:06Z</time>
      </trkpt>
      <trkpt lat="44.47007" lon="5.06042">
        <ele>732.66</ele>
        <time>2015-12-20T09:19:19Z</time>
      </trkpt>
      <trkpt lat="44.4701" lon="5.06052">
        <ele>735.55</ele>
        <time>2015-12-20T09:19:32Z</time>
      </trkpt>
      <trkpt lat="44.47014" lon="5.06057">
        <ele>737.95</ele>
        <time>2015-12-20T09:19:44Z</time>
      </trkpt>
      <trkpt lat="44.47014" lon="5.06068">
        <ele>740.35</ele>
        <time>2015-12-20T09:19:58Z</time>
      </trkpt>
      <trkpt lat="44.47011" lon="5.0608">
        <ele>743.24</ele>
        <time>2015-12-20T09:20:14Z</time>
      </trkpt>
      <trkpt lat="44.47014" lon="5.06088">
        <ele>745.64</ele>
        <time>2015-12-20T09:20:27Z</time>
      </trkpt>
      <trkpt lat="44.47014" lon="5.06102">
        <ele>748.04</ele>
        <time>2015-12-20T09:20:40Z</time>
      </trkpt>
      <trkpt lat="44.47015" lon="5.06114">
        <ele>749.97</ele>
        <time>2015-12-20T09:20:54Z</time>
      </trkpt>
      <trkpt lat="44.47013" lon="5.06126">
        <ele>751.89</ele>
        <time>2015-12-20T09:21:10Z</time>
      </trkpt>
      <trkpt lat="44.47012" lon="5.06139">
        <ele>754.77</ele>
        <time>2015-12-20T09:21:23Z</time>
      </trkpt>
      <trkpt lat="44.47014" lon="5.06154">
        <ele>756.69</ele>
        <time>2015-12-20T09:21:37Z</time>
      </trkpt>
      <trkpt lat="44.47014" lon="5.06165">
        <ele>758.62</ele>
        <time>2015-12-20T09:21:49Z</time>
      </trkpt>
      <trkpt lat="44.47014" lon="5.06183">
        <ele>760.54</ele>
        <time>2015-12-20T09:22:06Z</time>
      </trkpt>
      <trkpt lat="44.47017" lon="5.06197">
        <ele>762.94</ele>
        <time>2015-12-20T09:22:21Z</time>
      </trkpt>
      <trkpt lat="44.47021" lon="5.06217">
        <ele>765.35</ele>
        <time>2015-12-20T09:22:38Z</time>
      </trkpt>
      <trkpt lat="44.47024" lon="5.06229">
        <ele>766.79</ele>
        <time>2015-12-20T09:22:51Z</time>
      </trkpt>
      <trkpt lat="44.47024" lon="5.0624">
        <ele>768.23</ele>
        <time>2015-12-20T09:23:04Z</time>
      </trkpt>
      <trkpt lat="44.47029" lon="5.06249">
        <ele>770.63</ele>
        <time>2015-12-20T09:23:17Z</time>
      </trkpt>
      <trkpt lat="44.47032" lon="5.06261">
        <ele>773.04</ele>
        <time>2015-12-20T09:23:30Z</time>
      </trkpt>
      <trkpt lat="44.47033" lon="5.06272">
        <ele>774.48</ele>
        <time>2015-12-20T09:23:42Z</time>
      </trkpt>
      <trkpt lat="44.47038" lon="5.06279">
        <ele>776.88</ele>
        <time>2015-12-20T09:23:54Z</time>
      </trkpt>
      <trkpt lat="44.47047" lon="5.06287">
        <ele>778.81</ele>
        <time>2015-12-20T09:24:08Z</time>
      </trkpt>
      <trkpt lat="44.47051" lon="5.06296">
        <ele>781.21</ele>
        <time>2015-12-20T09:24:22Z</time>
      </trkpt>
      <trkpt lat="44.47057" lon="5.06302">
        <ele>783.61</ele>
        <time>2015-12-20T09:24:33Z</time>
      </trkpt>
      <trkpt lat="44.47066" lon="5.06308">
        <ele>785.05</ele>
        <time>2015-12-20T09:24:47Z</time>
      </trkpt>
      <trkpt lat="44.47073" lon="5.06314">
        <ele>786.5</ele>
        <time>2015-12-20T09:24:59Z</time>
      </trkpt>
      <trkpt lat="44.47081" lon="5.06317">
        <ele>788.9</ele>
        <time>2015-12-20T09:25:13Z</time>
      </trkpt>
      <trkpt lat="44.47089" lon="5.06323">
        <ele>791.78</ele>
        <time>2015-12-20T09:25:28Z</time>
      </trkpt>
      <trkpt lat="44.47096" lon="5.06331">
        <ele>793.71</ele>
        <time>2015-12-20T09:25:42Z</time>
      </trkpt>
      <trkpt lat="44.47102" lon="5.06337">
        <ele>796.11</ele>
        <time>2015-12-20T09:25:54Z</time>
      </trkpt>
      <trkpt lat="44.47104" lon="5.06344">
        <ele>796.59</ele>
        <time>2015-12-20T09:26:10Z</time>
      </trkpt>
      <trkpt lat="44.47107" lon="5.06354">
        <ele>798.99</ele>
        <time>2015-12-20T09:26:22Z</time>
      </trkpt>
      <trkpt lat="44.4711" lon="5.06365">
        <ele>800.92</ele>
        <time>2015-12-20T09:26:35Z</time>
      </trkpt>
      <trkpt lat="44.47111" lon="5.0638">
        <ele>803.8</ele>
        <time>2015-12-20T09:26:51Z</time>
      </trkpt>
      <trkpt lat="44.47111" lon="5.06391">
        <ele>806.2</ele>
        <time>2015-12-20T09:27:05Z</time>
      </trkpt>
      <trkpt lat="44.47115" lon="5.06402">
        <ele>808.61</ele>
        <time>2015-12-20T09:27:20Z</time>
      </trkpt>
      <trkpt lat="44.47123" lon="5.06408">
        <ele>810.05</ele>
        <time>2015-12-20T09:27:33Z</time>
      </trkpt>
      <trkpt lat="44.4713" lon="5.06412">
        <ele>812.45</ele>
        <time>2015-12-20T09:27:45Z</time>
      </trkpt>
      <trkpt lat="44.47135" lon="5.06417">
        <ele>813.89</ele>
        <time>2015-12-20T09:27:56Z</time>
      </trkpt>
      <trkpt lat="44.47141" lon="5.06422">
        <ele>816.78</ele>
        <time>2015-12-20T09:28:08Z</time>
      </trkpt>
      <trkpt lat="44.47148" lon="5.06429">
        <ele>819.18</ele>
        <time>2015-12-20T09:28:22Z</time>
      </trkpt>
      <trkpt lat="44.47154" lon="5.0644">
        <ele>820.62</ele>
        <time>2015-12-20T09:28:36Z</time>
      </trkpt>
      <trkpt lat="44.47161" lon="5.0645">
        <ele>822.06</ele>
        <time>2015-12-20T09:28:50Z</time>
      </trkpt>
      <trkpt lat="44.47166" lon="5.06457">
        <ele>824.47</ele>
        <time>2015-12-20T09:29:01Z</time>
      </trkpt>
      <trkpt lat="44.47173" lon="5.06463">
        <ele>826.39</ele>
        <time>2015-12-20T09:29:16Z</time>
      </trkpt>
      <trkpt lat="44.47177" lon="5.0647">
        <ele>827.83</ele>
        <time>2015-12-20T09:29:28Z</time>
      </trkpt>
      <trkpt lat="44.47183" lon="5.06481">
        <ele>831.2</ele>
        <time>2015-12-20T09:29:42Z</time>
      </trkpt>
      <trkpt lat="44.47189" lon="5.06488">
        <ele>833.12</ele>
        <time>2015-12-20T09:29:57Z</time>
      </trkpt>
      <trkpt lat="44.47197" lon="5.06496">
        <ele>835.04</ele>
        <time>2015-12-20T09:30:10Z</time>
      </trkpt>
      <trkpt lat="44.47207" lon="5.06493">
        <ele>835.52</ele>
        <time>2015-12-20T09:30:22Z</time>
      </trkpt>
      <trkpt lat="44.47215" lon="5.06488">
        <ele>837.45</ele>
        <time>2015-12-20T09:30:32Z</time>
      </trkpt>
      <trkpt lat="44.4722" lon="5.06486">
        <ele>836</ele>
        <time>2015-12-20T09:30:37Z</time>
      </trkpt>
      <trkpt lat="44.47232" lon="5.06487">
        <ele>835.52</ele>
        <time>2015-12-20T09:30:52Z</time>
      </trkpt>
      <trkpt lat="44.47234" lon="5.06489">
        <ele>836.96</ele>
        <time>2015-12-20T09:30:56Z</time>
      </trkpt>
      <trkpt lat="44.47239" lon="5.06495">
        <ele>838.89</ele>
        <time>2015-12-20T09:31:08Z</time>
      </trkpt>
      <trkpt lat="44.47246" lon="5.06492">
        <ele>841.29</ele>
        <time>2015-12-20T09:31:20Z</time>
      </trkpt>
      <trkpt lat="44.47255" lon="5.0649">
        <ele>843.69</ele>
        <time>2015-12-20T09:31:34Z</time>
      </trkpt>
      <trkpt lat="44.47262" lon="5.06485">
        <ele>846.1</ele>
        <time>2015-12-20T09:31:47Z</time>
      </trkpt>
      <trkpt lat="44.47265" lon="5.06484">
        <ele>847.06</ele>
        <time>2015-12-20T09:31:53Z</time>
      </trkpt>
      <trkpt lat="44.47275" lon="5.06484">
        <ele>848.02</ele>
        <time>2015-12-20T09:32:05Z</time>
      </trkpt>
      <trkpt lat="44.47286" lon="5.06483">
        <ele>849.46</ele>
        <time>2015-12-20T09:32:18Z</time>
      </trkpt>
      <trkpt lat="44.47295" lon="5.06481">
        <ele>851.38</ele>
        <time>2015-12-20T09:32:32Z</time>
      </trkpt>
      <trkpt lat="44.47302" lon="5.06486">
        <ele>854.27</ele>
        <time>2015-12-20T09:32:47Z</time>
      </trkpt>
      <trkpt lat="44.47295" lon="5.06496">
        <ele>856.67</ele>
        <time>2015-12-20T09:33:01Z</time>
      </trkpt>
      <trkpt lat="44.47288" lon="5.06502">
        <ele>857.63</ele>
        <time>2015-12-20T09:33:13Z</time>
      </trkpt>
      <trkpt lat="44.47282" lon="5.0651">
        <ele>859.56</ele>
        <time>2015-12-20T09:33:24Z</time>
      </trkpt>
      <trkpt lat="44.47276" lon="5.06516">
        <ele>861</ele>
        <time>2015-12-20T09:33:34Z</time>
      </trkpt>
      <trkpt lat="44.47268" lon="5.06522">
        <ele>862.92</ele>
        <time>2015-12-20T09:33:46Z</time>
      </trkpt>
      <trkpt lat="44.47263" lon="5.06534">
        <ele>865.32</ele>
        <time>2015-12-20T09:34:00Z</time>
      </trkpt>
      <trkpt lat="44.47259" lon="5.06543">
        <ele>867.25</ele>
        <time>2015-12-20T09:34:13Z</time>
      </trkpt>
      <trkpt lat="44.47255" lon="5.06554">
        <ele>870.13</ele>
        <time>2015-12-20T09:34:26Z</time>
      </trkpt>
      <trkpt lat="44.47252" lon="5.06562">
        <ele>872.05</ele>
        <time>2015-12-20T09:34:42Z</time>
      </trkpt>
      <trkpt lat="44.47255" lon="5.0657">
        <ele>873.01</ele>
        <time>2015-12-20T09:34:59Z</time>
      </trkpt>
      <trkpt lat="44.47255" lon="5.06578">
        <ele>874.46</ele>
        <time>2015-12-20T09:35:10Z</time>
      </trkpt>
      <trkpt lat="44.47258" lon="5.06595">
        <ele>876.38</ele>
        <time>2015-12-20T09:35:24Z</time>
      </trkpt>
      <trkpt lat="44.47259" lon="5.06612">
        <ele>879.26</ele>
        <time>2015-12-20T09:35:39Z</time>
      </trkpt>
      <trkpt lat="44.47261" lon="5.06626">
        <ele>881.19</ele>
        <time>2015-12-20T09:35:54Z</time>
      </trkpt>
      <trkpt lat="44.47265" lon="5.06635">
        <ele>884.07</ele>
        <time>2015-12-20T09:36:07Z</time>
      </trkpt>
      <trkpt lat="44.47268" lon="5.06644">
        <ele>886.95</ele>
        <time>2015-12-20T09:36:19Z</time>
      </trkpt>
      <trkpt lat="44.47271" lon="5.06654">
        <ele>889.36</ele>
        <time>2015-12-20T09:36:32Z</time>
      </trkpt>
      <trkpt lat="44.47273" lon="5.06665">
        <ele>891.76</ele>
        <time>2015-12-20T09:36:47Z</time>
      </trkpt>
      <trkpt lat="44.47273" lon="5.06675">
        <ele>894.16</ele>
        <time>2015-12-20T09:36:59Z</time>
      </trkpt>
      <trkpt lat="44.47265" lon="5.0669">
        <ele>897.05</ele>
        <time>2015-12-20T09:37:17Z</time>
      </trkpt>
      <trkpt lat="44.47264" lon="5.06692">
        <ele>897.05</ele>
        <time>2015-12-20T09:37:19Z</time>
      </trkpt>
      <trkpt lat="44.47255" lon="5.06702">
        <ele>898.49</ele>
        <time>2015-12-20T09:37:34Z</time>
      </trkpt>
      <trkpt lat="44.47246" lon="5.06709">
        <ele>899.45</ele>
        <time>2015-12-20T09:37:47Z</time>
      </trkpt>
      <trkpt lat="44.47235" lon="5.06714">
        <ele>900.41</ele>
        <time>2015-12-20T09:37:59Z</time>
      </trkpt>
      <trkpt lat="44.47224" lon="5.06721">
        <ele>901.37</ele>
        <time>2015-12-20T09:38:11Z</time>
      </trkpt>
      <trkpt lat="44.47219" lon="5.06724">
        <ele>901.37</ele>
        <time>2015-12-20T09:38:16Z</time>
      </trkpt>
      <trkpt lat="44.47212" lon="5.06725">
        <ele>901.85</ele>
        <time>2015-12-20T09:38:23Z</time>
      </trkpt>
      <trkpt lat="44.47202" lon="5.06729">
        <ele>903.3</ele>
        <time>2015-12-20T09:38:34Z</time>
      </trkpt>
      <trkpt lat="44.47198" lon="5.06729">
        <ele>903.3</ele>
        <time>2015-12-20T09:38:49Z</time>
      </trkpt>
      <trkpt lat="44.47191" lon="5.06736">
        <ele>904.26</ele>
        <time>2015-12-20T09:39:01Z</time>
      </trkpt>
      <trkpt lat="44.47189" lon="5.06735">
        <ele>904.26</ele>
        <time>2015-12-20T09:39:25Z</time>
      </trkpt>
      <trkpt lat="44.47188" lon="5.06737">
        <ele>904.74</ele>
        <time>2015-12-20T09:39:53Z</time>
      </trkpt>
      <trkpt lat="44.47187" lon="5.06738">
        <ele>904.74</ele>
        <time>2015-12-20T09:39:56Z</time>
      </trkpt>
      <trkpt lat="44.47182" lon="5.06744">
        <ele>905.7</ele>
        <time>2015-12-20T09:40:05Z</time>
      </trkpt>
      <trkpt lat="44.47169" lon="5.06754">
        <ele>907.14</ele>
        <time>2015-12-20T09:40:19Z</time>
      </trkpt>
      <trkpt lat="44.47158" lon="5.06761">
        <ele>909.54</ele>
        <time>2015-12-20T09:40:31Z</time>
      </trkpt>
      <trkpt lat="44.47147" lon="5.06763">
        <ele>911.47</ele>
        <time>2015-12-20T09:40:43Z</time>
      </trkpt>
      <trkpt lat="44.47135" lon="5.06763">
        <ele>913.39</ele>
        <time>2015-12-20T09:40:55Z</time>
      </trkpt>
      <trkpt lat="44.47129" lon="5.06766">
        <ele>915.79</ele>
        <time>2015-12-20T09:41:02Z</time>
      </trkpt>
      <trkpt lat="44.47124" lon="5.06771">
        <ele>915.31</ele>
        <time>2015-12-20T09:41:09Z</time>
      </trkpt>
      <trkpt lat="44.47114" lon="5.0678">
        <ele>916.27</ele>
        <time>2015-12-20T09:41:23Z</time>
      </trkpt>
      <trkpt lat="44.47106" lon="5.06789">
        <ele>916.27</ele>
        <time>2015-12-20T09:41:35Z</time>
      </trkpt>
      <trkpt lat="44.47105" lon="5.0679">
        <ele>916.27</ele>
        <time>2015-12-20T09:41:36Z</time>
      </trkpt>
      <trkpt lat="44.47102" lon="5.06799">
        <ele>915.31</ele>
        <time>2015-12-20T09:41:42Z</time>
      </trkpt>
      <trkpt lat="44.47092" lon="5.06806">
        <ele>913.87</ele>
        <time>2015-12-20T09:41:55Z</time>
      </trkpt>
      <trkpt lat="44.4708" lon="5.06802">
        <ele>913.39</ele>
        <time>2015-12-20T09:42:10Z</time>
      </trkpt>
      <trkpt lat="44.47072" lon="5.06792">
        <ele>912.91</ele>
        <time>2015-12-20T09:42:19Z</time>
      </trkpt>
      <trkpt lat="44.47067" lon="5.06771">
        <ele>911.95</ele>
        <time>2015-12-20T09:42:34Z</time>
      </trkpt>
      <trkpt lat="44.47064" lon="5.0676">
        <ele>910.99</ele>
        <time>2015-12-20T09:42:42Z</time>
      </trkpt>
      <trkpt lat="44.47059" lon="5.06744">
        <ele>910.03</ele>
        <time>2015-12-20T09:42:55Z</time>
      </trkpt>
      <trkpt lat="44.47052" lon="5.06729">
        <ele>909.06</ele>
        <time>2015-12-20T09:43:07Z</time>
      </trkpt>
      <trkpt lat="44.47047" lon="5.06719">
        <ele>908.58</ele>
        <time>2015-12-20T09:43:19Z</time>
      </trkpt>
      <trkpt lat="44.47045" lon="5.0671">
        <ele>907.14</ele>
        <time>2015-12-20T09:43:37Z</time>
      </trkpt>
      <trkpt lat="44.47041" lon="5.06702">
        <ele>905.7</ele>
        <time>2015-12-20T09:43:56Z</time>
      </trkpt>
      <trkpt lat="44.47038" lon="5.06692">
        <ele>903.3</ele>
        <time>2015-12-20T09:44:10Z</time>
      </trkpt>
      <trkpt lat="44.47036" lon="5.06684">
        <ele>903.78</ele>
        <time>2015-12-20T09:44:31Z</time>
      </trkpt>
      <trkpt lat="44.47036" lon="5.06679">
        <ele>903.78</ele>
        <time>2015-12-20T09:44:57Z</time>
      </trkpt>
      <trkpt lat="44.47038" lon="5.06687">
        <ele>904.74</ele>
        <time>2015-12-20T09:45:15Z</time>
      </trkpt>
      <trkpt lat="44.47042" lon="5.06696">
        <ele>906.66</ele>
        <time>2015-12-20T09:45:32Z</time>
      </trkpt>
      <trkpt lat="44.47044" lon="5.06705">
        <ele>908.1</ele>
        <time>2015-12-20T09:45:48Z</time>
      </trkpt>
      <trkpt lat="44.47048" lon="5.06715">
        <ele>909.54</ele>
        <time>2015-12-20T09:46:07Z</time>
      </trkpt>
      <trkpt lat="44.47055" lon="5.06728">
        <ele>910.03</ele>
        <time>2015-12-20T09:46:21Z</time>
      </trkpt>
      <trkpt lat="44.47055" lon="5.06729">
        <ele>910.03</ele>
        <time>2015-12-20T09:46:22Z</time>
      </trkpt>
      <trkpt lat="44.47062" lon="5.06744">
        <ele>911.47</ele>
        <time>2015-12-20T09:46:35Z</time>
      </trkpt>
      <trkpt lat="44.47064" lon="5.06749">
        <ele>911.47</ele>
        <time>2015-12-20T09:46:39Z</time>
      </trkpt>
      <trkpt lat="44.47065" lon="5.06754">
        <ele>911.95</ele>
        <time>2015-12-20T09:46:42Z</time>
      </trkpt>
      <trkpt lat="44.47068" lon="5.06773">
        <ele>912.91</ele>
        <time>2015-12-20T09:46:56Z</time>
      </trkpt>
      <trkpt lat="44.47072" lon="5.06794">
        <ele>913.39</ele>
        <time>2015-12-20T09:47:12Z</time>
      </trkpt>
      <trkpt lat="44.47071" lon="5.06797">
        <ele>914.35</ele>
        <time>2015-12-20T09:47:30Z</time>
      </trkpt>
      <trkpt lat="44.47084" lon="5.06798">
        <ele>914.35</ele>
        <time>2015-12-20T09:47:43Z</time>
      </trkpt>
      <trkpt lat="44.47086" lon="5.06806">
        <ele>916.27</ele>
        <time>2015-12-20T09:47:56Z</time>
      </trkpt>
      <trkpt lat="44.47076" lon="5.06811">
        <ele>919.16</ele>
        <time>2015-12-20T09:48:10Z</time>
      </trkpt>
      <trkpt lat="44.47071" lon="5.06815">
        <ele>921.08</ele>
        <time>2015-12-20T09:48:22Z</time>
      </trkpt>
      <trkpt lat="44.47064" lon="5.06818">
        <ele>923.48</ele>
        <time>2015-12-20T09:48:34Z</time>
      </trkpt>
      <trkpt lat="44.47058" lon="5.06827">
        <ele>926.37</ele>
        <time>2015-12-20T09:48:50Z</time>
      </trkpt>
      <trkpt lat="44.47053" lon="5.06832">
        <ele>929.25</ele>
        <time>2015-12-20T09:49:02Z</time>
      </trkpt>
      <trkpt lat="44.47048" lon="5.06836">
        <ele>931.17</ele>
        <time>2015-12-20T09:49:15Z</time>
      </trkpt>
      <trkpt lat="44.47044" lon="5.0684">
        <ele>934.06</ele>
        <time>2015-12-20T09:49:29Z</time>
      </trkpt>
      <trkpt lat="44.47037" lon="5.06843">
        <ele>936.94</ele>
        <time>2015-12-20T09:49:42Z</time>
      </trkpt>
      <trkpt lat="44.47032" lon="5.0685">
        <ele>938.86</ele>
        <time>2015-12-20T09:49:58Z</time>
      </trkpt>
      <trkpt lat="44.47024" lon="5.0685">
        <ele>941.75</ele>
        <time>2015-12-20T09:50:15Z</time>
      </trkpt>
      <trkpt lat="44.47017" lon="5.06851">
        <ele>943.67</ele>
        <time>2015-12-20T09:50:30Z</time>
      </trkpt>
      <trkpt lat="44.47012" lon="5.06847">
        <ele>944.15</ele>
        <time>2015-12-20T09:50:46Z</time>
      </trkpt>
      <trkpt lat="44.47017" lon="5.0685">
        <ele>944.63</ele>
        <time>2015-12-20T09:51:01Z</time>
      </trkpt>
      <trkpt lat="44.47025" lon="5.06855">
        <ele>944.63</ele>
        <time>2015-12-20T09:51:16Z</time>
      </trkpt>
      <trkpt lat="44.47038" lon="5.06862">
        <ele>944.63</ele>
        <time>2015-12-20T09:51:32Z</time>
      </trkpt>
      <trkpt lat="44.47046" lon="5.06867">
        <ele>945.11</ele>
        <time>2015-12-20T09:51:44Z</time>
      </trkpt>
      <trkpt lat="44.47045" lon="5.06867">
        <ele>945.11</ele>
        <time>2015-12-20T09:51:58Z</time>
      </trkpt>
      <trkpt lat="44.4703" lon="5.06864">
        <ele>943.67</ele>
        <time>2015-12-20T09:52:15Z</time>
      </trkpt>
      <trkpt lat="44.47015" lon="5.06853">
        <ele>943.67</ele>
        <time>2015-12-20T09:52:31Z</time>
      </trkpt>
      <trkpt lat="44.47009" lon="5.06859">
        <ele>945.11</ele>
        <time>2015-12-20T09:52:40Z</time>
      </trkpt>
      <trkpt lat="44.47001" lon="5.06863">
        <ele>947.04</ele>
        <time>2015-12-20T09:52:52Z</time>
      </trkpt>
      <trkpt lat="44.46989" lon="5.06873">
        <ele>948</ele>
        <time>2015-12-20T09:53:06Z</time>
      </trkpt>
      <trkpt lat="44.46989" lon="5.06886">
        <ele>949.44</ele>
        <time>2015-12-20T09:53:19Z</time>
      </trkpt>
      <trkpt lat="44.46995" lon="5.06897">
        <ele>951.36</ele>
        <time>2015-12-20T09:53:33Z</time>
      </trkpt>
      <trkpt lat="44.46996" lon="5.06907">
        <ele>954.73</ele>
        <time>2015-12-20T09:53:48Z</time>
      </trkpt>
      <trkpt lat="44.46991" lon="5.06914">
        <ele>956.65</ele>
        <time>2015-12-20T09:54:01Z</time>
      </trkpt>
      <trkpt lat="44.46988" lon="5.06921">
        <ele>958.09</ele>
        <time>2015-12-20T09:54:09Z</time>
      </trkpt>
      <trkpt lat="44.46979" lon="5.06936">
        <ele>960.49</ele>
        <time>2015-12-20T09:54:25Z</time>
      </trkpt>
      <trkpt lat="44.46969" lon="5.06945">
        <ele>961.46</ele>
        <time>2015-12-20T09:54:40Z</time>
      </trkpt>
      <trkpt lat="44.46953" lon="5.0694">
        <ele>963.86</ele>
        <time>2015-12-20T09:54:57Z</time>
      </trkpt>
      <trkpt lat="44.46943" lon="5.0694">
        <ele>965.3</ele>
        <time>2015-12-20T09:55:11Z</time>
      </trkpt>
      <trkpt lat="44.46932" lon="5.06942">
        <ele>966.26</ele>
        <time>2015-12-20T09:55:24Z</time>
      </trkpt>
      <trkpt lat="44.46917" lon="5.06949">
        <ele>967.22</ele>
        <time>2015-12-20T09:55:40Z</time>
      </trkpt>
      <trkpt lat="44.46905" lon="5.06955">
        <ele>967.7</ele>
        <time>2015-12-20T09:55:53Z</time>
      </trkpt>
      <trkpt lat="44.46893" lon="5.0696">
        <ele>969.63</ele>
        <time>2015-12-20T09:56:08Z</time>
      </trkpt>
      <trkpt lat="44.46892" lon="5.06971">
        <ele>972.03</ele>
        <time>2015-12-20T09:56:21Z</time>
      </trkpt>
      <trkpt lat="44.46895" lon="5.0699">
        <ele>973.95</ele>
        <time>2015-12-20T09:56:39Z</time>
      </trkpt>
      <trkpt lat="44.46897" lon="5.0701">
        <ele>976.84</ele>
        <time>2015-12-20T09:56:56Z</time>
      </trkpt>
      <trkpt lat="44.46891" lon="5.07024">
        <ele>977.32</ele>
        <time>2015-12-20T09:57:08Z</time>
      </trkpt>
      <trkpt lat="44.46877" lon="5.07033">
        <ele>978.28</ele>
        <time>2015-12-20T09:57:23Z</time>
      </trkpt>
      <trkpt lat="44.46869" lon="5.0705">
        <ele>980.2</ele>
        <time>2015-12-20T09:57:39Z</time>
      </trkpt>
      <trkpt lat="44.4686" lon="5.07056">
        <ele>983.09</ele>
        <time>2015-12-20T09:57:52Z</time>
      </trkpt>
      <trkpt lat="44.46858" lon="5.07066">
        <ele>985.01</ele>
        <time>2015-12-20T09:58:06Z</time>
      </trkpt>
      <trkpt lat="44.46858" lon="5.07078">
        <ele>985.49</ele>
        <time>2015-12-20T09:58:21Z</time>
      </trkpt>
      <trkpt lat="44.46858" lon="5.07099">
        <ele>986.93</ele>
        <time>2015-12-20T09:58:35Z</time>
      </trkpt>
      <trkpt lat="44.46859" lon="5.07116">
        <ele>987.89</ele>
        <time>2015-12-20T09:58:48Z</time>
      </trkpt>
      <trkpt lat="44.4685" lon="5.07135">
        <ele>988.37</ele>
        <time>2015-12-20T09:59:02Z</time>
      </trkpt>
      <trkpt lat="44.46845" lon="5.07154">
        <ele>989.81</ele>
        <time>2015-12-20T09:59:17Z</time>
      </trkpt>
      <trkpt lat="44.46841" lon="5.07169">
        <ele>991.74</ele>
        <time>2015-12-20T09:59:30Z</time>
      </trkpt>
      <trkpt lat="44.46835" lon="5.07178">
        <ele>992.7</ele>
        <time>2015-12-20T09:59:43Z</time>
      </trkpt>
      <trkpt lat="44.46828" lon="5.07193">
        <ele>994.62</ele>
        <time>2015-12-20T09:59:57Z</time>
      </trkpt>
      <trkpt lat="44.4682" lon="5.07209">
        <ele>996.54</ele>
        <time>2015-12-20T10:00:12Z</time>
      </trkpt>
      <trkpt lat="44.46815" lon="5.0722">
        <ele>997.99</ele>
        <time>2015-12-20T10:00:24Z</time>
      </trkpt>
      <trkpt lat="44.46808" lon="5.07232">
        <ele>998.95</ele>
        <time>2015-12-20T10:00:37Z</time>
      </trkpt>
      <trkpt lat="44.46801" lon="5.07245">
        <ele>999.91</ele>
        <time>2015-12-20T10:00:50Z</time>
      </trkpt>
      <trkpt lat="44.46797" lon="5.07262">
        <ele>1000.39</ele>
        <time>2015-12-20T10:01:04Z</time>
      </trkpt>
      <trkpt lat="44.46798" lon="5.07265">
        <ele>1000.39</ele>
        <time>2015-12-20T10:01:07Z</time>
      </trkpt>
      <trkpt lat="44.46797" lon="5.07287">
        <ele>1000.87</ele>
        <time>2015-12-20T10:01:21Z</time>
      </trkpt>
      <trkpt lat="44.46799" lon="5.07306">
        <ele>1002.31</ele>
        <time>2015-12-20T10:01:36Z</time>
      </trkpt>
      <trkpt lat="44.468" lon="5.07315">
        <ele>1002.79</ele>
        <time>2015-12-20T10:01:51Z</time>
      </trkpt>
      <trkpt lat="44.468" lon="5.07317">
        <ele>1003.27</ele>
        <time>2015-12-20T10:02:12Z</time>
      </trkpt>
      <trkpt lat="44.46796" lon="5.07319">
        <ele>1003.27</ele>
        <time>2015-12-20T10:02:26Z</time>
      </trkpt>
      <trkpt lat="44.46795" lon="5.07321">
        <ele>1003.27</ele>
        <time>2015-12-20T10:02:43Z</time>
      </trkpt>
      <trkpt lat="44.46792" lon="5.07331">
        <ele>1003.75</ele>
        <time>2015-12-20T10:02:59Z</time>
      </trkpt>
      <trkpt lat="44.46793" lon="5.07331">
        <ele>1003.75</ele>
        <time>2015-12-20T10:03:16Z</time>
      </trkpt>
      <trkpt lat="44.46787" lon="5.07339">
        <ele>1005.2</ele>
        <time>2015-12-20T10:03:30Z</time>
      </trkpt>
      <trkpt lat="44.46774" lon="5.07356">
        <ele>1007.12</ele>
        <time>2015-12-20T10:03:47Z</time>
      </trkpt>
      <trkpt lat="44.46768" lon="5.07369">
        <ele>1008.56</ele>
        <time>2015-12-20T10:04:01Z</time>
      </trkpt>
      <trkpt lat="44.46768" lon="5.0738">
        <ele>1010.48</ele>
        <time>2015-12-20T10:04:14Z</time>
      </trkpt>
      <trkpt lat="44.46768" lon="5.07396">
        <ele>1013.37</ele>
        <time>2015-12-20T10:04:28Z</time>
      </trkpt>
      <trkpt lat="44.46772" lon="5.07409">
        <ele>1015.29</ele>
        <time>2015-12-20T10:04:41Z</time>
      </trkpt>
      <trkpt lat="44.46773" lon="5.07423">
        <ele>1017.69</ele>
        <time>2015-12-20T10:04:54Z</time>
      </trkpt>
      <trkpt lat="44.46772" lon="5.07436">
        <ele>1020.1</ele>
        <time>2015-12-20T10:05:06Z</time>
      </trkpt>
      <trkpt lat="44.46775" lon="5.07453">
        <ele>1022.5</ele>
        <time>2015-12-20T10:05:23Z</time>
      </trkpt>
      <trkpt lat="44.46776" lon="5.07469">
        <ele>1025.38</ele>
        <time>2015-12-20T10:05:39Z</time>
      </trkpt>
      <trkpt lat="44.46776" lon="5.0748">
        <ele>1027.31</ele>
        <time>2015-12-20T10:05:52Z</time>
      </trkpt>
      <trkpt lat="44.46777" lon="5.07494">
        <ele>1029.71</ele>
        <time>2015-12-20T10:06:07Z</time>
      </trkpt>
      <trkpt lat="44.46776" lon="5.07509">
        <ele>1032.11</ele>
        <time>2015-12-20T10:06:21Z</time>
      </trkpt>
      <trkpt lat="44.46774" lon="5.07525">
        <ele>1035</ele>
        <time>2015-12-20T10:06:39Z</time>
      </trkpt>
      <trkpt lat="44.46773" lon="5.07539">
        <ele>1037.4</ele>
        <time>2015-12-20T10:06:54Z</time>
      </trkpt>
      <trkpt lat="44.46773" lon="5.07552">
        <ele>1040.28</ele>
        <time>2015-12-20T10:07:09Z</time>
      </trkpt>
      <trkpt lat="44.46772" lon="5.07563">
        <ele>1043.17</ele>
        <time>2015-12-20T10:07:24Z</time>
      </trkpt>
      <trkpt lat="44.46766" lon="5.07578">
        <ele>1046.05</ele>
        <time>2015-12-20T10:07:40Z</time>
      </trkpt>
      <trkpt lat="44.46759" lon="5.07593">
        <ele>1047.97</ele>
        <time>2015-12-20T10:07:57Z</time>
      </trkpt>
      <trkpt lat="44.46758" lon="5.07603">
        <ele>1048.94</ele>
        <time>2015-12-20T10:08:09Z</time>
      </trkpt>
      <trkpt lat="44.46758" lon="5.0762">
        <ele>1051.34</ele>
        <time>2015-12-20T10:08:25Z</time>
      </trkpt>
      <trkpt lat="44.46757" lon="5.07634">
        <ele>1052.78</ele>
        <time>2015-12-20T10:08:37Z</time>
      </trkpt>
      <trkpt lat="44.46756" lon="5.07649">
        <ele>1054.7</ele>
        <time>2015-12-20T10:08:50Z</time>
      </trkpt>
      <trkpt lat="44.46752" lon="5.07669">
        <ele>1057.11</ele>
        <time>2015-12-20T10:09:06Z</time>
      </trkpt>
      <trkpt lat="44.46749" lon="5.07683">
        <ele>1059.51</ele>
        <time>2015-12-20T10:09:21Z</time>
      </trkpt>
      <trkpt lat="44.46745" lon="5.07698">
        <ele>1061.91</ele>
        <time>2015-12-20T10:09:37Z</time>
      </trkpt>
      <trkpt lat="44.46742" lon="5.07712">
        <ele>1064.32</ele>
        <time>2015-12-20T10:09:50Z</time>
      </trkpt>
      <trkpt lat="44.46739" lon="5.07728">
        <ele>1066.24</ele>
        <time>2015-12-20T10:10:04Z</time>
      </trkpt>
      <trkpt lat="44.46737" lon="5.0774">
        <ele>1067.68</ele>
        <time>2015-12-20T10:10:18Z</time>
      </trkpt>
      <trkpt lat="44.46737" lon="5.07753">
        <ele>1069.6</ele>
        <time>2015-12-20T10:10:31Z</time>
      </trkpt>
      <trkpt lat="44.46736" lon="5.07767">
        <ele>1072.01</ele>
        <time>2015-12-20T10:10:45Z</time>
      </trkpt>
      <trkpt lat="44.46734" lon="5.07782">
        <ele>1074.41</ele>
        <time>2015-12-20T10:10:58Z</time>
      </trkpt>
      <trkpt lat="44.46734" lon="5.07799">
        <ele>1076.33</ele>
        <time>2015-12-20T10:11:13Z</time>
      </trkpt>
      <trkpt lat="44.46725" lon="5.07816">
        <ele>1078.26</ele>
        <time>2015-12-20T10:11:28Z</time>
      </trkpt>
      <trkpt lat="44.46722" lon="5.0782">
        <ele>1078.74</ele>
        <time>2015-12-20T10:11:33Z</time>
      </trkpt>
      <trkpt lat="44.46713" lon="5.07836">
        <ele>1080.66</ele>
        <time>2015-12-20T10:11:49Z</time>
      </trkpt>
      <trkpt lat="44.4671" lon="5.07849">
        <ele>1081.14</ele>
        <time>2015-12-20T10:12:03Z</time>
      </trkpt>
      <trkpt lat="44.467" lon="5.07859">
        <ele>1081.62</ele>
        <time>2015-12-20T10:12:16Z</time>
      </trkpt>
      <trkpt lat="44.46689" lon="5.07869">
        <ele>1083.06</ele>
        <time>2015-12-20T10:12:30Z</time>
      </trkpt>
      <trkpt lat="44.4668" lon="5.07878">
        <ele>1081.14</ele>
        <time>2015-12-20T10:12:40Z</time>
      </trkpt>
      <trkpt lat="44.46674" lon="5.07886">
        <ele>1081.14</ele>
        <time>2015-12-20T10:12:51Z</time>
      </trkpt>
      <trkpt lat="44.46667" lon="5.07896">
        <ele>1081.14</ele>
        <time>2015-12-20T10:13:03Z</time>
      </trkpt>
      <trkpt lat="44.46657" lon="5.07911">
        <ele>1081.14</ele>
        <time>2015-12-20T10:13:17Z</time>
      </trkpt>
      <trkpt lat="44.46647" lon="5.07923">
        <ele>1081.14</ele>
        <time>2015-12-20T10:13:30Z</time>
      </trkpt>
      <trkpt lat="44.46634" lon="5.07937">
        <ele>1083.06</ele>
        <time>2015-12-20T10:13:44Z</time>
      </trkpt>
      <trkpt lat="44.46627" lon="5.07945">
        <ele>1084.02</ele>
        <time>2015-12-20T10:13:54Z</time>
      </trkpt>
      <trkpt lat="44.46616" lon="5.07954">
        <ele>1084.5</ele>
        <time>2015-12-20T10:14:07Z</time>
      </trkpt>
      <trkpt lat="44.46605" lon="5.07965">
        <ele>1085.47</ele>
        <time>2015-12-20T10:14:19Z</time>
      </trkpt>
      <trkpt lat="44.46597" lon="5.07972">
        <ele>1086.43</ele>
        <time>2015-12-20T10:14:30Z</time>
      </trkpt>
      <trkpt lat="44.46585" lon="5.07977">
        <ele>1087.87</ele>
        <time>2015-12-20T10:14:43Z</time>
      </trkpt>
      <trkpt lat="44.46573" lon="5.07985">
        <ele>1088.83</ele>
        <time>2015-12-20T10:14:56Z</time>
      </trkpt>
      <trkpt lat="44.46559" lon="5.0799">
        <ele>1088.83</ele>
        <time>2015-12-20T10:15:09Z</time>
      </trkpt>
      <trkpt lat="44.46547" lon="5.07994">
        <ele>1089.31</ele>
        <time>2015-12-20T10:15:22Z</time>
      </trkpt>
      <trkpt lat="44.46534" lon="5.07998">
        <ele>1091.71</ele>
        <time>2015-12-20T10:15:36Z</time>
      </trkpt>
      <trkpt lat="44.46523" lon="5.07997">
        <ele>1092.2</ele>
        <time>2015-12-20T10:15:47Z</time>
      </trkpt>
      <trkpt lat="44.46511" lon="5.08002">
        <ele>1094.6</ele>
        <time>2015-12-20T10:15:59Z</time>
      </trkpt>
      <trkpt lat="44.46505" lon="5.08003">
        <ele>1094.12</ele>
        <time>2015-12-20T10:16:13Z</time>
      </trkpt>
      <trkpt lat="44.46498" lon="5.08012">
        <ele>1094.6</ele>
        <time>2015-12-20T10:16:29Z</time>
      </trkpt>
      <trkpt lat="44.4649" lon="5.08025">
        <ele>1095.08</ele>
        <time>2015-12-20T10:16:44Z</time>
      </trkpt>
      <trkpt lat="44.46484" lon="5.08038">
        <ele>1097.48</ele>
        <time>2015-12-20T10:16:56Z</time>
      </trkpt>
      <trkpt lat="44.46482" lon="5.08054">
        <ele>1099.4</ele>
        <time>2015-12-20T10:17:11Z</time>
      </trkpt>
      <trkpt lat="44.46477" lon="5.08066">
        <ele>1101.33</ele>
        <time>2015-12-20T10:17:26Z</time>
      </trkpt>
      <trkpt lat="44.46477" lon="5.08077">
        <ele>1103.25</ele>
        <time>2015-12-20T10:17:38Z</time>
      </trkpt>
      <trkpt lat="44.4648" lon="5.08092">
        <ele>1106.61</ele>
        <time>2015-12-20T10:17:53Z</time>
      </trkpt>
      <trkpt lat="44.46484" lon="5.08104">
        <ele>1109.02</ele>
        <time>2015-12-20T10:18:08Z</time>
      </trkpt>
      <trkpt lat="44.46489" lon="5.08113">
        <ele>1110.94</ele>
        <time>2015-12-20T10:18:20Z</time>
      </trkpt>
      <trkpt lat="44.46498" lon="5.08117">
        <ele>1113.34</ele>
        <time>2015-12-20T10:18:35Z</time>
      </trkpt>
      <trkpt lat="44.46508" lon="5.0812">
        <ele>1116.23</ele>
        <time>2015-12-20T10:18:49Z</time>
      </trkpt>
      <trkpt lat="44.46517" lon="5.08125">
        <ele>1118.15</ele>
        <time>2015-12-20T10:19:02Z</time>
      </trkpt>
      <trkpt lat="44.4653" lon="5.08126">
        <ele>1120.07</ele>
        <time>2015-12-20T10:19:18Z</time>
      </trkpt>
      <trkpt lat="44.46542" lon="5.08128">
        <ele>1122.48</ele>
        <time>2015-12-20T10:19:35Z</time>
      </trkpt>
      <trkpt lat="44.4655" lon="5.08126">
        <ele>1125.36</ele>
        <time>2015-12-20T10:19:49Z</time>
      </trkpt>
      <trkpt lat="44.46563" lon="5.08128">
        <ele>1128.24</ele>
        <time>2015-12-20T10:20:06Z</time>
      </trkpt>
      <trkpt lat="44.46571" lon="5.08136">
        <ele>1128.73</ele>
        <time>2015-12-20T10:20:20Z</time>
      </trkpt>
      <trkpt lat="44.46568" lon="5.08145">
        <ele>1128.73</ele>
        <time>2015-12-20T10:20:31Z</time>
      </trkpt>
      <trkpt lat="44.46565" lon="5.08158">
        <ele>1128.73</ele>
        <time>2015-12-20T10:20:43Z</time>
      </trkpt>
      <trkpt lat="44.46562" lon="5.08174">
        <ele>1130.17</ele>
        <time>2015-12-20T10:20:55Z</time>
      </trkpt>
      <trkpt lat="44.4656" lon="5.08189">
        <ele>1131.61</ele>
        <time>2015-12-20T10:21:08Z</time>
      </trkpt>
      <trkpt lat="44.46558" lon="5.08201">
        <ele>1134.01</ele>
        <time>2015-12-20T10:21:20Z</time>
      </trkpt>
      <trkpt lat="44.46553" lon="5.08218">
        <ele>1135.45</ele>
        <time>2015-12-20T10:21:35Z</time>
      </trkpt>
      <trkpt lat="44.46545" lon="5.08229">
        <ele>1137.38</ele>
        <time>2015-12-20T10:21:48Z</time>
      </trkpt>
      <trkpt lat="44.46539" lon="5.0824">
        <ele>1138.82</ele>
        <time>2015-12-20T10:21:59Z</time>
      </trkpt>
      <trkpt lat="44.46533" lon="5.0825">
        <ele>1139.78</ele>
        <time>2015-12-20T10:22:10Z</time>
      </trkpt>
      <trkpt lat="44.46528" lon="5.08254">
        <ele>1140.74</ele>
        <time>2015-12-20T10:22:17Z</time>
      </trkpt>
      <trkpt lat="44.46521" lon="5.08266">
        <ele>1142.18</ele>
        <time>2015-12-20T10:22:27Z</time>
      </trkpt>
      <trkpt lat="44.46511" lon="5.0828">
        <ele>1143.14</ele>
        <time>2015-12-20T10:22:41Z</time>
      </trkpt>
      <trkpt lat="44.46502" lon="5.08292">
        <ele>1144.59</ele>
        <time>2015-12-20T10:22:52Z</time>
      </trkpt>
      <trkpt lat="44.46494" lon="5.08301">
        <ele>1146.03</ele>
        <time>2015-12-20T10:23:02Z</time>
      </trkpt>
      <trkpt lat="44.46492" lon="5.08304">
        <ele>1146.03</ele>
        <time>2015-12-20T10:23:06Z</time>
      </trkpt>
      <trkpt lat="44.46488" lon="5.08312">
        <ele>1148.43</ele>
        <time>2015-12-20T10:23:18Z</time>
      </trkpt>
      <trkpt lat="44.46481" lon="5.08316">
        <ele>1148.91</ele>
        <time>2015-12-20T10:23:29Z</time>
      </trkpt>
      <trkpt lat="44.46479" lon="5.08316">
        <ele>1148.91</ele>
        <time>2015-12-20T10:23:31Z</time>
      </trkpt>
      <trkpt lat="44.46472" lon="5.08322">
        <ele>1149.87</ele>
        <time>2015-12-20T10:23:39Z</time>
      </trkpt>
      <trkpt lat="44.4647" lon="5.08325">
        <ele>1150.35</ele>
        <time>2015-12-20T10:23:42Z</time>
      </trkpt>
      <trkpt lat="44.46466" lon="5.08328">
        <ele>1150.84</ele>
        <time>2015-12-20T10:23:47Z</time>
      </trkpt>
      <trkpt lat="44.46463" lon="5.08332">
        <ele>1151.32</ele>
        <time>2015-12-20T10:23:52Z</time>
      </trkpt>
      <trkpt lat="44.46458" lon="5.08337">
        <ele>1153.72</ele>
        <time>2015-12-20T10:24:00Z</time>
      </trkpt>
      <trkpt lat="44.46449" lon="5.08344">
        <ele>1154.2</ele>
        <time>2015-12-20T10:24:14Z</time>
      </trkpt>
      <trkpt lat="44.46442" lon="5.08353">
        <ele>1156.12</ele>
        <time>2015-12-20T10:24:26Z</time>
      </trkpt>
      <trkpt lat="44.46439" lon="5.08361">
        <ele>1158.05</ele>
        <time>2015-12-20T10:24:37Z</time>
      </trkpt>
      <trkpt lat="44.46435" lon="5.08371">
        <ele>1159.97</ele>
        <time>2015-12-20T10:24:48Z</time>
      </trkpt>
      <trkpt lat="44.46434" lon="5.08382">
        <ele>1161.41</ele>
        <time>2015-12-20T10:24:59Z</time>
      </trkpt>
      <trkpt lat="44.46434" lon="5.08386">
        <ele>1162.85</ele>
        <time>2015-12-20T10:25:03Z</time>
      </trkpt>
      <trkpt lat="44.46436" lon="5.08399">
        <ele>1165.74</ele>
        <time>2015-12-20T10:25:18Z</time>
      </trkpt>
      <trkpt lat="44.46436" lon="5.08411">
        <ele>1168.14</ele>
        <time>2015-12-20T10:25:33Z</time>
      </trkpt>
      <trkpt lat="44.46436" lon="5.08415">
        <ele>1168.62</ele>
        <time>2015-12-20T10:25:37Z</time>
      </trkpt>
      <trkpt lat="44.46434" lon="5.08432">
        <ele>1170.54</ele>
        <time>2015-12-20T10:25:52Z</time>
      </trkpt>
      <trkpt lat="44.46433" lon="5.08439">
        <ele>1171.98</ele>
        <time>2015-12-20T10:26:07Z</time>
      </trkpt>
      <trkpt lat="44.46434" lon="5.0844">
        <ele>1171.98</ele>
        <time>2015-12-20T10:26:22Z</time>
      </trkpt>
      <trkpt lat="44.46434" lon="5.08439">
        <ele>1171.98</ele>
        <time>2015-12-20T10:26:44Z</time>
      </trkpt>
      <trkpt lat="44.46433" lon="5.08439">
        <ele>1171.98</ele>
        <time>2015-12-20T10:27:11Z</time>
      </trkpt>
      <trkpt lat="44.46432" lon="5.08441">
        <ele>1171.98</ele>
        <time>2015-12-20T10:27:36Z</time>
      </trkpt>
      <trkpt lat="44.46432" lon="5.0844">
        <ele>1171.98</ele>
        <time>2015-12-20T10:28:06Z</time>
      </trkpt>
      <trkpt lat="44.46431" lon="5.08442">
        <ele>1171.98</ele>
        <time>2015-12-20T10:28:26Z</time>
      </trkpt>
      <trkpt lat="44.46433" lon="5.08447">
        <ele>1172.47</ele>
        <time>2015-12-20T10:28:40Z</time>
      </trkpt>
      <trkpt lat="44.46433" lon="5.08448">
        <ele>1174.39</ele>
        <time>2015-12-20T10:28:42Z</time>
      </trkpt>
      <trkpt lat="44.46433" lon="5.08453">
        <ele>1174.39</ele>
        <time>2015-12-20T10:28:48Z</time>
      </trkpt>
      <trkpt lat="44.46434" lon="5.08458">
        <ele>1175.83</ele>
        <time>2015-12-20T10:28:53Z</time>
      </trkpt>
      <trkpt lat="44.46434" lon="5.08465">
        <ele>1177.27</ele>
        <time>2015-12-20T10:29:00Z</time>
      </trkpt>
      <trkpt lat="44.46436" lon="5.08484">
        <ele>1178.23</ele>
        <time>2015-12-20T10:29:16Z</time>
      </trkpt>
      <trkpt lat="44.46439" lon="5.08501">
        <ele>1181.12</ele>
        <time>2015-12-20T10:29:31Z</time>
      </trkpt>
      <trkpt lat="44.46444" lon="5.08518">
        <ele>1183.52</ele>
        <time>2015-12-20T10:29:49Z</time>
      </trkpt>
      <trkpt lat="44.46445" lon="5.08522">
        <ele>1185.44</ele>
        <time>2015-12-20T10:29:53Z</time>
      </trkpt>
      <trkpt lat="44.46449" lon="5.08535">
        <ele>1187.85</ele>
        <time>2015-12-20T10:30:08Z</time>
      </trkpt>
      <trkpt lat="44.46455" lon="5.0855">
        <ele>1189.77</ele>
        <time>2015-12-20T10:30:25Z</time>
      </trkpt>
      <trkpt lat="44.46458" lon="5.08562">
        <ele>1192.65</ele>
        <time>2015-12-20T10:30:38Z</time>
      </trkpt>
      <trkpt lat="44.46462" lon="5.08574">
        <ele>1194.09</ele>
        <time>2015-12-20T10:30:52Z</time>
      </trkpt>
      <trkpt lat="44.46467" lon="5.08589">
        <ele>1197.46</ele>
        <time>2015-12-20T10:31:08Z</time>
      </trkpt>
      <trkpt lat="44.46473" lon="5.08604">
        <ele>1198.9</ele>
        <time>2015-12-20T10:31:24Z</time>
      </trkpt>
      <trkpt lat="44.46479" lon="5.08615">
        <ele>1200.82</ele>
        <time>2015-12-20T10:31:38Z</time>
      </trkpt>
      <trkpt lat="44.46486" lon="5.08625">
        <ele>1203.71</ele>
        <time>2015-12-20T10:31:54Z</time>
      </trkpt>
      <trkpt lat="44.4649" lon="5.08632">
        <ele>1205.15</ele>
        <time>2015-12-20T10:32:03Z</time>
      </trkpt>
      <trkpt lat="44.46497" lon="5.08644">
        <ele>1207.55</ele>
        <time>2015-12-20T10:32:20Z</time>
      </trkpt>
      <trkpt lat="44.46506" lon="5.08654">
        <ele>1210.44</ele>
        <time>2015-12-20T10:32:36Z</time>
      </trkpt>
      <trkpt lat="44.46512" lon="5.08662">
        <ele>1212.36</ele>
        <time>2015-12-20T10:32:51Z</time>
      </trkpt>
      <trkpt lat="44.4652" lon="5.08671">
        <ele>1214.76</ele>
        <time>2015-12-20T10:33:04Z</time>
      </trkpt>
      <trkpt lat="44.46528" lon="5.08681">
        <ele>1217.17</ele>
        <time>2015-12-20T10:33:18Z</time>
      </trkpt>
      <trkpt lat="44.46538" lon="5.08689">
        <ele>1219.57</ele>
        <time>2015-12-20T10:33:35Z</time>
      </trkpt>
      <trkpt lat="44.46549" lon="5.08699">
        <ele>1222.45</ele>
        <time>2015-12-20T10:33:54Z</time>
      </trkpt>
      <trkpt lat="44.46557" lon="5.08715">
        <ele>1224.86</ele>
        <time>2015-12-20T10:34:12Z</time>
      </trkpt>
      <trkpt lat="44.46567" lon="5.08731">
        <ele>1226.78</ele>
        <time>2015-12-20T10:34:30Z</time>
      </trkpt>
      <trkpt lat="44.46577" lon="5.08744">
        <ele>1229.18</ele>
        <time>2015-12-20T10:34:47Z</time>
      </trkpt>
      <trkpt lat="44.46589" lon="5.08757">
        <ele>1232.55</ele>
        <time>2015-12-20T10:35:06Z</time>
      </trkpt>
      <trkpt lat="44.46598" lon="5.08769">
        <ele>1235.43</ele>
        <time>2015-12-20T10:35:23Z</time>
      </trkpt>
      <trkpt lat="44.46608" lon="5.08781">
        <ele>1238.32</ele>
        <time>2015-12-20T10:35:41Z</time>
      </trkpt>
      <trkpt lat="44.46615" lon="5.08789">
        <ele>1239.76</ele>
        <time>2015-12-20T10:35:53Z</time>
      </trkpt>
      <trkpt lat="44.46628" lon="5.08801">
        <ele>1243.12</ele>
        <time>2015-12-20T10:36:12Z</time>
      </trkpt>
      <trkpt lat="44.46641" lon="5.08817">
        <ele>1246.01</ele>
        <time>2015-12-20T10:36:33Z</time>
      </trkpt>
      <trkpt lat="44.46652" lon="5.08829">
        <ele>1248.89</ele>
        <time>2015-12-20T10:36:50Z</time>
      </trkpt>
      <trkpt lat="44.46658" lon="5.08843">
        <ele>1252.74</ele>
        <time>2015-12-20T10:37:07Z</time>
      </trkpt>
      <trkpt lat="44.46664" lon="5.08856">
        <ele>1255.14</ele>
        <time>2015-12-20T10:37:22Z</time>
      </trkpt>
      <trkpt lat="44.46673" lon="5.0887">
        <ele>1257.06</ele>
        <time>2015-12-20T10:37:38Z</time>
      </trkpt>
      <trkpt lat="44.46672" lon="5.08888">
        <ele>1258.02</ele>
        <time>2015-12-20T10:37:55Z</time>
      </trkpt>
      <trkpt lat="44.46672" lon="5.08894">
        <ele>1258.5</ele>
        <time>2015-12-20T10:38:00Z</time>
      </trkpt>
      <trkpt lat="44.4667" lon="5.08908">
        <ele>1256.1</ele>
        <time>2015-12-20T10:38:12Z</time>
      </trkpt>
      <trkpt lat="44.46663" lon="5.0893">
        <ele>1256.1</ele>
        <time>2015-12-20T10:38:28Z</time>
      </trkpt>
      <trkpt lat="44.46656" lon="5.0895">
        <ele>1256.1</ele>
        <time>2015-12-20T10:38:42Z</time>
      </trkpt>
      <trkpt lat="44.46655" lon="5.08953">
        <ele>1257.54</ele>
        <time>2015-12-20T10:38:45Z</time>
      </trkpt>
      <trkpt lat="44.46649" lon="5.08969">
        <ele>1259.46</ele>
        <time>2015-12-20T10:38:59Z</time>
      </trkpt>
      <trkpt lat="44.46646" lon="5.08975">
        <ele>1258.02</ele>
        <time>2015-12-20T10:39:03Z</time>
      </trkpt>
      <trkpt lat="44.46634" lon="5.08997">
        <ele>1256.58</ele>
        <time>2015-12-20T10:39:21Z</time>
      </trkpt>
      <trkpt lat="44.46624" lon="5.09015">
        <ele>1257.54</ele>
        <time>2015-12-20T10:39:34Z</time>
      </trkpt>
      <trkpt lat="44.46621" lon="5.09022">
        <ele>1255.62</ele>
        <time>2015-12-20T10:39:39Z</time>
      </trkpt>
      <trkpt lat="44.46618" lon="5.09027">
        <ele>1257.06</ele>
        <time>2015-12-20T10:39:44Z</time>
      </trkpt>
      <trkpt lat="44.4661" lon="5.0904">
        <ele>1258.02</ele>
        <time>2015-12-20T10:39:57Z</time>
      </trkpt>
      <trkpt lat="44.46603" lon="5.09052">
        <ele>1259.94</ele>
        <time>2015-12-20T10:40:09Z</time>
      </trkpt>
      <trkpt lat="44.46602" lon="5.09053">
        <ele>1260.91</ele>
        <time>2015-12-20T10:40:12Z</time>
      </trkpt>
      <trkpt lat="44.46592" lon="5.09068">
        <ele>1260.91</ele>
        <time>2015-12-20T10:40:25Z</time>
      </trkpt>
      <trkpt lat="44.46581" lon="5.09086">
        <ele>1262.83</ele>
        <time>2015-12-20T10:40:41Z</time>
      </trkpt>
      <trkpt lat="44.46579" lon="5.09091">
        <ele>1262.35</ele>
        <time>2015-12-20T10:40:45Z</time>
      </trkpt>
      <trkpt lat="44.46572" lon="5.09105">
        <ele>1265.71</ele>
        <time>2015-12-20T10:40:59Z</time>
      </trkpt>
      <trkpt lat="44.46566" lon="5.09114">
        <ele>1268.12</ele>
        <time>2015-12-20T10:41:12Z</time>
      </trkpt>
      <trkpt lat="44.46561" lon="5.09122">
        <ele>1271</ele>
        <time>2015-12-20T10:41:27Z</time>
      </trkpt>
      <trkpt lat="44.4655" lon="5.09136">
        <ele>1272.92</ele>
        <time>2015-12-20T10:41:44Z</time>
      </trkpt>
      <trkpt lat="44.46544" lon="5.09145">
        <ele>1273.88</ele>
        <time>2015-12-20T10:41:52Z</time>
      </trkpt>
      <trkpt lat="44.46536" lon="5.09164">
        <ele>1274.85</ele>
        <time>2015-12-20T10:42:07Z</time>
      </trkpt>
      <trkpt lat="44.46525" lon="5.09184">
        <ele>1274.85</ele>
        <time>2015-12-20T10:42:22Z</time>
      </trkpt>
      <trkpt lat="44.46517" lon="5.09202">
        <ele>1276.77</ele>
        <time>2015-12-20T10:42:36Z</time>
      </trkpt>
      <trkpt lat="44.46512" lon="5.09215">
        <ele>1278.21</ele>
        <time>2015-12-20T10:42:48Z</time>
      </trkpt>
      <trkpt lat="44.46504" lon="5.09236">
        <ele>1281.09</ele>
        <time>2015-12-20T10:43:04Z</time>
      </trkpt>
      <trkpt lat="44.46497" lon="5.09258">
        <ele>1281.57</ele>
        <time>2015-12-20T10:43:19Z</time>
      </trkpt>
      <trkpt lat="44.4649" lon="5.09276">
        <ele>1281.57</ele>
        <time>2015-12-20T10:43:32Z</time>
      </trkpt>
      <trkpt lat="44.46483" lon="5.09301">
        <ele>1281.57</ele>
        <time>2015-12-20T10:43:49Z</time>
      </trkpt>
      <trkpt lat="44.46481" lon="5.09307">
        <ele>1280.61</ele>
        <time>2015-12-20T10:43:53Z</time>
      </trkpt>
      <trkpt lat="44.46474" lon="5.09328">
        <ele>1279.65</ele>
        <time>2015-12-20T10:44:07Z</time>
      </trkpt>
      <trkpt lat="44.46467" lon="5.09348">
        <ele>1279.65</ele>
        <time>2015-12-20T10:44:20Z</time>
      </trkpt>
      <trkpt lat="44.46463" lon="5.09358">
        <ele>1279.65</ele>
        <time>2015-12-20T10:44:27Z</time>
      </trkpt>
      <trkpt lat="44.46459" lon="5.09365">
        <ele>1281.09</ele>
        <time>2015-12-20T10:44:32Z</time>
      </trkpt>
      <trkpt lat="44.46452" lon="5.09381">
        <ele>1282.54</ele>
        <time>2015-12-20T10:44:44Z</time>
      </trkpt>
      <trkpt lat="44.46444" lon="5.094">
        <ele>1283.98</ele>
        <time>2015-12-20T10:44:59Z</time>
      </trkpt>
      <trkpt lat="44.46438" lon="5.09417">
        <ele>1285.9</ele>
        <time>2015-12-20T10:45:12Z</time>
      </trkpt>
      <trkpt lat="44.4643" lon="5.09434">
        <ele>1287.34</ele>
        <time>2015-12-20T10:45:27Z</time>
      </trkpt>
      <trkpt lat="44.46425" lon="5.09446">
        <ele>1288.78</ele>
        <time>2015-12-20T10:45:40Z</time>
      </trkpt>
      <trkpt lat="44.46422" lon="5.09457">
        <ele>1291.19</ele>
        <time>2015-12-20T10:45:57Z</time>
      </trkpt>
      <trkpt lat="44.46417" lon="5.09465">
        <ele>1293.11</ele>
        <time>2015-12-20T10:46:11Z</time>
      </trkpt>
      <trkpt lat="44.46413" lon="5.09475">
        <ele>1296.48</ele>
        <time>2015-12-20T10:46:27Z</time>
      </trkpt>
      <trkpt lat="44.46407" lon="5.09481">
        <ele>1298.4</ele>
        <time>2015-12-20T10:46:42Z</time>
      </trkpt>
      <trkpt lat="44.46402" lon="5.09495">
        <ele>1301.28</ele>
        <time>2015-12-20T10:46:58Z</time>
      </trkpt>
      <trkpt lat="44.46394" lon="5.09509">
        <ele>1301.28</ele>
        <time>2015-12-20T10:47:11Z</time>
      </trkpt>
      <trkpt lat="44.46389" lon="5.0952">
        <ele>1303.2</ele>
        <time>2015-12-20T10:47:24Z</time>
      </trkpt>
      <trkpt lat="44.46389" lon="5.09521">
        <ele>1301.76</ele>
        <time>2015-12-20T10:47:29Z</time>
      </trkpt>
      <trkpt lat="44.46388" lon="5.09522">
        <ele>1302.72</ele>
        <time>2015-12-20T10:47:33Z</time>
      </trkpt>
      <trkpt lat="44.46381" lon="5.09534">
        <ele>1302.72</ele>
        <time>2015-12-20T10:47:46Z</time>
      </trkpt>
      <trkpt lat="44.46373" lon="5.09548">
        <ele>1304.65</ele>
        <time>2015-12-20T10:47:59Z</time>
      </trkpt>
      <trkpt lat="44.46367" lon="5.09562">
        <ele>1307.05</ele>
        <time>2015-12-20T10:48:13Z</time>
      </trkpt>
      <trkpt lat="44.46357" lon="5.09576">
        <ele>1308.49</ele>
        <time>2015-12-20T10:48:27Z</time>
      </trkpt>
      <trkpt lat="44.46352" lon="5.09584">
        <ele>1308.97</ele>
        <time>2015-12-20T10:48:35Z</time>
      </trkpt>
      <trkpt lat="44.46349" lon="5.09587">
        <ele>1308.97</ele>
        <time>2015-12-20T10:48:38Z</time>
      </trkpt>
      <trkpt lat="44.46337" lon="5.09602">
        <ele>1309.93</ele>
        <time>2015-12-20T10:48:55Z</time>
      </trkpt>
      <trkpt lat="44.46333" lon="5.09607">
        <ele>1310.9</ele>
        <time>2015-12-20T10:49:00Z</time>
      </trkpt>
      <trkpt lat="44.46331" lon="5.0961">
        <ele>1308.49</ele>
        <time>2015-12-20T10:49:03Z</time>
      </trkpt>
      <trkpt lat="44.4633" lon="5.09612">
        <ele>1309.93</ele>
        <time>2015-12-20T10:49:05Z</time>
      </trkpt>
      <trkpt lat="44.46318" lon="5.09628">
        <ele>1310.41</ele>
        <time>2015-12-20T10:49:23Z</time>
      </trkpt>
      <trkpt lat="44.46314" lon="5.09632">
        <ele>1308.97</ele>
        <time>2015-12-20T10:49:28Z</time>
      </trkpt>
      <trkpt lat="44.46303" lon="5.09646">
        <ele>1310.9</ele>
        <time>2015-12-20T10:49:42Z</time>
      </trkpt>
      <trkpt lat="44.46293" lon="5.09662">
        <ele>1311.86</ele>
        <time>2015-12-20T10:49:56Z</time>
      </trkpt>
      <trkpt lat="44.4628" lon="5.09679">
        <ele>1310.9</ele>
        <time>2015-12-20T10:50:12Z</time>
      </trkpt>
      <trkpt lat="44.46264" lon="5.09692">
        <ele>1309.45</ele>
        <time>2015-12-20T10:50:28Z</time>
      </trkpt>
      <trkpt lat="44.46249" lon="5.097">
        <ele>1308.97</ele>
        <time>2015-12-20T10:50:42Z</time>
      </trkpt>
      <trkpt lat="44.46241" lon="5.09704">
        <ele>1308.01</ele>
        <time>2015-12-20T10:50:50Z</time>
      </trkpt>
      <trkpt lat="44.46237" lon="5.09705">
        <ele>1306.09</ele>
        <time>2015-12-20T10:50:54Z</time>
      </trkpt>
      <trkpt lat="44.46234" lon="5.09703">
        <ele>1308.97</ele>
        <time>2015-12-20T10:51:11Z</time>
      </trkpt>
      <trkpt lat="44.46236" lon="5.09702">
        <ele>1308.97</ele>
        <time>2015-12-20T10:51:40Z</time>
      </trkpt>
      <trkpt lat="44.46235" lon="5.097">
        <ele>1309.45</ele>
        <time>2015-12-20T10:52:10Z</time>
      </trkpt>
      <trkpt lat="44.46234" lon="5.09701">
        <ele>1307.05</ele>
        <time>2015-12-20T10:52:30Z</time>
      </trkpt>
      <trkpt lat="44.46235" lon="5.09699">
        <ele>1308.49</ele>
        <time>2015-12-20T10:52:51Z</time>
      </trkpt>
      <trkpt lat="44.46234" lon="5.097">
        <ele>1307.53</ele>
        <time>2015-12-20T10:53:07Z</time>
      </trkpt>
      <trkpt lat="44.46235" lon="5.09701">
        <ele>1308.97</ele>
        <time>2015-12-20T10:53:31Z</time>
      </trkpt>
      <trkpt lat="44.46235" lon="5.09701">
        <ele>1307.53</ele>
        <time>2015-12-20T10:53:41Z</time>
      </trkpt>
      <trkpt lat="44.46224" lon="5.09707">
        <ele>1307.05</ele>
        <time>2015-12-20T10:53:55Z</time>
      </trkpt>
      <trkpt lat="44.46204" lon="5.09713">
        <ele>1306.57</ele>
        <time>2015-12-20T10:54:13Z</time>
      </trkpt>
      <trkpt lat="44.46197" lon="5.09716">
        <ele>1306.57</ele>
        <time>2015-12-20T10:54:19Z</time>
      </trkpt>
      <trkpt lat="44.46189" lon="5.09715">
        <ele>1306.57</ele>
        <time>2015-12-20T10:54:26Z</time>
      </trkpt>
      <trkpt lat="44.46174" lon="5.09703">
        <ele>1306.57</ele>
        <time>2015-12-20T10:54:42Z</time>
      </trkpt>
      <trkpt lat="44.46163" lon="5.09697">
        <ele>1307.53</ele>
        <time>2015-12-20T10:54:53Z</time>
      </trkpt>
      <trkpt lat="44.46156" lon="5.09693">
        <ele>1308.49</ele>
        <time>2015-12-20T10:55:00Z</time>
      </trkpt>
      <trkpt lat="44.46152" lon="5.09693">
        <ele>1309.45</ele>
        <time>2015-12-20T10:55:04Z</time>
      </trkpt>
      <trkpt lat="44.4614" lon="5.09698">
        <ele>1312.34</ele>
        <time>2015-12-20T10:55:18Z</time>
      </trkpt>
      <trkpt lat="44.46128" lon="5.09706">
        <ele>1314.74</ele>
        <time>2015-12-20T10:55:34Z</time>
      </trkpt>
      <trkpt lat="44.46116" lon="5.09714">
        <ele>1317.62</ele>
        <time>2015-12-20T10:55:49Z</time>
      </trkpt>
      <trkpt lat="44.46105" lon="5.09722">
        <ele>1320.03</ele>
        <time>2015-12-20T10:56:05Z</time>
      </trkpt>
      <trkpt lat="44.46092" lon="5.0973">
        <ele>1321.47</ele>
        <time>2015-12-20T10:56:21Z</time>
      </trkpt>
      <trkpt lat="44.46082" lon="5.09738">
        <ele>1323.39</ele>
        <time>2015-12-20T10:56:35Z</time>
      </trkpt>
      <trkpt lat="44.4607" lon="5.09748">
        <ele>1325.8</ele>
        <time>2015-12-20T10:56:50Z</time>
      </trkpt>
      <trkpt lat="44.46057" lon="5.0976">
        <ele>1326.76</ele>
        <time>2015-12-20T10:57:05Z</time>
      </trkpt>
      <trkpt lat="44.46041" lon="5.09778">
        <ele>1324.35</ele>
        <time>2015-12-20T10:57:24Z</time>
      </trkpt>
      <trkpt lat="44.4603" lon="5.098">
        <ele>1323.87</ele>
        <time>2015-12-20T10:57:39Z</time>
      </trkpt>
      <trkpt lat="44.46017" lon="5.09818">
        <ele>1322.91</ele>
        <time>2015-12-20T10:57:55Z</time>
      </trkpt>
      <trkpt lat="44.46005" lon="5.09836">
        <ele>1321.95</ele>
        <time>2015-12-20T10:58:10Z</time>
      </trkpt>
      <trkpt lat="44.45994" lon="5.09853">
        <ele>1321.95</ele>
        <time>2015-12-20T10:58:24Z</time>
      </trkpt>
      <trkpt lat="44.45981" lon="5.0987">
        <ele>1321.95</ele>
        <time>2015-12-20T10:58:40Z</time>
      </trkpt>
      <trkpt lat="44.45967" lon="5.09886">
        <ele>1321.95</ele>
        <time>2015-12-20T10:58:56Z</time>
      </trkpt>
      <trkpt lat="44.45961" lon="5.09896">
        <ele>1323.39</ele>
        <time>2015-12-20T10:59:05Z</time>
      </trkpt>
      <trkpt lat="44.4595" lon="5.09912">
        <ele>1324.83</ele>
        <time>2015-12-20T10:59:19Z</time>
      </trkpt>
      <trkpt lat="44.45942" lon="5.09931">
        <ele>1325.8</ele>
        <time>2015-12-20T10:59:34Z</time>
      </trkpt>
      <trkpt lat="44.45929" lon="5.09945">
        <ele>1328.2</ele>
        <time>2015-12-20T10:59:50Z</time>
      </trkpt>
      <trkpt lat="44.45918" lon="5.09959">
        <ele>1330.6</ele>
        <time>2015-12-20T11:00:06Z</time>
      </trkpt>
      <trkpt lat="44.45912" lon="5.09966">
        <ele>1332.04</ele>
        <time>2015-12-20T11:00:13Z</time>
      </trkpt>
      <trkpt lat="44.45907" lon="5.09973">
        <ele>1333.97</ele>
        <time>2015-12-20T11:00:20Z</time>
      </trkpt>
      <trkpt lat="44.45897" lon="5.09984">
        <ele>1332.52</ele>
        <time>2015-12-20T11:00:31Z</time>
      </trkpt>
      <trkpt lat="44.45895" lon="5.09988">
        <ele>1335.41</ele>
        <time>2015-12-20T11:00:33Z</time>
      </trkpt>
      <trkpt lat="44.45894" lon="5.0999">
        <ele>1335.41</ele>
        <time>2015-12-20T11:00:34Z</time>
      </trkpt>
      <trkpt lat="44.4589" lon="5.09994">
        <ele>1333.49</ele>
        <time>2015-12-20T11:00:37Z</time>
      </trkpt>
      <trkpt lat="44.45888" lon="5.09997">
        <ele>1332.04</ele>
        <time>2015-12-20T11:00:39Z</time>
      </trkpt>
      <trkpt lat="44.45874" lon="5.10011">
        <ele>1331.56</ele>
        <time>2015-12-20T11:00:52Z</time>
      </trkpt>
      <trkpt lat="44.45867" lon="5.10017">
        <ele>1332.04</ele>
        <time>2015-12-20T11:00:59Z</time>
      </trkpt>
      <trkpt lat="44.45865" lon="5.10018">
        <ele>1330.6</ele>
        <time>2015-12-20T11:01:01Z</time>
      </trkpt>
      <trkpt lat="44.45864" lon="5.1002">
        <ele>1332.04</ele>
        <time>2015-12-20T11:01:03Z</time>
      </trkpt>
      <trkpt lat="44.45852" lon="5.10029">
        <ele>1332.04</ele>
        <time>2015-12-20T11:01:15Z</time>
      </trkpt>
      <trkpt lat="44.45836" lon="5.10041">
        <ele>1333.49</ele>
        <time>2015-12-20T11:01:30Z</time>
      </trkpt>
      <trkpt lat="44.45818" lon="5.10052">
        <ele>1335.41</ele>
        <time>2015-12-20T11:01:46Z</time>
      </trkpt>
      <trkpt lat="44.45811" lon="5.10056">
        <ele>1333.97</ele>
        <time>2015-12-20T11:01:53Z</time>
      </trkpt>
      <trkpt lat="44.45793" lon="5.10061">
        <ele>1332.52</ele>
        <time>2015-12-20T11:02:08Z</time>
      </trkpt>
      <trkpt lat="44.45776" lon="5.10066">
        <ele>1331.56</ele>
        <time>2015-12-20T11:02:21Z</time>
      </trkpt>
      <trkpt lat="44.45757" lon="5.10069">
        <ele>1330.6</ele>
        <time>2015-12-20T11:02:36Z</time>
      </trkpt>
      <trkpt lat="44.45742" lon="5.1007">
        <ele>1329.16</ele>
        <time>2015-12-20T11:02:50Z</time>
      </trkpt>
      <trkpt lat="44.45732" lon="5.10073">
        <ele>1330.6</ele>
        <time>2015-12-20T11:03:01Z</time>
      </trkpt>
      <trkpt lat="44.45725" lon="5.10076">
        <ele>1333.49</ele>
        <time>2015-12-20T11:03:12Z</time>
      </trkpt>
      <trkpt lat="44.45723" lon="5.10086">
        <ele>1336.85</ele>
        <time>2015-12-20T11:03:27Z</time>
      </trkpt>
      <trkpt lat="44.45719" lon="5.10094">
        <ele>1339.25</ele>
        <time>2015-12-20T11:03:42Z</time>
      </trkpt>
      <trkpt lat="44.45718" lon="5.10095">
        <ele>1340.7</ele>
        <time>2015-12-20T11:03:59Z</time>
      </trkpt>
      <trkpt lat="44.45719" lon="5.10095">
        <ele>1338.77</ele>
        <time>2015-12-20T11:04:17Z</time>
      </trkpt>
      <trkpt lat="44.45721" lon="5.10095">
        <ele>1339.25</ele>
        <time>2015-12-20T11:04:39Z</time>
      </trkpt>
      <trkpt lat="44.45721" lon="5.10095">
        <ele>1340.22</ele>
        <time>2015-12-20T11:04:44Z</time>
      </trkpt>
      <trkpt lat="44.45723" lon="5.10093">
        <ele>1339.25</ele>
        <time>2015-12-20T11:05:14Z</time>
      </trkpt>
      <trkpt lat="44.45724" lon="5.10094">
        <ele>1339.25</ele>
        <time>2015-12-20T11:05:42Z</time>
      </trkpt>
      <trkpt lat="44.45723" lon="5.10094">
        <ele>1339.25</ele>
        <time>2015-12-20T11:06:03Z</time>
      </trkpt>
      <trkpt lat="44.45722" lon="5.10095">
        <ele>1340.7</ele>
        <time>2015-12-20T11:06:24Z</time>
      </trkpt>
      <trkpt lat="44.45724" lon="5.10093">
        <ele>1339.25</ele>
        <time>2015-12-20T11:06:40Z</time>
      </trkpt>
      <trkpt lat="44.45726" lon="5.10087">
        <ele>1336.37</ele>
        <time>2015-12-20T11:06:48Z</time>
      </trkpt>
      <trkpt lat="44.45727" lon="5.10086">
        <ele>1336.37</ele>
        <time>2015-12-20T11:06:49Z</time>
      </trkpt>
      <trkpt lat="44.45737" lon="5.10076">
        <ele>1333.01</ele>
        <time>2015-12-20T11:07:04Z</time>
      </trkpt>
      <trkpt lat="44.45746" lon="5.1007">
        <ele>1331.56</ele>
        <time>2015-12-20T11:07:16Z</time>
      </trkpt>
      <trkpt lat="44.45747" lon="5.1007">
        <ele>1331.56</ele>
        <time>2015-12-20T11:07:17Z</time>
      </trkpt>
      <trkpt lat="44.4576" lon="5.10066">
        <ele>1331.56</ele>
        <time>2015-12-20T11:07:31Z</time>
      </trkpt>
      <trkpt lat="44.45774" lon="5.10064">
        <ele>1333.01</ele>
        <time>2015-12-20T11:07:46Z</time>
      </trkpt>
      <trkpt lat="44.4579" lon="5.1006">
        <ele>1333.97</ele>
        <time>2015-12-20T11:08:01Z</time>
      </trkpt>
      <trkpt lat="44.458" lon="5.10059">
        <ele>1334.45</ele>
        <time>2015-12-20T11:08:11Z</time>
      </trkpt>
      <trkpt lat="44.45817" lon="5.10055">
        <ele>1335.89</ele>
        <time>2015-12-20T11:08:28Z</time>
      </trkpt>
      <trkpt lat="44.45832" lon="5.10046">
        <ele>1335.89</ele>
        <time>2015-12-20T11:08:41Z</time>
      </trkpt>
      <trkpt lat="44.45839" lon="5.10042">
        <ele>1334.93</ele>
        <time>2015-12-20T11:08:47Z</time>
      </trkpt>
      <trkpt lat="44.45854" lon="5.10033">
        <ele>1334.45</ele>
        <time>2015-12-20T11:09:00Z</time>
      </trkpt>
      <trkpt lat="44.45867" lon="5.10023">
        <ele>1333.01</ele>
        <time>2015-12-20T11:09:13Z</time>
      </trkpt>
      <trkpt lat="44.45881" lon="5.10013">
        <ele>1332.04</ele>
        <time>2015-12-20T11:09:26Z</time>
      </trkpt>
      <trkpt lat="44.45891" lon="5.10001">
        <ele>1332.04</ele>
        <time>2015-12-20T11:09:39Z</time>
      </trkpt>
      <trkpt lat="44.45893" lon="5.09999">
        <ele>1333.49</ele>
        <time>2015-12-20T11:09:41Z</time>
      </trkpt>
      <trkpt lat="44.45908" lon="5.09988">
        <ele>1334.93</ele>
        <time>2015-12-20T11:09:57Z</time>
      </trkpt>
      <trkpt lat="44.45925" lon="5.09977">
        <ele>1333.49</ele>
        <time>2015-12-20T11:10:11Z</time>
      </trkpt>
      <trkpt lat="44.45945" lon="5.09964">
        <ele>1332.04</ele>
        <time>2015-12-20T11:10:28Z</time>
      </trkpt>
      <trkpt lat="44.45958" lon="5.09943">
        <ele>1330.12</ele>
        <time>2015-12-20T11:10:44Z</time>
      </trkpt>
      <trkpt lat="44.45968" lon="5.09922">
        <ele>1329.16</ele>
        <time>2015-12-20T11:10:59Z</time>
      </trkpt>
      <trkpt lat="44.45977" lon="5.09901">
        <ele>1327.24</ele>
        <time>2015-12-20T11:11:13Z</time>
      </trkpt>
      <trkpt lat="44.45989" lon="5.09878">
        <ele>1326.28</ele>
        <time>2015-12-20T11:11:29Z</time>
      </trkpt>
      <trkpt lat="44.45998" lon="5.09859">
        <ele>1325.31</ele>
        <time>2015-12-20T11:11:42Z</time>
      </trkpt>
      <trkpt lat="44.46008" lon="5.09841">
        <ele>1324.83</ele>
        <time>2015-12-20T11:11:55Z</time>
      </trkpt>
      <trkpt lat="44.46014" lon="5.09832">
        <ele>1324.83</ele>
        <time>2015-12-20T11:12:03Z</time>
      </trkpt>
      <trkpt lat="44.46018" lon="5.09827">
        <ele>1324.83</ele>
        <time>2015-12-20T11:12:08Z</time>
      </trkpt>
      <trkpt lat="44.46023" lon="5.09806">
        <ele>1324.83</ele>
        <time>2015-12-20T11:12:21Z</time>
      </trkpt>
      <trkpt lat="44.46027" lon="5.09797">
        <ele>1324.83</ele>
        <time>2015-12-20T11:12:27Z</time>
      </trkpt>
      <trkpt lat="44.46036" lon="5.09783">
        <ele>1326.28</ele>
        <time>2015-12-20T11:12:40Z</time>
      </trkpt>
      <trkpt lat="44.46046" lon="5.09767">
        <ele>1326.28</ele>
        <time>2015-12-20T11:12:53Z</time>
      </trkpt>
      <trkpt lat="44.46058" lon="5.09751">
        <ele>1327.72</ele>
        <time>2015-12-20T11:13:06Z</time>
      </trkpt>
      <trkpt lat="44.46062" lon="5.09747">
        <ele>1327.72</ele>
        <time>2015-12-20T11:13:10Z</time>
      </trkpt>
      <trkpt lat="44.46067" lon="5.09744">
        <ele>1327.72</ele>
        <time>2015-12-20T11:13:14Z</time>
      </trkpt>
      <trkpt lat="44.46084" lon="5.0973">
        <ele>1326.28</ele>
        <time>2015-12-20T11:13:30Z</time>
      </trkpt>
      <trkpt lat="44.461" lon="5.09719">
        <ele>1322.91</ele>
        <time>2015-12-20T11:13:44Z</time>
      </trkpt>
      <trkpt lat="44.46117" lon="5.0971">
        <ele>1320.03</ele>
        <time>2015-12-20T11:13:59Z</time>
      </trkpt>
      <trkpt lat="44.46121" lon="5.09705">
        <ele>1318.59</ele>
        <time>2015-12-20T11:14:04Z</time>
      </trkpt>
      <trkpt lat="44.46139" lon="5.09694">
        <ele>1314.74</ele>
        <time>2015-12-20T11:14:19Z</time>
      </trkpt>
      <trkpt lat="44.46152" lon="5.09685">
        <ele>1311.86</ele>
        <time>2015-12-20T11:14:31Z</time>
      </trkpt>
      <trkpt lat="44.4617" lon="5.09675">
        <ele>1308.49</ele>
        <time>2015-12-20T11:14:47Z</time>
      </trkpt>
      <trkpt lat="44.46185" lon="5.09667">
        <ele>1307.05</ele>
        <time>2015-12-20T11:15:00Z</time>
      </trkpt>
      <trkpt lat="44.46209" lon="5.09658">
        <ele>1306.57</ele>
        <time>2015-12-20T11:15:19Z</time>
      </trkpt>
      <trkpt lat="44.46224" lon="5.0965">
        <ele>1305.61</ele>
        <time>2015-12-20T11:15:32Z</time>
      </trkpt>
      <trkpt lat="44.46245" lon="5.0964">
        <ele>1307.53</ele>
        <time>2015-12-20T11:15:49Z</time>
      </trkpt>
      <trkpt lat="44.46266" lon="5.09631">
        <ele>1307.53</ele>
        <time>2015-12-20T11:16:07Z</time>
      </trkpt>
      <trkpt lat="44.46286" lon="5.09619">
        <ele>1306.57</ele>
        <time>2015-12-20T11:16:23Z</time>
      </trkpt>
      <trkpt lat="44.46297" lon="5.09613">
        <ele>1308.01</ele>
        <time>2015-12-20T11:16:32Z</time>
      </trkpt>
      <trkpt lat="44.4632" lon="5.09598">
        <ele>1309.45</ele>
        <time>2015-12-20T11:16:52Z</time>
      </trkpt>
      <trkpt lat="44.46338" lon="5.09583">
        <ele>1309.93</ele>
        <time>2015-12-20T11:17:08Z</time>
      </trkpt>
      <trkpt lat="44.46354" lon="5.09563">
        <ele>1309.45</ele>
        <time>2015-12-20T11:17:25Z</time>
      </trkpt>
      <trkpt lat="44.46357" lon="5.09559">
        <ele>1308.49</ele>
        <time>2015-12-20T11:17:28Z</time>
      </trkpt>
      <trkpt lat="44.46366" lon="5.09537">
        <ele>1306.09</ele>
        <time>2015-12-20T11:17:43Z</time>
      </trkpt>
      <trkpt lat="44.46368" lon="5.09533">
        <ele>1306.09</ele>
        <time>2015-12-20T11:17:47Z</time>
      </trkpt>
      <trkpt lat="44.46382" lon="5.09507">
        <ele>1305.13</ele>
        <time>2015-12-20T11:18:07Z</time>
      </trkpt>
      <trkpt lat="44.46389" lon="5.095">
        <ele>1304.65</ele>
        <time>2015-12-20T11:18:15Z</time>
      </trkpt>
      <trkpt lat="44.4639" lon="5.09499">
        <ele>1303.2</ele>
        <time>2015-12-20T11:18:17Z</time>
      </trkpt>
      <trkpt lat="44.46393" lon="5.09498">
        <ele>1303.2</ele>
        <time>2015-12-20T11:18:20Z</time>
      </trkpt>
      <trkpt lat="44.46399" lon="5.09486">
        <ele>1302.24</ele>
        <time>2015-12-20T11:18:34Z</time>
      </trkpt>
      <trkpt lat="44.4641" lon="5.09476">
        <ele>1300.8</ele>
        <time>2015-12-20T11:18:49Z</time>
      </trkpt>
      <trkpt lat="44.46416" lon="5.0947">
        <ele>1297.44</ele>
        <time>2015-12-20T11:18:57Z</time>
      </trkpt>
      <trkpt lat="44.46421" lon="5.09461">
        <ele>1295.03</ele>
        <time>2015-12-20T11:19:08Z</time>
      </trkpt>
      <trkpt lat="44.46427" lon="5.09446">
        <ele>1290.71</ele>
        <time>2015-12-20T11:19:21Z</time>
      </trkpt>
      <trkpt lat="44.46429" lon="5.09439">
        <ele>1289.75</ele>
        <time>2015-12-20T11:19:26Z</time>
      </trkpt>
      <trkpt lat="44.46435" lon="5.09408">
        <ele>1288.78</ele>
        <time>2015-12-20T11:19:43Z</time>
      </trkpt>
      <trkpt lat="44.46445" lon="5.09383">
        <ele>1285.9</ele>
        <time>2015-12-20T11:19:59Z</time>
      </trkpt>
      <trkpt lat="44.46457" lon="5.09362">
        <ele>1284.94</ele>
        <time>2015-12-20T11:20:14Z</time>
      </trkpt>
      <trkpt lat="44.46461" lon="5.09356">
        <ele>1283.5</ele>
        <time>2015-12-20T11:20:18Z</time>
      </trkpt>
      <trkpt lat="44.4647" lon="5.09336">
        <ele>1282.54</ele>
        <time>2015-12-20T11:20:32Z</time>
      </trkpt>
      <trkpt lat="44.46475" lon="5.09322">
        <ele>1282.06</ele>
        <time>2015-12-20T11:20:42Z</time>
      </trkpt>
      <trkpt lat="44.46478" lon="5.09307">
        <ele>1282.06</ele>
        <time>2015-12-20T11:20:56Z</time>
      </trkpt>
      <trkpt lat="44.46478" lon="5.09306">
        <ele>1282.06</ele>
        <time>2015-12-20T11:20:58Z</time>
      </trkpt>
      <trkpt lat="44.46481" lon="5.09299">
        <ele>1282.54</ele>
        <time>2015-12-20T11:21:03Z</time>
      </trkpt>
      <trkpt lat="44.4649" lon="5.0927">
        <ele>1283.98</ele>
        <time>2015-12-20T11:21:20Z</time>
      </trkpt>
      <trkpt lat="44.46499" lon="5.09245">
        <ele>1282.54</ele>
        <time>2015-12-20T11:21:35Z</time>
      </trkpt>
      <trkpt lat="44.46508" lon="5.09214">
        <ele>1281.09</ele>
        <time>2015-12-20T11:21:53Z</time>
      </trkpt>
      <trkpt lat="44.46516" lon="5.09193">
        <ele>1278.21</ele>
        <time>2015-12-20T11:22:05Z</time>
      </trkpt>
      <trkpt lat="44.4653" lon="5.09167">
        <ele>1276.29</ele>
        <time>2015-12-20T11:22:22Z</time>
      </trkpt>
      <trkpt lat="44.46542" lon="5.09145">
        <ele>1274.85</ele>
        <time>2015-12-20T11:22:37Z</time>
      </trkpt>
      <trkpt lat="44.46546" lon="5.09137">
        <ele>1274.36</ele>
        <time>2015-12-20T11:22:49Z</time>
      </trkpt>
      <trkpt lat="44.4655" lon="5.09134">
        <ele>1274.36</ele>
        <time>2015-12-20T11:22:52Z</time>
      </trkpt>
      <trkpt lat="44.46559" lon="5.09121">
        <ele>1271</ele>
        <time>2015-12-20T11:23:06Z</time>
      </trkpt>
      <trkpt lat="44.46569" lon="5.0911">
        <ele>1268.12</ele>
        <time>2015-12-20T11:23:17Z</time>
      </trkpt>
      <trkpt lat="44.46574" lon="5.09103">
        <ele>1265.71</ele>
        <time>2015-12-20T11:23:23Z</time>
      </trkpt>
      <trkpt lat="44.46581" lon="5.0909">
        <ele>1263.79</ele>
        <time>2015-12-20T11:23:32Z</time>
      </trkpt>
      <trkpt lat="44.46592" lon="5.09071">
        <ele>1262.35</ele>
        <time>2015-12-20T11:23:45Z</time>
      </trkpt>
      <trkpt lat="44.46597" lon="5.09064">
        <ele>1261.39</ele>
        <time>2015-12-20T11:23:50Z</time>
      </trkpt>
      <trkpt lat="44.46616" lon="5.09035">
        <ele>1258.5</ele>
        <time>2015-12-20T11:24:11Z</time>
      </trkpt>
      <trkpt lat="44.4663" lon="5.09012">
        <ele>1257.06</ele>
        <time>2015-12-20T11:24:28Z</time>
      </trkpt>
      <trkpt lat="44.46643" lon="5.08986">
        <ele>1256.58</ele>
        <time>2015-12-20T11:24:46Z</time>
      </trkpt>
      <trkpt lat="44.4665" lon="5.08963">
        <ele>1259.46</ele>
        <time>2015-12-20T11:25:01Z</time>
      </trkpt>
      <trkpt lat="44.46654" lon="5.08952">
        <ele>1258.98</ele>
        <time>2015-12-20T11:25:09Z</time>
      </trkpt>
      <trkpt lat="44.46665" lon="5.08927">
        <ele>1256.58</ele>
        <time>2015-12-20T11:25:25Z</time>
      </trkpt>
      <trkpt lat="44.46676" lon="5.089">
        <ele>1256.1</ele>
        <time>2015-12-20T11:25:42Z</time>
      </trkpt>
      <trkpt lat="44.46677" lon="5.08897">
        <ele>1257.54</ele>
        <time>2015-12-20T11:25:44Z</time>
      </trkpt>
      <trkpt lat="44.46681" lon="5.08881">
        <ele>1258.02</ele>
        <time>2015-12-20T11:25:55Z</time>
      </trkpt>
      <trkpt lat="44.46682" lon="5.08875">
        <ele>1258.98</ele>
        <time>2015-12-20T11:26:00Z</time>
      </trkpt>
      <trkpt lat="44.46685" lon="5.08868">
        <ele>1258.98</ele>
        <time>2015-12-20T11:26:06Z</time>
      </trkpt>
      <trkpt lat="44.46686" lon="5.08859">
        <ele>1258.02</ele>
        <time>2015-12-20T11:26:10Z</time>
      </trkpt>
      <trkpt lat="44.46688" lon="5.08843">
        <ele>1254.66</ele>
        <time>2015-12-20T11:26:21Z</time>
      </trkpt>
      <trkpt lat="44.46689" lon="5.0884">
        <ele>1253.7</ele>
        <time>2015-12-20T11:26:23Z</time>
      </trkpt>
      <trkpt lat="44.46694" lon="5.0883">
        <ele>1252.74</ele>
        <time>2015-12-20T11:26:34Z</time>
      </trkpt>
      <trkpt lat="44.46695" lon="5.08825">
        <ele>1251.77</ele>
        <time>2015-12-20T11:26:38Z</time>
      </trkpt>
      <trkpt lat="44.46705" lon="5.08807">
        <ele>1248.41</ele>
        <time>2015-12-20T11:26:52Z</time>
      </trkpt>
      <trkpt lat="44.46713" lon="5.08789">
        <ele>1245.04</ele>
        <time>2015-12-20T11:27:04Z</time>
      </trkpt>
      <trkpt lat="44.46716" lon="5.08785">
        <ele>1244.08</ele>
        <time>2015-12-20T11:27:08Z</time>
      </trkpt>
      <trkpt lat="44.46718" lon="5.08776">
        <ele>1243.6</ele>
        <time>2015-12-20T11:27:14Z</time>
      </trkpt>
      <trkpt lat="44.4672" lon="5.08773">
        <ele>1242.64</ele>
        <time>2015-12-20T11:27:17Z</time>
      </trkpt>
      <trkpt lat="44.4672" lon="5.08767">
        <ele>1240.72</ele>
        <time>2015-12-20T11:27:22Z</time>
      </trkpt>
      <trkpt lat="44.46719" lon="5.08765">
        <ele>1239.28</ele>
        <time>2015-12-20T11:27:24Z</time>
      </trkpt>
      <trkpt lat="44.46718" lon="5.0876">
        <ele>1240.72</ele>
        <time>2015-12-20T11:27:27Z</time>
      </trkpt>
      <trkpt lat="44.46722" lon="5.08749">
        <ele>1240.24</ele>
        <time>2015-12-20T11:27:38Z</time>
      </trkpt>
      <trkpt lat="44.46729" lon="5.08728">
        <ele>1241.68</ele>
        <time>2015-12-20T11:27:54Z</time>
      </trkpt>
      <trkpt lat="44.4673" lon="5.08705">
        <ele>1239.28</ele>
        <time>2015-12-20T11:28:08Z</time>
      </trkpt>
      <trkpt lat="44.46734" lon="5.0868">
        <ele>1236.87</ele>
        <time>2015-12-20T11:28:23Z</time>
      </trkpt>
      <trkpt lat="44.46732" lon="5.08654">
        <ele>1235.43</ele>
        <time>2015-12-20T11:28:38Z</time>
      </trkpt>
      <trkpt lat="44.4673" lon="5.08633">
        <ele>1233.99</ele>
        <time>2015-12-20T11:28:52Z</time>
      </trkpt>
      <trkpt lat="44.46728" lon="5.08626">
        <ele>1232.55</ele>
        <time>2015-12-20T11:29:05Z</time>
      </trkpt>
      <trkpt lat="44.46728" lon="5.08625">
        <ele>1233.99</ele>
        <time>2015-12-20T11:29:07Z</time>
      </trkpt>
      <trkpt lat="44.46727" lon="5.08618">
        <ele>1232.07</ele>
        <time>2015-12-20T11:29:21Z</time>
      </trkpt>
      <trkpt lat="44.46727" lon="5.08611">
        <ele>1231.11</ele>
        <time>2015-12-20T11:29:26Z</time>
      </trkpt>
      <trkpt lat="44.46728" lon="5.08608">
        <ele>1232.55</ele>
        <time>2015-12-20T11:29:28Z</time>
      </trkpt>
      <trkpt lat="44.46728" lon="5.08603">
        <ele>1231.11</ele>
        <time>2015-12-20T11:29:31Z</time>
      </trkpt>
      <trkpt lat="44.46726" lon="5.08582">
        <ele>1228.7</ele>
        <time>2015-12-20T11:29:44Z</time>
      </trkpt>
      <trkpt lat="44.46734" lon="5.08562">
        <ele>1228.22</ele>
        <time>2015-12-20T11:29:59Z</time>
      </trkpt>
      <trkpt lat="44.46735" lon="5.08559">
        <ele>1228.22</ele>
        <time>2015-12-20T11:30:01Z</time>
      </trkpt>
      <trkpt lat="44.46742" lon="5.08544">
        <ele>1230.62</ele>
        <time>2015-12-20T11:30:14Z</time>
      </trkpt>
      <trkpt lat="44.46744" lon="5.08536">
        <ele>1229.18</ele>
        <time>2015-12-20T11:30:20Z</time>
      </trkpt>
      <trkpt lat="44.46747" lon="5.08514">
        <ele>1226.3</ele>
        <time>2015-12-20T11:30:34Z</time>
      </trkpt>
      <trkpt lat="44.46752" lon="5.08488">
        <ele>1222.93</ele>
        <time>2015-12-20T11:30:49Z</time>
      </trkpt>
      <trkpt lat="44.46758" lon="5.08478">
        <ele>1221.01</ele>
        <time>2015-12-20T11:30:56Z</time>
      </trkpt>
      <trkpt lat="44.46764" lon="5.08472">
        <ele>1217.65</ele>
        <time>2015-12-20T11:31:03Z</time>
      </trkpt>
      <trkpt lat="44.46773" lon="5.08465">
        <ele>1215.24</ele>
        <time>2015-12-20T11:31:14Z</time>
      </trkpt>
      <trkpt lat="44.46784" lon="5.08459">
        <ele>1211.88</ele>
        <time>2015-12-20T11:31:24Z</time>
      </trkpt>
      <trkpt lat="44.46795" lon="5.08457">
        <ele>1209</ele>
        <time>2015-12-20T11:31:33Z</time>
      </trkpt>
      <trkpt lat="44.46808" lon="5.08454">
        <ele>1205.63</ele>
        <time>2015-12-20T11:31:43Z</time>
      </trkpt>
      <trkpt lat="44.46815" lon="5.08455">
        <ele>1202.75</ele>
        <time>2015-12-20T11:31:51Z</time>
      </trkpt>
      <trkpt lat="44.46828" lon="5.08454">
        <ele>1199.38</ele>
        <time>2015-12-20T11:32:05Z</time>
      </trkpt>
      <trkpt lat="44.46831" lon="5.08452">
        <ele>1198.9</ele>
        <time>2015-12-20T11:32:07Z</time>
      </trkpt>
      <trkpt lat="44.46843" lon="5.08451">
        <ele>1198.42</ele>
        <time>2015-12-20T11:32:21Z</time>
      </trkpt>
      <trkpt lat="44.46846" lon="5.08448">
        <ele>1198.42</ele>
        <time>2015-12-20T11:32:39Z</time>
      </trkpt>
      <trkpt lat="44.46847" lon="5.08441">
        <ele>1196.98</ele>
        <time>2015-12-20T11:32:47Z</time>
      </trkpt>
      <trkpt lat="44.46849" lon="5.08435">
        <ele>1196.02</ele>
        <time>2015-12-20T11:32:55Z</time>
      </trkpt>
      <trkpt lat="44.46854" lon="5.08422">
        <ele>1193.61</ele>
        <time>2015-12-20T11:33:05Z</time>
      </trkpt>
      <trkpt lat="44.46859" lon="5.08399">
        <ele>1192.65</ele>
        <time>2015-12-20T11:33:18Z</time>
      </trkpt>
      <trkpt lat="44.46862" lon="5.08393">
        <ele>1191.69</ele>
        <time>2015-12-20T11:33:22Z</time>
      </trkpt>
      <trkpt lat="44.46866" lon="5.08379">
        <ele>1190.25</ele>
        <time>2015-12-20T11:33:32Z</time>
      </trkpt>
      <trkpt lat="44.46867" lon="5.08374">
        <ele>1188.81</ele>
        <time>2015-12-20T11:33:35Z</time>
      </trkpt>
      <trkpt lat="44.46872" lon="5.08362">
        <ele>1185.92</ele>
        <time>2015-12-20T11:33:44Z</time>
      </trkpt>
      <trkpt lat="44.46875" lon="5.08357">
        <ele>1184</ele>
        <time>2015-12-20T11:33:49Z</time>
      </trkpt>
      <trkpt lat="44.4688" lon="5.08348">
        <ele>1180.16</ele>
        <time>2015-12-20T11:33:58Z</time>
      </trkpt>
      <trkpt lat="44.46883" lon="5.08344">
        <ele>1181.12</ele>
        <time>2015-12-20T11:34:02Z</time>
      </trkpt>
      <trkpt lat="44.46885" lon="5.08333">
        <ele>1178.23</ele>
        <time>2015-12-20T11:34:12Z</time>
      </trkpt>
      <trkpt lat="44.46889" lon="5.0832">
        <ele>1175.83</ele>
        <time>2015-12-20T11:34:22Z</time>
      </trkpt>
      <trkpt lat="44.46893" lon="5.08311">
        <ele>1174.39</ele>
        <time>2015-12-20T11:34:28Z</time>
      </trkpt>
      <trkpt lat="44.46905" lon="5.08294">
        <ele>1173.91</ele>
        <time>2015-12-20T11:34:43Z</time>
      </trkpt>
      <trkpt lat="44.4691" lon="5.08292">
        <ele>1175.35</ele>
        <time>2015-12-20T11:34:48Z</time>
      </trkpt>
      <trkpt lat="44.46926" lon="5.08285">
        <ele>1174.87</ele>
        <time>2015-12-20T11:35:02Z</time>
      </trkpt>
      <trkpt lat="44.46943" lon="5.08275">
        <ele>1173.91</ele>
        <time>2015-12-20T11:35:17Z</time>
      </trkpt>
      <trkpt lat="44.46946" lon="5.08271">
        <ele>1173.91</ele>
        <time>2015-12-20T11:35:20Z</time>
      </trkpt>
      <trkpt lat="44.46955" lon="5.08255">
        <ele>1172.95</ele>
        <time>2015-12-20T11:35:30Z</time>
      </trkpt>
      <trkpt lat="44.46955" lon="5.0823">
        <ele>1171.02</ele>
        <time>2015-12-20T11:35:43Z</time>
      </trkpt>
      <trkpt lat="44.46951" lon="5.08206">
        <ele>1169.58</ele>
        <time>2015-12-20T11:35:57Z</time>
      </trkpt>
      <trkpt lat="44.46951" lon="5.08184">
        <ele>1166.7</ele>
        <time>2015-12-20T11:36:10Z</time>
      </trkpt>
      <trkpt lat="44.46951" lon="5.08183">
        <ele>1166.7</ele>
        <time>2015-12-20T11:36:11Z</time>
      </trkpt>
      <trkpt lat="44.46951" lon="5.08179">
        <ele>1168.62</ele>
        <time>2015-12-20T11:36:13Z</time>
      </trkpt>
      <trkpt lat="44.46952" lon="5.08176">
        <ele>1167.18</ele>
        <time>2015-12-20T11:36:15Z</time>
      </trkpt>
      <trkpt lat="44.46954" lon="5.08155">
        <ele>1164.77</ele>
        <time>2015-12-20T11:36:31Z</time>
      </trkpt>
      <trkpt lat="44.46956" lon="5.08145">
        <ele>1162.85</ele>
        <time>2015-12-20T11:36:48Z</time>
      </trkpt>
      <trkpt lat="44.46956" lon="5.08141">
        <ele>1162.37</ele>
        <time>2015-12-20T11:37:07Z</time>
      </trkpt>
      <trkpt lat="44.46954" lon="5.08134">
        <ele>1161.89</ele>
        <time>2015-12-20T11:37:20Z</time>
      </trkpt>
      <trkpt lat="44.46955" lon="5.08135">
        <ele>1161.89</ele>
        <time>2015-12-20T11:37:35Z</time>
      </trkpt>
      <trkpt lat="44.46953" lon="5.08137">
        <ele>1161.89</ele>
        <time>2015-12-20T11:37:54Z</time>
      </trkpt>
      <trkpt lat="44.4696" lon="5.0813">
        <ele>1160.93</ele>
        <time>2015-12-20T11:38:09Z</time>
      </trkpt>
      <trkpt lat="44.46961" lon="5.0812">
        <ele>1159.01</ele>
        <time>2015-12-20T11:38:24Z</time>
      </trkpt>
      <trkpt lat="44.4696" lon="5.08122">
        <ele>1159.01</ele>
        <time>2015-12-20T11:38:59Z</time>
      </trkpt>
      <trkpt lat="44.4696" lon="5.0812">
        <ele>1159.01</ele>
        <time>2015-12-20T11:39:45Z</time>
      </trkpt>
      <trkpt lat="44.46962" lon="5.08116">
        <ele>1159.01</ele>
        <time>2015-12-20T11:40:01Z</time>
      </trkpt>
      <trkpt lat="44.4696" lon="5.08123">
        <ele>1159.97</ele>
        <time>2015-12-20T11:40:08Z</time>
      </trkpt>
      <trkpt lat="44.46957" lon="5.08132">
        <ele>1161.41</ele>
        <time>2015-12-20T11:40:25Z</time>
      </trkpt>
      <trkpt lat="44.46958" lon="5.08131">
        <ele>1160.45</ele>
        <time>2015-12-20T11:40:42Z</time>
      </trkpt>
      <trkpt lat="44.46959" lon="5.08131">
        <ele>1161.89</ele>
        <time>2015-12-20T11:41:10Z</time>
      </trkpt>
      <trkpt lat="44.46959" lon="5.08132">
        <ele>1161.41</ele>
        <time>2015-12-20T11:41:26Z</time>
      </trkpt>
      <trkpt lat="44.46958" lon="5.08133">
        <ele>1159.97</ele>
        <time>2015-12-20T11:41:39Z</time>
      </trkpt>
      <trkpt lat="44.4696" lon="5.08132">
        <ele>1161.41</ele>
        <time>2015-12-20T11:42:04Z</time>
      </trkpt>
      <trkpt lat="44.46959" lon="5.08131">
        <ele>1161.41</ele>
        <time>2015-12-20T11:42:30Z</time>
      </trkpt>
      <trkpt lat="44.46958" lon="5.08134">
        <ele>1161.41</ele>
        <time>2015-12-20T11:43:06Z</time>
      </trkpt>
      <trkpt lat="44.46957" lon="5.08135">
        <ele>1161.41</ele>
        <time>2015-12-20T11:43:30Z</time>
      </trkpt>
      <trkpt lat="44.46958" lon="5.08132">
        <ele>1161.41</ele>
        <time>2015-12-20T11:44:00Z</time>
      </trkpt>
      <trkpt lat="44.46957" lon="5.08133">
        <ele>1161.41</ele>
        <time>2015-12-20T11:44:32Z</time>
      </trkpt>
      <trkpt lat="44.46957" lon="5.08134">
        <ele>1161.41</ele>
        <time>2015-12-20T11:45:02Z</time>
      </trkpt>
      <trkpt lat="44.46958" lon="5.08134">
        <ele>1161.41</ele>
        <time>2015-12-20T11:45:44Z</time>
      </trkpt>
      <trkpt lat="44.46957" lon="5.08136">
        <ele>1160.93</ele>
        <time>2015-12-20T11:46:19Z</time>
      </trkpt>
      <trkpt lat="44.46957" lon="5.08136">
        <ele>1160.93</ele>
        <time>2015-12-20T11:46:50Z</time>
      </trkpt>
      <trkpt lat="44.46956" lon="5.08135">
        <ele>1160.93</ele>
        <time>2015-12-20T11:47:17Z</time>
      </trkpt>
      <trkpt lat="44.46957" lon="5.08132">
        <ele>1160.93</ele>
        <time>2015-12-20T11:47:45Z</time>
      </trkpt>
      <trkpt lat="44.46959" lon="5.0813">
        <ele>1160.93</ele>
        <time>2015-12-20T11:48:15Z</time>
      </trkpt>
      <trkpt lat="44.46958" lon="5.0813">
        <ele>1160.93</ele>
        <time>2015-12-20T11:48:46Z</time>
      </trkpt>
      <trkpt lat="44.46957" lon="5.08131">
        <ele>1160.93</ele>
        <time>2015-12-20T11:49:19Z</time>
      </trkpt>
      <trkpt lat="44.46956" lon="5.08134">
        <ele>1161.41</ele>
        <time>2015-12-20T11:49:49Z</time>
      </trkpt>
      <trkpt lat="44.46956" lon="5.08134">
        <ele>1161.41</ele>
        <time>2015-12-20T11:50:17Z</time>
      </trkpt>
      <trkpt lat="44.46956" lon="5.08136">
        <ele>1161.41</ele>
        <time>2015-12-20T11:50:47Z</time>
      </trkpt>
      <trkpt lat="44.46957" lon="5.08134">
        <ele>1161.41</ele>
        <time>2015-12-20T11:51:17Z</time>
      </trkpt>
      <trkpt lat="44.46956" lon="5.08132">
        <ele>1161.41</ele>
        <time>2015-12-20T11:51:58Z</time>
      </trkpt>
      <trkpt lat="44.46957" lon="5.08132">
        <ele>1161.41</ele>
        <time>2015-12-20T11:52:31Z</time>
      </trkpt>
      <trkpt lat="44.46957" lon="5.08132">
        <ele>1160.93</ele>
        <time>2015-12-20T11:53:01Z</time>
      </trkpt>
      <trkpt lat="44.46957" lon="5.08134">
        <ele>1160.93</ele>
        <time>2015-12-20T11:53:35Z</time>
      </trkpt>
      <trkpt lat="44.46957" lon="5.08134">
        <ele>1160.93</ele>
        <time>2015-12-20T11:54:07Z</time>
      </trkpt>
      <trkpt lat="44.46957" lon="5.08134">
        <ele>1160.93</ele>
        <time>2015-12-20T11:54:49Z</time>
      </trkpt>
      <trkpt lat="44.46956" lon="5.08134">
        <ele>1160.93</ele>
        <time>2015-12-20T11:55:26Z</time>
      </trkpt>
      <trkpt lat="44.46956" lon="5.08136">
        <ele>1160.45</ele>
        <time>2015-12-20T11:56:00Z</time>
      </trkpt>
      <trkpt lat="44.46956" lon="5.08133">
        <ele>1160.45</ele>
        <time>2015-12-20T11:56:39Z</time>
      </trkpt>
      <trkpt lat="44.46957" lon="5.08131">
        <ele>1160.45</ele>
        <time>2015-12-20T11:57:08Z</time>
      </trkpt>
      <trkpt lat="44.4696" lon="5.08129">
        <ele>1160.45</ele>
        <time>2015-12-20T11:57:37Z</time>
      </trkpt>
      <trkpt lat="44.4696" lon="5.08129">
        <ele>1160.45</ele>
        <time>2015-12-20T11:58:08Z</time>
      </trkpt>
      <trkpt lat="44.4696" lon="5.08132">
        <ele>1160.45</ele>
        <time>2015-12-20T11:58:39Z</time>
      </trkpt>
      <trkpt lat="44.46958" lon="5.08128">
        <ele>1160.45</ele>
        <time>2015-12-20T11:59:10Z</time>
      </trkpt>
      <trkpt lat="44.46956" lon="5.08129">
        <ele>1160.45</ele>
        <time>2015-12-20T11:59:37Z</time>
      </trkpt>
      <trkpt lat="44.46957" lon="5.08131">
        <ele>1160.45</ele>
        <time>2015-12-20T12:00:06Z</time>
      </trkpt>
      <trkpt lat="44.46957" lon="5.0813">
        <ele>1160.45</ele>
        <time>2015-12-20T12:00:36Z</time>
      </trkpt>
      <trkpt lat="44.46957" lon="5.0813">
        <ele>1160.45</ele>
        <time>2015-12-20T12:01:07Z</time>
      </trkpt>
      <trkpt lat="44.46958" lon="5.08129">
        <ele>1160.45</ele>
        <time>2015-12-20T12:01:40Z</time>
      </trkpt>
      <trkpt lat="44.46958" lon="5.0813">
        <ele>1160.45</ele>
        <time>2015-12-20T12:02:10Z</time>
      </trkpt>
      <trkpt lat="44.46957" lon="5.08131">
        <ele>1160.45</ele>
        <time>2015-12-20T12:02:41Z</time>
      </trkpt>
      <trkpt lat="44.46959" lon="5.08129">
        <ele>1160.45</ele>
        <time>2015-12-20T12:03:10Z</time>
      </trkpt>
      <trkpt lat="44.46957" lon="5.08132">
        <ele>1160.45</ele>
        <time>2015-12-20T12:03:44Z</time>
      </trkpt>
      <trkpt lat="44.46956" lon="5.08133">
        <ele>1160.45</ele>
        <time>2015-12-20T12:04:12Z</time>
      </trkpt>
      <trkpt lat="44.46956" lon="5.08131">
        <ele>1159.97</ele>
        <time>2015-12-20T12:04:45Z</time>
      </trkpt>
      <trkpt lat="44.46954" lon="5.08129">
        <ele>1159.97</ele>
        <time>2015-12-20T12:05:19Z</time>
      </trkpt>
      <trkpt lat="44.46956" lon="5.08127">
        <ele>1159.97</ele>
        <time>2015-12-20T12:05:46Z</time>
      </trkpt>
      <trkpt lat="44.46958" lon="5.08129">
        <ele>1159.97</ele>
        <time>2015-12-20T12:06:14Z</time>
      </trkpt>
      <trkpt lat="44.46958" lon="5.08132">
        <ele>1160.45</ele>
        <time>2015-12-20T12:06:31Z</time>
      </trkpt>
      <trkpt lat="44.46958" lon="5.08133">
        <ele>1159.01</ele>
        <time>2015-12-20T12:06:52Z</time>
      </trkpt>
      <trkpt lat="44.46958" lon="5.08133">
        <ele>1160.45</ele>
        <time>2015-12-20T12:07:11Z</time>
      </trkpt>
      <trkpt lat="44.46957" lon="5.08133">
        <ele>1159.01</ele>
        <time>2015-12-20T12:07:18Z</time>
      </trkpt>
      <trkpt lat="44.46957" lon="5.08132">
        <ele>1159.97</ele>
        <time>2015-12-20T12:07:45Z</time>
      </trkpt>
      <trkpt lat="44.46956" lon="5.08133">
        <ele>1159.49</ele>
        <time>2015-12-20T12:08:11Z</time>
      </trkpt>
      <trkpt lat="44.46956" lon="5.08134">
        <ele>1159.49</ele>
        <time>2015-12-20T12:08:33Z</time>
      </trkpt>
      <trkpt lat="44.46956" lon="5.08134">
        <ele>1160.45</ele>
        <time>2015-12-20T12:08:49Z</time>
      </trkpt>
      <trkpt lat="44.46959" lon="5.08133">
        <ele>1160.45</ele>
        <time>2015-12-20T12:09:11Z</time>
      </trkpt>
      <trkpt lat="44.4696" lon="5.08132">
        <ele>1160.45</ele>
        <time>2015-12-20T12:09:46Z</time>
      </trkpt>
      <trkpt lat="44.46956" lon="5.08133">
        <ele>1160.93</ele>
        <time>2015-12-20T12:10:13Z</time>
      </trkpt>
      <trkpt lat="44.46959" lon="5.08133">
        <ele>1160.93</ele>
        <time>2015-12-20T12:10:33Z</time>
      </trkpt>
      <trkpt lat="44.46965" lon="5.08134">
        <ele>1159.01</ele>
        <time>2015-12-20T12:10:46Z</time>
      </trkpt>
      <trkpt lat="44.4697" lon="5.08128">
        <ele>1158.05</ele>
        <time>2015-12-20T12:11:00Z</time>
      </trkpt>
      <trkpt lat="44.46972" lon="5.0812">
        <ele>1156.6</ele>
        <time>2015-12-20T12:11:17Z</time>
      </trkpt>
      <trkpt lat="44.46972" lon="5.08118">
        <ele>1156.12</ele>
        <time>2015-12-20T12:11:19Z</time>
      </trkpt>
      <trkpt lat="44.4698" lon="5.081">
        <ele>1152.76</ele>
        <time>2015-12-20T12:11:32Z</time>
      </trkpt>
      <trkpt lat="44.46992" lon="5.08086">
        <ele>1149.39</ele>
        <time>2015-12-20T12:11:45Z</time>
      </trkpt>
      <trkpt lat="44.47007" lon="5.08073">
        <ele>1146.03</ele>
        <time>2015-12-20T12:12:01Z</time>
      </trkpt>
      <trkpt lat="44.47009" lon="5.08071">
        <ele>1146.03</ele>
        <time>2015-12-20T12:12:03Z</time>
      </trkpt>
      <trkpt lat="44.47014" lon="5.08062">
        <ele>1144.11</ele>
        <time>2015-12-20T12:12:10Z</time>
      </trkpt>
      <trkpt lat="44.47016" lon="5.08055">
        <ele>1143.14</ele>
        <time>2015-12-20T12:12:15Z</time>
      </trkpt>
      <trkpt lat="44.47018" lon="5.08051">
        <ele>1141.7</ele>
        <time>2015-12-20T12:12:18Z</time>
      </trkpt>
      <trkpt lat="44.47024" lon="5.08036">
        <ele>1138.34</ele>
        <time>2015-12-20T12:12:29Z</time>
      </trkpt>
      <trkpt lat="44.47025" lon="5.08033">
        <ele>1138.34</ele>
        <time>2015-12-20T12:12:31Z</time>
      </trkpt>
      <trkpt lat="44.47032" lon="5.08014">
        <ele>1134.49</ele>
        <time>2015-12-20T12:12:43Z</time>
      </trkpt>
      <trkpt lat="44.4704" lon="5.0799">
        <ele>1131.13</ele>
        <time>2015-12-20T12:12:58Z</time>
      </trkpt>
      <trkpt lat="44.47044" lon="5.07965">
        <ele>1128.73</ele>
        <time>2015-12-20T12:13:12Z</time>
      </trkpt>
      <trkpt lat="44.47049" lon="5.07943">
        <ele>1125.84</ele>
        <time>2015-12-20T12:13:26Z</time>
      </trkpt>
      <trkpt lat="44.4705" lon="5.07927">
        <ele>1122.48</ele>
        <time>2015-12-20T12:13:36Z</time>
      </trkpt>
      <trkpt lat="44.47048" lon="5.07908">
        <ele>1122</ele>
        <time>2015-12-20T12:13:46Z</time>
      </trkpt>
      <trkpt lat="44.4705" lon="5.07889">
        <ele>1119.59</ele>
        <time>2015-12-20T12:13:59Z</time>
      </trkpt>
      <trkpt lat="44.47056" lon="5.07872">
        <ele>1116.23</ele>
        <time>2015-12-20T12:14:11Z</time>
      </trkpt>
      <trkpt lat="44.4706" lon="5.07861">
        <ele>1113.82</ele>
        <time>2015-12-20T12:14:21Z</time>
      </trkpt>
      <trkpt lat="44.47062" lon="5.07856">
        <ele>1111.9</ele>
        <time>2015-12-20T12:14:25Z</time>
      </trkpt>
      <trkpt lat="44.47063" lon="5.0785">
        <ele>1110.46</ele>
        <time>2015-12-20T12:14:30Z</time>
      </trkpt>
      <trkpt lat="44.47066" lon="5.07834">
        <ele>1108.54</ele>
        <time>2015-12-20T12:14:43Z</time>
      </trkpt>
      <trkpt lat="44.47069" lon="5.07831">
        <ele>1107.1</ele>
        <time>2015-12-20T12:14:48Z</time>
      </trkpt>
      <trkpt lat="44.47072" lon="5.07823">
        <ele>1105.65</ele>
        <time>2015-12-20T12:14:59Z</time>
      </trkpt>
      <trkpt lat="44.47075" lon="5.07812">
        <ele>1104.69</ele>
        <time>2015-12-20T12:15:05Z</time>
      </trkpt>
      <trkpt lat="44.4708" lon="5.07789">
        <ele>1100.85</ele>
        <time>2015-12-20T12:15:17Z</time>
      </trkpt>
      <trkpt lat="44.47079" lon="5.07764">
        <ele>1098.92</ele>
        <time>2015-12-20T12:15:32Z</time>
      </trkpt>
      <trkpt lat="44.47068" lon="5.0775">
        <ele>1097</ele>
        <time>2015-12-20T12:15:47Z</time>
      </trkpt>
      <trkpt lat="44.47063" lon="5.07742">
        <ele>1095.08</ele>
        <time>2015-12-20T12:16:02Z</time>
      </trkpt>
      <trkpt lat="44.47059" lon="5.07733">
        <ele>1094.12</ele>
        <time>2015-12-20T12:16:11Z</time>
      </trkpt>
      <trkpt lat="44.47053" lon="5.07719">
        <ele>1094.12</ele>
        <time>2015-12-20T12:16:25Z</time>
      </trkpt>
      <trkpt lat="44.47045" lon="5.07698">
        <ele>1093.16</ele>
        <time>2015-12-20T12:16:42Z</time>
      </trkpt>
      <trkpt lat="44.47041" lon="5.07689">
        <ele>1092.2</ele>
        <time>2015-12-20T12:16:48Z</time>
      </trkpt>
      <trkpt lat="44.4704" lon="5.07674">
        <ele>1091.71</ele>
        <time>2015-12-20T12:16:58Z</time>
      </trkpt>
      <trkpt lat="44.47043" lon="5.07667">
        <ele>1090.75</ele>
        <time>2015-12-20T12:17:02Z</time>
      </trkpt>
      <trkpt lat="44.47049" lon="5.07662">
        <ele>1090.75</ele>
        <time>2015-12-20T12:17:08Z</time>
      </trkpt>
      <trkpt lat="44.47065" lon="5.0766">
        <ele>1088.83</ele>
        <time>2015-12-20T12:17:22Z</time>
      </trkpt>
      <trkpt lat="44.47087" lon="5.07655">
        <ele>1086.43</ele>
        <time>2015-12-20T12:17:37Z</time>
      </trkpt>
      <trkpt lat="44.47096" lon="5.07654">
        <ele>1084.99</ele>
        <time>2015-12-20T12:17:45Z</time>
      </trkpt>
      <trkpt lat="44.47116" lon="5.07654">
        <ele>1082.1</ele>
        <time>2015-12-20T12:18:01Z</time>
      </trkpt>
      <trkpt lat="44.47136" lon="5.07647">
        <ele>1079.22</ele>
        <time>2015-12-20T12:18:17Z</time>
      </trkpt>
      <trkpt lat="44.47138" lon="5.07645">
        <ele>1079.22</ele>
        <time>2015-12-20T12:18:19Z</time>
      </trkpt>
      <trkpt lat="44.47138" lon="5.07631">
        <ele>1078.26</ele>
        <time>2015-12-20T12:18:28Z</time>
      </trkpt>
      <trkpt lat="44.47126" lon="5.07612">
        <ele>1077.78</ele>
        <time>2015-12-20T12:18:43Z</time>
      </trkpt>
      <trkpt lat="44.47117" lon="5.07589">
        <ele>1077.29</ele>
        <time>2015-12-20T12:18:57Z</time>
      </trkpt>
      <trkpt lat="44.47111" lon="5.07569">
        <ele>1073.45</ele>
        <time>2015-12-20T12:19:11Z</time>
      </trkpt>
      <trkpt lat="44.47107" lon="5.07564">
        <ele>1073.45</ele>
        <time>2015-12-20T12:19:15Z</time>
      </trkpt>
      <trkpt lat="44.47093" lon="5.07562">
        <ele>1072.49</ele>
        <time>2015-12-20T12:19:28Z</time>
      </trkpt>
      <trkpt lat="44.47091" lon="5.07561">
        <ele>1072.49</ele>
        <time>2015-12-20T12:19:30Z</time>
      </trkpt>
      <trkpt lat="44.4709" lon="5.0756">
        <ele>1072.49</ele>
        <time>2015-12-20T12:19:32Z</time>
      </trkpt>
      <trkpt lat="44.47092" lon="5.07548">
        <ele>1070.08</ele>
        <time>2015-12-20T12:19:45Z</time>
      </trkpt>
      <trkpt lat="44.47093" lon="5.07548">
        <ele>1070.08</ele>
        <time>2015-12-20T12:19:46Z</time>
      </trkpt>
      <trkpt lat="44.471" lon="5.0753">
        <ele>1067.2</ele>
        <time>2015-12-20T12:20:00Z</time>
      </trkpt>
      <trkpt lat="44.47105" lon="5.07507">
        <ele>1066.24</ele>
        <time>2015-12-20T12:20:12Z</time>
      </trkpt>
      <trkpt lat="44.47114" lon="5.07484">
        <ele>1063.36</ele>
        <time>2015-12-20T12:20:28Z</time>
      </trkpt>
      <trkpt lat="44.47119" lon="5.07475">
        <ele>1062.39</ele>
        <time>2015-12-20T12:20:35Z</time>
      </trkpt>
      <trkpt lat="44.47136" lon="5.0746">
        <ele>1060.47</ele>
        <time>2015-12-20T12:20:52Z</time>
      </trkpt>
      <trkpt lat="44.47139" lon="5.07456">
        <ele>1059.99</ele>
        <time>2015-12-20T12:20:56Z</time>
      </trkpt>
      <trkpt lat="44.47155" lon="5.07446">
        <ele>1057.59</ele>
        <time>2015-12-20T12:21:10Z</time>
      </trkpt>
      <trkpt lat="44.47172" lon="5.07444">
        <ele>1055.18</ele>
        <time>2015-12-20T12:21:27Z</time>
      </trkpt>
      <trkpt lat="44.47189" lon="5.07447">
        <ele>1053.26</ele>
        <time>2015-12-20T12:21:43Z</time>
      </trkpt>
      <trkpt lat="44.472" lon="5.07449">
        <ele>1052.3</ele>
        <time>2015-12-20T12:21:52Z</time>
      </trkpt>
      <trkpt lat="44.47221" lon="5.07454">
        <ele>1050.38</ele>
        <time>2015-12-20T12:22:06Z</time>
      </trkpt>
      <trkpt lat="44.47242" lon="5.07466">
        <ele>1048.45</ele>
        <time>2015-12-20T12:22:23Z</time>
      </trkpt>
      <trkpt lat="44.47256" lon="5.07483">
        <ele>1046.05</ele>
        <time>2015-12-20T12:22:39Z</time>
      </trkpt>
      <trkpt lat="44.47268" lon="5.07498">
        <ele>1043.17</ele>
        <time>2015-12-20T12:22:53Z</time>
      </trkpt>
      <trkpt lat="44.47279" lon="5.0751">
        <ele>1040.76</ele>
        <time>2015-12-20T12:23:07Z</time>
      </trkpt>
      <trkpt lat="44.47288" lon="5.07506">
        <ele>1039.32</ele>
        <time>2015-12-20T12:23:16Z</time>
      </trkpt>
      <trkpt lat="44.47306" lon="5.07492">
        <ele>1035.48</ele>
        <time>2015-12-20T12:23:32Z</time>
      </trkpt>
      <trkpt lat="44.47319" lon="5.07481">
        <ele>1032.59</ele>
        <time>2015-12-20T12:23:47Z</time>
      </trkpt>
      <trkpt lat="44.47322" lon="5.07479">
        <ele>1033.55</ele>
        <time>2015-12-20T12:24:01Z</time>
      </trkpt>
      <trkpt lat="44.47325" lon="5.07477">
        <ele>1032.11</ele>
        <time>2015-12-20T12:24:05Z</time>
      </trkpt>
      <trkpt lat="44.47337" lon="5.07461">
        <ele>1029.71</ele>
        <time>2015-12-20T12:24:20Z</time>
      </trkpt>
      <trkpt lat="44.47342" lon="5.07441">
        <ele>1027.79</ele>
        <time>2015-12-20T12:24:34Z</time>
      </trkpt>
      <trkpt lat="44.47347" lon="5.0742">
        <ele>1024.9</ele>
        <time>2015-12-20T12:24:48Z</time>
      </trkpt>
      <trkpt lat="44.47354" lon="5.07394">
        <ele>1022.98</ele>
        <time>2015-12-20T12:25:01Z</time>
      </trkpt>
      <trkpt lat="44.47358" lon="5.07385">
        <ele>1021.54</ele>
        <time>2015-12-20T12:25:08Z</time>
      </trkpt>
      <trkpt lat="44.47362" lon="5.0737">
        <ele>1019.62</ele>
        <time>2015-12-20T12:25:17Z</time>
      </trkpt>
      <trkpt lat="44.47365" lon="5.07362">
        <ele>1018.17</ele>
        <time>2015-12-20T12:25:23Z</time>
      </trkpt>
      <trkpt lat="44.47366" lon="5.07359">
        <ele>1018.17</ele>
        <time>2015-12-20T12:25:25Z</time>
      </trkpt>
      <trkpt lat="44.4738" lon="5.07337">
        <ele>1015.29</ele>
        <time>2015-12-20T12:25:41Z</time>
      </trkpt>
      <trkpt lat="44.47394" lon="5.07318">
        <ele>1012.41</ele>
        <time>2015-12-20T12:25:57Z</time>
      </trkpt>
      <trkpt lat="44.47407" lon="5.07297">
        <ele>1009.04</ele>
        <time>2015-12-20T12:26:13Z</time>
      </trkpt>
      <trkpt lat="44.47416" lon="5.07282">
        <ele>1008.56</ele>
        <time>2015-12-20T12:26:25Z</time>
      </trkpt>
      <trkpt lat="44.47429" lon="5.07261">
        <ele>1005.2</ele>
        <time>2015-12-20T12:26:43Z</time>
      </trkpt>
      <trkpt lat="44.47438" lon="5.07249">
        <ele>1002.31</ele>
        <time>2015-12-20T12:26:55Z</time>
      </trkpt>
      <trkpt lat="44.47449" lon="5.07229">
        <ele>999.91</ele>
        <time>2015-12-20T12:27:11Z</time>
      </trkpt>
      <trkpt lat="44.47463" lon="5.07208">
        <ele>997.02</ele>
        <time>2015-12-20T12:27:27Z</time>
      </trkpt>
      <trkpt lat="44.47465" lon="5.07206">
        <ele>996.06</ele>
        <time>2015-12-20T12:27:29Z</time>
      </trkpt>
      <trkpt lat="44.47471" lon="5.07197">
        <ele>994.14</ele>
        <time>2015-12-20T12:27:36Z</time>
      </trkpt>
      <trkpt lat="44.47481" lon="5.07177">
        <ele>991.26</ele>
        <time>2015-12-20T12:27:50Z</time>
      </trkpt>
      <trkpt lat="44.47494" lon="5.07158">
        <ele>988.37</ele>
        <time>2015-12-20T12:28:05Z</time>
      </trkpt>
      <trkpt lat="44.47508" lon="5.0714">
        <ele>985.97</ele>
        <time>2015-12-20T12:28:20Z</time>
      </trkpt>
      <trkpt lat="44.47529" lon="5.07133">
        <ele>983.57</ele>
        <time>2015-12-20T12:28:36Z</time>
      </trkpt>
      <trkpt lat="44.47552" lon="5.07133">
        <ele>981.16</ele>
        <time>2015-12-20T12:28:54Z</time>
      </trkpt>
      <trkpt lat="44.47566" lon="5.07111">
        <ele>978.76</ele>
        <time>2015-12-20T12:29:10Z</time>
      </trkpt>
      <trkpt lat="44.47577" lon="5.07089">
        <ele>975.88</ele>
        <time>2015-12-20T12:29:26Z</time>
      </trkpt>
      <trkpt lat="44.47582" lon="5.07084">
        <ele>975.39</ele>
        <time>2015-12-20T12:29:40Z</time>
      </trkpt>
      <trkpt lat="44.47583" lon="5.07083">
        <ele>975.88</ele>
        <time>2015-12-20T12:30:02Z</time>
      </trkpt>
      <trkpt lat="44.47586" lon="5.07082">
        <ele>975.88</ele>
        <time>2015-12-20T12:30:25Z</time>
      </trkpt>
      <trkpt lat="44.47585" lon="5.07082">
        <ele>975.88</ele>
        <time>2015-12-20T12:30:53Z</time>
      </trkpt>
      <trkpt lat="44.47587" lon="5.07082">
        <ele>974.43</ele>
        <time>2015-12-20T12:31:02Z</time>
      </trkpt>
      <trkpt lat="44.47589" lon="5.07083">
        <ele>973.95</ele>
        <time>2015-12-20T12:31:09Z</time>
      </trkpt>
      <trkpt lat="44.47607" lon="5.07083">
        <ele>973.47</ele>
        <time>2015-12-20T12:31:25Z</time>
      </trkpt>
      <trkpt lat="44.47629" lon="5.07079">
        <ele>971.07</ele>
        <time>2015-12-20T12:31:43Z</time>
      </trkpt>
      <trkpt lat="44.47646" lon="5.07073">
        <ele>967.22</ele>
        <time>2015-12-20T12:31:57Z</time>
      </trkpt>
      <trkpt lat="44.4766" lon="5.07054">
        <ele>965.78</ele>
        <time>2015-12-20T12:32:13Z</time>
      </trkpt>
      <trkpt lat="44.47667" lon="5.07045">
        <ele>964.34</ele>
        <time>2015-12-20T12:32:21Z</time>
      </trkpt>
      <trkpt lat="44.47671" lon="5.07043">
        <ele>962.9</ele>
        <time>2015-12-20T12:32:25Z</time>
      </trkpt>
      <trkpt lat="44.47687" lon="5.07035">
        <ele>959.53</ele>
        <time>2015-12-20T12:32:39Z</time>
      </trkpt>
      <trkpt lat="44.47702" lon="5.07017">
        <ele>956.17</ele>
        <time>2015-12-20T12:32:54Z</time>
      </trkpt>
      <trkpt lat="44.47709" lon="5.07">
        <ele>953.77</ele>
        <time>2015-12-20T12:33:09Z</time>
      </trkpt>
      <trkpt lat="44.47713" lon="5.06984">
        <ele>951.36</ele>
        <time>2015-12-20T12:33:24Z</time>
      </trkpt>
      <trkpt lat="44.47713" lon="5.0698">
        <ele>951.84</ele>
        <time>2015-12-20T12:33:44Z</time>
      </trkpt>
      <trkpt lat="44.47715" lon="5.06975">
        <ele>951.36</ele>
        <time>2015-12-20T12:34:01Z</time>
      </trkpt>
      <trkpt lat="44.47714" lon="5.0696">
        <ele>951.84</ele>
        <time>2015-12-20T12:34:11Z</time>
      </trkpt>
      <trkpt lat="44.47707" lon="5.06948">
        <ele>951.84</ele>
        <time>2015-12-20T12:34:25Z</time>
      </trkpt>
      <trkpt lat="44.47701" lon="5.06944">
        <ele>953.28</ele>
        <time>2015-12-20T12:34:34Z</time>
      </trkpt>
      <trkpt lat="44.47698" lon="5.06942">
        <ele>953.77</ele>
        <time>2015-12-20T12:34:43Z</time>
      </trkpt>
      <trkpt lat="44.47703" lon="5.06943">
        <ele>953.77</ele>
        <time>2015-12-20T12:34:48Z</time>
      </trkpt>
      <trkpt lat="44.47714" lon="5.06953">
        <ele>951.36</ele>
        <time>2015-12-20T12:34:59Z</time>
      </trkpt>
      <trkpt lat="44.47718" lon="5.0697">
        <ele>950.88</ele>
        <time>2015-12-20T12:35:10Z</time>
      </trkpt>
      <trkpt lat="44.47717" lon="5.06974">
        <ele>950.88</ele>
        <time>2015-12-20T12:35:13Z</time>
      </trkpt>
      <trkpt lat="44.47727" lon="5.06977">
        <ele>949.44</ele>
        <time>2015-12-20T12:35:27Z</time>
      </trkpt>
      <trkpt lat="44.47741" lon="5.06974">
        <ele>946.07</ele>
        <time>2015-12-20T12:35:40Z</time>
      </trkpt>
      <trkpt lat="44.47745" lon="5.06955">
        <ele>945.11</ele>
        <time>2015-12-20T12:35:52Z</time>
      </trkpt>
      <trkpt lat="44.47755" lon="5.06941">
        <ele>942.23</ele>
        <time>2015-12-20T12:36:07Z</time>
      </trkpt>
      <trkpt lat="44.4776" lon="5.06929">
        <ele>938.86</ele>
        <time>2015-12-20T12:36:20Z</time>
      </trkpt>
      <trkpt lat="44.47759" lon="5.06921">
        <ele>937.9</ele>
        <time>2015-12-20T12:36:38Z</time>
      </trkpt>
      <trkpt lat="44.47761" lon="5.06905">
        <ele>935.5</ele>
        <time>2015-12-20T12:36:52Z</time>
      </trkpt>
      <trkpt lat="44.47762" lon="5.06891">
        <ele>933.58</ele>
        <time>2015-12-20T12:37:03Z</time>
      </trkpt>
      <trkpt lat="44.47765" lon="5.06872">
        <ele>930.21</ele>
        <time>2015-12-20T12:37:16Z</time>
      </trkpt>
      <trkpt lat="44.47769" lon="5.06866">
        <ele>929.25</ele>
        <time>2015-12-20T12:37:32Z</time>
      </trkpt>
      <trkpt lat="44.47775" lon="5.06864">
        <ele>927.33</ele>
        <time>2015-12-20T12:37:47Z</time>
      </trkpt>
      <trkpt lat="44.47779" lon="5.06864">
        <ele>926.85</ele>
        <time>2015-12-20T12:38:07Z</time>
      </trkpt>
      <trkpt lat="44.4778" lon="5.06864">
        <ele>925.89</ele>
        <time>2015-12-20T12:38:24Z</time>
      </trkpt>
      <trkpt lat="44.47782" lon="5.06865">
        <ele>925.41</ele>
        <time>2015-12-20T12:38:42Z</time>
      </trkpt>
      <trkpt lat="44.47781" lon="5.06863">
        <ele>925.41</ele>
        <time>2015-12-20T12:39:04Z</time>
      </trkpt>
      <trkpt lat="44.47786" lon="5.06866">
        <ele>924.93</ele>
        <time>2015-12-20T12:39:33Z</time>
      </trkpt>
      <trkpt lat="44.47791" lon="5.06869">
        <ele>923</ele>
        <time>2015-12-20T12:39:39Z</time>
      </trkpt>
      <trkpt lat="44.47793" lon="5.0687">
        <ele>922.04</ele>
        <time>2015-12-20T12:39:42Z</time>
      </trkpt>
      <trkpt lat="44.47805" lon="5.0687">
        <ele>919.16</ele>
        <time>2015-12-20T12:39:55Z</time>
      </trkpt>
      <trkpt lat="44.47816" lon="5.06864">
        <ele>915.31</ele>
        <time>2015-12-20T12:40:07Z</time>
      </trkpt>
      <trkpt lat="44.47825" lon="5.06851">
        <ele>912.43</ele>
        <time>2015-12-20T12:40:19Z</time>
      </trkpt>
      <trkpt lat="44.47829" lon="5.06846">
        <ele>910.51</ele>
        <time>2015-12-20T12:40:27Z</time>
      </trkpt>
      <trkpt lat="44.47837" lon="5.06829">
        <ele>907.62</ele>
        <time>2015-12-20T12:40:41Z</time>
      </trkpt>
      <trkpt lat="44.47838" lon="5.06807">
        <ele>904.74</ele>
        <time>2015-12-20T12:40:55Z</time>
      </trkpt>
      <trkpt lat="44.4784" lon="5.06792">
        <ele>901.37</ele>
        <time>2015-12-20T12:41:09Z</time>
      </trkpt>
      <trkpt lat="44.4784" lon="5.06779">
        <ele>899.45</ele>
        <time>2015-12-20T12:41:24Z</time>
      </trkpt>
      <trkpt lat="44.47847" lon="5.06768">
        <ele>896.57</ele>
        <time>2015-12-20T12:41:38Z</time>
      </trkpt>
      <trkpt lat="44.47852" lon="5.06755">
        <ele>893.2</ele>
        <time>2015-12-20T12:41:49Z</time>
      </trkpt>
      <trkpt lat="44.47857" lon="5.06743">
        <ele>890.32</ele>
        <time>2015-12-20T12:41:58Z</time>
      </trkpt>
      <trkpt lat="44.47863" lon="5.06729">
        <ele>887.43</ele>
        <time>2015-12-20T12:42:09Z</time>
      </trkpt>
      <trkpt lat="44.47866" lon="5.06718">
        <ele>884.55</ele>
        <time>2015-12-20T12:42:20Z</time>
      </trkpt>
      <trkpt lat="44.47872" lon="5.06707">
        <ele>881.19</ele>
        <time>2015-12-20T12:42:32Z</time>
      </trkpt>
      <trkpt lat="44.47878" lon="5.06697">
        <ele>877.82</ele>
        <time>2015-12-20T12:42:43Z</time>
      </trkpt>
      <trkpt lat="44.47886" lon="5.06686">
        <ele>874.46</ele>
        <time>2015-12-20T12:42:55Z</time>
      </trkpt>
      <trkpt lat="44.47887" lon="5.06682">
        <ele>873.01</ele>
        <time>2015-12-20T12:42:59Z</time>
      </trkpt>
      <trkpt lat="44.47889" lon="5.0668">
        <ele>872.05</ele>
        <time>2015-12-20T12:43:02Z</time>
      </trkpt>
      <trkpt lat="44.47893" lon="5.06672">
        <ele>869.65</ele>
        <time>2015-12-20T12:43:10Z</time>
      </trkpt>
      <trkpt lat="44.47898" lon="5.06664">
        <ele>865.8</ele>
        <time>2015-12-20T12:43:20Z</time>
      </trkpt>
      <trkpt lat="44.47898" lon="5.06663">
        <ele>865.8</ele>
        <time>2015-12-20T12:43:21Z</time>
      </trkpt>
      <trkpt lat="44.47904" lon="5.06655">
        <ele>862.44</ele>
        <time>2015-12-20T12:43:32Z</time>
      </trkpt>
      <trkpt lat="44.47908" lon="5.06645">
        <ele>859.56</ele>
        <time>2015-12-20T12:43:43Z</time>
      </trkpt>
      <trkpt lat="44.47913" lon="5.06624">
        <ele>857.63</ele>
        <time>2015-12-20T12:43:56Z</time>
      </trkpt>
      <trkpt lat="44.47914" lon="5.06612">
        <ele>857.15</ele>
        <time>2015-12-20T12:44:09Z</time>
      </trkpt>
      <trkpt lat="44.47918" lon="5.06603">
        <ele>856.67</ele>
        <time>2015-12-20T12:44:22Z</time>
      </trkpt>
      <trkpt lat="44.47924" lon="5.06595">
        <ele>854.27</ele>
        <time>2015-12-20T12:44:39Z</time>
      </trkpt>
      <trkpt lat="44.47924" lon="5.06594">
        <ele>853.79</ele>
        <time>2015-12-20T12:44:56Z</time>
      </trkpt>
      <trkpt lat="44.47925" lon="5.06592">
        <ele>853.79</ele>
        <time>2015-12-20T12:45:08Z</time>
      </trkpt>
      <trkpt lat="44.47924" lon="5.06593">
        <ele>853.79</ele>
        <time>2015-12-20T12:45:28Z</time>
      </trkpt>
      <trkpt lat="44.47926" lon="5.06594">
        <ele>853.79</ele>
        <time>2015-12-20T12:45:49Z</time>
      </trkpt>
      <trkpt lat="44.47928" lon="5.06594">
        <ele>853.79</ele>
        <time>2015-12-20T12:46:23Z</time>
      </trkpt>
      <trkpt lat="44.47936" lon="5.06584">
        <ele>851.87</ele>
        <time>2015-12-20T12:46:38Z</time>
      </trkpt>
      <trkpt lat="44.47937" lon="5.06583">
        <ele>851.87</ele>
        <time>2015-12-20T12:46:39Z</time>
      </trkpt>
      <trkpt lat="44.47945" lon="5.06572">
        <ele>848.5</ele>
        <time>2015-12-20T12:46:50Z</time>
      </trkpt>
      <trkpt lat="44.47947" lon="5.06569">
        <ele>848.02</ele>
        <time>2015-12-20T12:46:53Z</time>
      </trkpt>
      <trkpt lat="44.47957" lon="5.06561">
        <ele>844.66</ele>
        <time>2015-12-20T12:47:03Z</time>
      </trkpt>
      <trkpt lat="44.47962" lon="5.06549">
        <ele>841.29</ele>
        <time>2015-12-20T12:47:13Z</time>
      </trkpt>
      <trkpt lat="44.47954" lon="5.0653">
        <ele>839.37</ele>
        <time>2015-12-20T12:47:28Z</time>
      </trkpt>
      <trkpt lat="44.47945" lon="5.06516">
        <ele>838.89</ele>
        <time>2015-12-20T12:47:42Z</time>
      </trkpt>
      <trkpt lat="44.47933" lon="5.06491">
        <ele>838.41</ele>
        <time>2015-12-20T12:47:59Z</time>
      </trkpt>
      <trkpt lat="44.47925" lon="5.0648">
        <ele>837.45</ele>
        <time>2015-12-20T12:48:09Z</time>
      </trkpt>
      <trkpt lat="44.47916" lon="5.06458">
        <ele>836</ele>
        <time>2015-12-20T12:48:24Z</time>
      </trkpt>
      <trkpt lat="44.47902" lon="5.0644">
        <ele>834.56</ele>
        <time>2015-12-20T12:48:36Z</time>
      </trkpt>
      <trkpt lat="44.47893" lon="5.06426">
        <ele>833.12</ele>
        <time>2015-12-20T12:48:45Z</time>
      </trkpt>
      <trkpt lat="44.47884" lon="5.0641">
        <ele>834.56</ele>
        <time>2015-12-20T12:48:58Z</time>
      </trkpt>
      <trkpt lat="44.47883" lon="5.06408">
        <ele>834.56</ele>
        <time>2015-12-20T12:48:59Z</time>
      </trkpt>
      <trkpt lat="44.4788" lon="5.06384">
        <ele>835.52</ele>
        <time>2015-12-20T12:49:13Z</time>
      </trkpt>
      <trkpt lat="44.47881" lon="5.06361">
        <ele>836.48</ele>
        <time>2015-12-20T12:49:26Z</time>
      </trkpt>
      <trkpt lat="44.47884" lon="5.06343">
        <ele>836.48</ele>
        <time>2015-12-20T12:49:38Z</time>
      </trkpt>
      <trkpt lat="44.47883" lon="5.06316">
        <ele>837.93</ele>
        <time>2015-12-20T12:49:53Z</time>
      </trkpt>
      <trkpt lat="44.47883" lon="5.06311">
        <ele>838.41</ele>
        <time>2015-12-20T12:49:57Z</time>
      </trkpt>
      <trkpt lat="44.47881" lon="5.06283">
        <ele>839.85</ele>
        <time>2015-12-20T12:50:12Z</time>
      </trkpt>
      <trkpt lat="44.47879" lon="5.06274">
        <ele>840.33</ele>
        <time>2015-12-20T12:50:18Z</time>
      </trkpt>
      <trkpt lat="44.47869" lon="5.06259">
        <ele>841.29</ele>
        <time>2015-12-20T12:50:33Z</time>
      </trkpt>
      <trkpt lat="44.47867" lon="5.06253">
        <ele>841.29</ele>
        <time>2015-12-20T12:50:53Z</time>
      </trkpt>
      <trkpt lat="44.47869" lon="5.06252">
        <ele>841.29</ele>
        <time>2015-12-20T12:51:11Z</time>
      </trkpt>
      <trkpt lat="44.47869" lon="5.06251">
        <ele>841.77</ele>
        <time>2015-12-20T12:51:37Z</time>
      </trkpt>
      <trkpt lat="44.47872" lon="5.06249">
        <ele>841.77</ele>
        <time>2015-12-20T12:51:59Z</time>
      </trkpt>
      <trkpt lat="44.47871" lon="5.06249">
        <ele>841.77</ele>
        <time>2015-12-20T12:52:32Z</time>
      </trkpt>
      <trkpt lat="44.47877" lon="5.0625">
        <ele>841.77</ele>
        <time>2015-12-20T12:52:44Z</time>
      </trkpt>
      <trkpt lat="44.47887" lon="5.06236">
        <ele>838.89</ele>
        <time>2015-12-20T12:52:57Z</time>
      </trkpt>
      <trkpt lat="44.47888" lon="5.06235">
        <ele>837.45</ele>
        <time>2015-12-20T12:52:59Z</time>
      </trkpt>
      <trkpt lat="44.47901" lon="5.06215">
        <ele>835.04</ele>
        <time>2015-12-20T12:53:15Z</time>
      </trkpt>
      <trkpt lat="44.47921" lon="5.06193">
        <ele>833.12</ele>
        <time>2015-12-20T12:53:31Z</time>
      </trkpt>
      <trkpt lat="44.47934" lon="5.06182">
        <ele>831.2</ele>
        <time>2015-12-20T12:53:44Z</time>
      </trkpt>
      <trkpt lat="44.47948" lon="5.06175">
        <ele>830.72</ele>
        <time>2015-12-20T12:53:57Z</time>
      </trkpt>
      <trkpt lat="44.47961" lon="5.06162">
        <ele>829.76</ele>
        <time>2015-12-20T12:54:09Z</time>
      </trkpt>
      <trkpt lat="44.47969" lon="5.06153">
        <ele>828.31</ele>
        <time>2015-12-20T12:54:17Z</time>
      </trkpt>
      <trkpt lat="44.47975" lon="5.06151">
        <ele>827.83</ele>
        <time>2015-12-20T12:54:22Z</time>
      </trkpt>
      <trkpt lat="44.47987" lon="5.06138">
        <ele>824.95</ele>
        <time>2015-12-20T12:54:36Z</time>
      </trkpt>
      <trkpt lat="44.47993" lon="5.0613">
        <ele>824.47</ele>
        <time>2015-12-20T12:54:42Z</time>
      </trkpt>
      <trkpt lat="44.47998" lon="5.06125">
        <ele>823.51</ele>
        <time>2015-12-20T12:54:48Z</time>
      </trkpt>
      <trkpt lat="44.48001" lon="5.06119">
        <ele>822.55</ele>
        <time>2015-12-20T12:54:52Z</time>
      </trkpt>
      <trkpt lat="44.48017" lon="5.06106">
        <ele>820.14</ele>
        <time>2015-12-20T12:55:07Z</time>
      </trkpt>
      <trkpt lat="44.48032" lon="5.06094">
        <ele>817.26</ele>
        <time>2015-12-20T12:55:22Z</time>
      </trkpt>
      <trkpt lat="44.48048" lon="5.06086">
        <ele>814.85</ele>
        <time>2015-12-20T12:55:36Z</time>
      </trkpt>
      <trkpt lat="44.48054" lon="5.0608">
        <ele>813.41</ele>
        <time>2015-12-20T12:55:44Z</time>
      </trkpt>
      <trkpt lat="44.48059" lon="5.06071">
        <ele>810.05</ele>
        <time>2015-12-20T12:55:55Z</time>
      </trkpt>
      <trkpt lat="44.48064" lon="5.06061">
        <ele>808.13</ele>
        <time>2015-12-20T12:56:06Z</time>
      </trkpt>
      <trkpt lat="44.4807" lon="5.06058">
        <ele>807.16</ele>
        <time>2015-12-20T12:56:20Z</time>
      </trkpt>
      <trkpt lat="44.48079" lon="5.06057">
        <ele>806.2</ele>
        <time>2015-12-20T12:56:34Z</time>
      </trkpt>
      <trkpt lat="44.48096" lon="5.06055">
        <ele>803.8</ele>
        <time>2015-12-20T12:56:50Z</time>
      </trkpt>
      <trkpt lat="44.48103" lon="5.06048">
        <ele>800.92</ele>
        <time>2015-12-20T12:57:03Z</time>
      </trkpt>
      <trkpt lat="44.48113" lon="5.0604">
        <ele>799.47</ele>
        <time>2015-12-20T12:57:18Z</time>
      </trkpt>
      <trkpt lat="44.48117" lon="5.06035">
        <ele>797.55</ele>
        <time>2015-12-20T12:57:24Z</time>
      </trkpt>
      <trkpt lat="44.48124" lon="5.06028">
        <ele>796.11</ele>
        <time>2015-12-20T12:57:32Z</time>
      </trkpt>
      <trkpt lat="44.4813" lon="5.06024">
        <ele>794.67</ele>
        <time>2015-12-20T12:57:38Z</time>
      </trkpt>
      <trkpt lat="44.48139" lon="5.06025">
        <ele>792.74</ele>
        <time>2015-12-20T12:57:47Z</time>
      </trkpt>
      <trkpt lat="44.4815" lon="5.06018">
        <ele>790.34</ele>
        <time>2015-12-20T12:58:01Z</time>
      </trkpt>
      <trkpt lat="44.48156" lon="5.06013">
        <ele>788.9</ele>
        <time>2015-12-20T12:58:12Z</time>
      </trkpt>
      <trkpt lat="44.48162" lon="5.06003">
        <ele>786.02</ele>
        <time>2015-12-20T12:58:24Z</time>
      </trkpt>
      <trkpt lat="44.48168" lon="5.05995">
        <ele>783.61</ele>
        <time>2015-12-20T12:58:35Z</time>
      </trkpt>
      <trkpt lat="44.48174" lon="5.05984">
        <ele>781.69</ele>
        <time>2015-12-20T12:58:47Z</time>
      </trkpt>
      <trkpt lat="44.4818" lon="5.05968">
        <ele>778.32</ele>
        <time>2015-12-20T12:59:00Z</time>
      </trkpt>
      <trkpt lat="44.48183" lon="5.05962">
        <ele>777.36</ele>
        <time>2015-12-20T12:59:06Z</time>
      </trkpt>
      <trkpt lat="44.48193" lon="5.05955">
        <ele>774.96</ele>
        <time>2015-12-20T12:59:20Z</time>
      </trkpt>
      <trkpt lat="44.48199" lon="5.05951">
        <ele>773.04</ele>
        <time>2015-12-20T12:59:32Z</time>
      </trkpt>
      <trkpt lat="44.48209" lon="5.05941">
        <ele>769.67</ele>
        <time>2015-12-20T12:59:43Z</time>
      </trkpt>
      <trkpt lat="44.4821" lon="5.0594">
        <ele>769.67</ele>
        <time>2015-12-20T12:59:44Z</time>
      </trkpt>
      <trkpt lat="44.48218" lon="5.05928">
        <ele>766.31</ele>
        <time>2015-12-20T12:59:58Z</time>
      </trkpt>
      <trkpt lat="44.48223" lon="5.0592">
        <ele>764.39</ele>
        <time>2015-12-20T13:00:06Z</time>
      </trkpt>
      <trkpt lat="44.48233" lon="5.05908">
        <ele>761.5</ele>
        <time>2015-12-20T13:00:22Z</time>
      </trkpt>
      <trkpt lat="44.48241" lon="5.059">
        <ele>757.66</ele>
        <time>2015-12-20T13:00:35Z</time>
      </trkpt>
      <trkpt lat="44.48245" lon="5.05894">
        <ele>756.21</ele>
        <time>2015-12-20T13:00:41Z</time>
      </trkpt>
      <trkpt lat="44.48249" lon="5.05888">
        <ele>754.29</ele>
        <time>2015-12-20T13:00:47Z</time>
      </trkpt>
      <trkpt lat="44.48255" lon="5.05867">
        <ele>751.89</ele>
        <time>2015-12-20T13:01:00Z</time>
      </trkpt>
      <trkpt lat="44.48256" lon="5.05847">
        <ele>749.97</ele>
        <time>2015-12-20T13:01:15Z</time>
      </trkpt>
      <trkpt lat="44.48256" lon="5.05832">
        <ele>748.04</ele>
        <time>2015-12-20T13:01:28Z</time>
      </trkpt>
      <trkpt lat="44.48257" lon="5.0582">
        <ele>744.68</ele>
        <time>2015-12-20T13:01:39Z</time>
      </trkpt>
      <trkpt lat="44.48258" lon="5.05815">
        <ele>743.24</ele>
        <time>2015-12-20T13:01:43Z</time>
      </trkpt>
      <trkpt lat="44.48265" lon="5.05805">
        <ele>740.35</ele>
        <time>2015-12-20T13:01:57Z</time>
      </trkpt>
      <trkpt lat="44.4827" lon="5.05798">
        <ele>737.47</ele>
        <time>2015-12-20T13:02:06Z</time>
      </trkpt>
      <trkpt lat="44.48272" lon="5.05797">
        <ele>736.03</ele>
        <time>2015-12-20T13:02:09Z</time>
      </trkpt>
      <trkpt lat="44.48274" lon="5.05781">
        <ele>733.62</ele>
        <time>2015-12-20T13:02:23Z</time>
      </trkpt>
      <trkpt lat="44.48275" lon="5.05766">
        <ele>730.26</ele>
        <time>2015-12-20T13:02:37Z</time>
      </trkpt>
      <trkpt lat="44.48268" lon="5.05752">
        <ele>726.89</ele>
        <time>2015-12-20T13:02:51Z</time>
      </trkpt>
      <trkpt lat="44.48268" lon="5.05751">
        <ele>726.89</ele>
        <time>2015-12-20T13:02:52Z</time>
      </trkpt>
      <trkpt lat="44.48265" lon="5.05738">
        <ele>723.05</ele>
        <time>2015-12-20T13:03:06Z</time>
      </trkpt>
      <trkpt lat="44.48265" lon="5.05738">
        <ele>723.05</ele>
        <time>2015-12-20T13:03:07Z</time>
      </trkpt>
      <trkpt lat="44.48263" lon="5.05729">
        <ele>723.05</ele>
        <time>2015-12-20T13:03:20Z</time>
      </trkpt>
      <trkpt lat="44.48265" lon="5.05726">
        <ele>723.05</ele>
        <time>2015-12-20T13:03:51Z</time>
      </trkpt>
      <trkpt lat="44.48265" lon="5.05723">
        <ele>723.05</ele>
        <time>2015-12-20T13:04:21Z</time>
      </trkpt>
      <trkpt lat="44.48263" lon="5.05721">
        <ele>723.05</ele>
        <time>2015-12-20T13:04:55Z</time>
      </trkpt>
      <trkpt lat="44.48263" lon="5.05724">
        <ele>724.01</ele>
        <time>2015-12-20T13:05:00Z</time>
      </trkpt>
      <trkpt lat="44.48266" lon="5.05724">
        <ele>722.57</ele>
        <time>2015-12-20T13:05:05Z</time>
      </trkpt>
      <trkpt lat="44.48275" lon="5.0572">
        <ele>719.68</ele>
        <time>2015-12-20T13:05:18Z</time>
      </trkpt>
      <trkpt lat="44.48281" lon="5.05714">
        <ele>716.32</ele>
        <time>2015-12-20T13:05:29Z</time>
      </trkpt>
      <trkpt lat="44.48282" lon="5.05711">
        <ele>715.84</ele>
        <time>2015-12-20T13:05:35Z</time>
      </trkpt>
      <trkpt lat="44.48291" lon="5.05706">
        <ele>712.47</ele>
        <time>2015-12-20T13:05:46Z</time>
      </trkpt>
      <trkpt lat="44.483" lon="5.05698">
        <ele>708.63</ele>
        <time>2015-12-20T13:05:58Z</time>
      </trkpt>
      <trkpt lat="44.48306" lon="5.05688">
        <ele>705.26</ele>
        <time>2015-12-20T13:06:11Z</time>
      </trkpt>
      <trkpt lat="44.48312" lon="5.05679">
        <ele>703.82</ele>
        <time>2015-12-20T13:06:25Z</time>
      </trkpt>
      <trkpt lat="44.48315" lon="5.05677">
        <ele>702.38</ele>
        <time>2015-12-20T13:06:29Z</time>
      </trkpt>
      <trkpt lat="44.48329" lon="5.05668">
        <ele>698.53</ele>
        <time>2015-12-20T13:06:43Z</time>
      </trkpt>
      <trkpt lat="44.48334" lon="5.0566">
        <ele>694.69</ele>
        <time>2015-12-20T13:06:56Z</time>
      </trkpt>
      <trkpt lat="44.48344" lon="5.05651">
        <ele>691.33</ele>
        <time>2015-12-20T13:07:10Z</time>
      </trkpt>
      <trkpt lat="44.48345" lon="5.0565">
        <ele>691.33</ele>
        <time>2015-12-20T13:07:11Z</time>
      </trkpt>
      <trkpt lat="44.48349" lon="5.0564">
        <ele>688.44</ele>
        <time>2015-12-20T13:07:23Z</time>
      </trkpt>
      <trkpt lat="44.48351" lon="5.05637">
        <ele>687</ele>
        <time>2015-12-20T13:07:27Z</time>
      </trkpt>
      <trkpt lat="44.48356" lon="5.05625">
        <ele>684.12</ele>
        <time>2015-12-20T13:07:41Z</time>
      </trkpt>
      <trkpt lat="44.48362" lon="5.05615">
        <ele>680.75</ele>
        <time>2015-12-20T13:07:53Z</time>
      </trkpt>
      <trkpt lat="44.4837" lon="5.05609">
        <ele>678.35</ele>
        <time>2015-12-20T13:08:02Z</time>
      </trkpt>
      <trkpt lat="44.48378" lon="5.056">
        <ele>674.98</ele>
        <time>2015-12-20T13:08:13Z</time>
      </trkpt>
      <trkpt lat="44.48387" lon="5.05594">
        <ele>672.1</ele>
        <time>2015-12-20T13:08:23Z</time>
      </trkpt>
      <trkpt lat="44.48397" lon="5.05587">
        <ele>669.22</ele>
        <time>2015-12-20T13:08:37Z</time>
      </trkpt>
      <trkpt lat="44.48406" lon="5.0558">
        <ele>665.37</ele>
        <time>2015-12-20T13:08:50Z</time>
      </trkpt>
      <trkpt lat="44.48417" lon="5.05561">
        <ele>662.01</ele>
        <time>2015-12-20T13:09:04Z</time>
      </trkpt>
      <trkpt lat="44.48423" lon="5.05546">
        <ele>658.64</ele>
        <time>2015-12-20T13:09:18Z</time>
      </trkpt>
      <trkpt lat="44.4843" lon="5.05535">
        <ele>655.28</ele>
        <time>2015-12-20T13:09:30Z</time>
      </trkpt>
      <trkpt lat="44.48436" lon="5.05524">
        <ele>651.91</ele>
        <time>2015-12-20T13:09:43Z</time>
      </trkpt>
      <trkpt lat="44.48442" lon="5.05518">
        <ele>649.03</ele>
        <time>2015-12-20T13:09:56Z</time>
      </trkpt>
      <trkpt lat="44.48449" lon="5.05507">
        <ele>646.14</ele>
        <time>2015-12-20T13:10:09Z</time>
      </trkpt>
      <trkpt lat="44.48455" lon="5.05501">
        <ele>644.7</ele>
        <time>2015-12-20T13:10:26Z</time>
      </trkpt>
      <trkpt lat="44.48461" lon="5.055">
        <ele>644.7</ele>
        <time>2015-12-20T13:10:53Z</time>
      </trkpt>
      <trkpt lat="44.48461" lon="5.05499">
        <ele>643.74</ele>
        <time>2015-12-20T13:11:17Z</time>
      </trkpt>
      <trkpt lat="44.48462" lon="5.05498">
        <ele>643.74</ele>
        <time>2015-12-20T13:11:43Z</time>
      </trkpt>
      <trkpt lat="44.4846" lon="5.05501">
        <ele>643.74</ele>
        <time>2015-12-20T13:12:14Z</time>
      </trkpt>
      <trkpt lat="44.48459" lon="5.05502">
        <ele>644.22</ele>
        <time>2015-12-20T13:12:29Z</time>
      </trkpt>
      <trkpt lat="44.48459" lon="5.05501">
        <ele>644.22</ele>
        <time>2015-12-20T13:13:04Z</time>
      </trkpt>
      <trkpt lat="44.48457" lon="5.05498">
        <ele>642.78</ele>
        <time>2015-12-20T13:13:23Z</time>
      </trkpt>
      <trkpt lat="44.48448" lon="5.05487">
        <ele>645.18</ele>
        <time>2015-12-20T13:13:40Z</time>
      </trkpt>
      <trkpt lat="44.48437" lon="5.05484">
        <ele>647.59</ele>
        <time>2015-12-20T13:13:52Z</time>
      </trkpt>
      <trkpt lat="44.48428" lon="5.05476">
        <ele>647.1</ele>
        <time>2015-12-20T13:14:08Z</time>
      </trkpt>
      <trkpt lat="44.48426" lon="5.05471">
        <ele>645.66</ele>
        <time>2015-12-20T13:14:15Z</time>
      </trkpt>
      <trkpt lat="44.48418" lon="5.05456">
        <ele>642.78</ele>
        <time>2015-12-20T13:14:30Z</time>
      </trkpt>
      <trkpt lat="44.48411" lon="5.05443">
        <ele>639.41</ele>
        <time>2015-12-20T13:14:42Z</time>
      </trkpt>
      <trkpt lat="44.4841" lon="5.05442">
        <ele>639.41</ele>
        <time>2015-12-20T13:14:43Z</time>
      </trkpt>
      <trkpt lat="44.484" lon="5.0543">
        <ele>636.05</ele>
        <time>2015-12-20T13:14:57Z</time>
      </trkpt>
      <trkpt lat="44.48394" lon="5.05422">
        <ele>632.68</ele>
        <time>2015-12-20T13:15:08Z</time>
      </trkpt>
      <trkpt lat="44.4839" lon="5.0541">
        <ele>629.32</ele>
        <time>2015-12-20T13:15:19Z</time>
      </trkpt>
      <trkpt lat="44.48386" lon="5.05398">
        <ele>625.96</ele>
        <time>2015-12-20T13:15:28Z</time>
      </trkpt>
      <trkpt lat="44.48384" lon="5.05383">
        <ele>622.59</ele>
        <time>2015-12-20T13:15:39Z</time>
      </trkpt>
      <trkpt lat="44.48385" lon="5.05372">
        <ele>620.19</ele>
        <time>2015-12-20T13:15:51Z</time>
      </trkpt>
      <trkpt lat="44.48385" lon="5.0537">
        <ele>619.23</ele>
        <time>2015-12-20T13:15:53Z</time>
      </trkpt>
      <trkpt lat="44.48387" lon="5.05363">
        <ele>616.82</ele>
        <time>2015-12-20T13:16:00Z</time>
      </trkpt>
      <trkpt lat="44.48393" lon="5.05352">
        <ele>613.94</ele>
        <time>2015-12-20T13:16:12Z</time>
      </trkpt>
      <trkpt lat="44.48401" lon="5.05344">
        <ele>610.57</ele>
        <time>2015-12-20T13:16:24Z</time>
      </trkpt>
      <trkpt lat="44.48407" lon="5.05333">
        <ele>607.21</ele>
        <time>2015-12-20T13:16:37Z</time>
      </trkpt>
      <trkpt lat="44.48409" lon="5.05315">
        <ele>603.85</ele>
        <time>2015-12-20T13:16:51Z</time>
      </trkpt>
      <trkpt lat="44.48406" lon="5.05302">
        <ele>600.96</ele>
        <time>2015-12-20T13:17:08Z</time>
      </trkpt>
      <trkpt lat="44.48404" lon="5.05295">
        <ele>599.52</ele>
        <time>2015-12-20T13:17:25Z</time>
      </trkpt>
      <trkpt lat="44.48398" lon="5.0529">
        <ele>597.12</ele>
        <time>2015-12-20T13:17:41Z</time>
      </trkpt>
      <trkpt lat="44.48392" lon="5.05283">
        <ele>593.75</ele>
        <time>2015-12-20T13:17:52Z</time>
      </trkpt>
      <trkpt lat="44.48386" lon="5.05274">
        <ele>590.87</ele>
        <time>2015-12-20T13:18:04Z</time>
      </trkpt>
      <trkpt lat="44.48379" lon="5.05263">
        <ele>587.5</ele>
        <time>2015-12-20T13:18:17Z</time>
      </trkpt>
      <trkpt lat="44.48369" lon="5.05255">
        <ele>583.18</ele>
        <time>2015-12-20T13:18:29Z</time>
      </trkpt>
      <trkpt lat="44.48369" lon="5.05254">
        <ele>583.18</ele>
        <time>2015-12-20T13:18:30Z</time>
      </trkpt>
      <trkpt lat="44.48359" lon="5.05249">
        <ele>580.29</ele>
        <time>2015-12-20T13:18:45Z</time>
      </trkpt>
      <trkpt lat="44.48344" lon="5.05243">
        <ele>577.41</ele>
        <time>2015-12-20T13:19:01Z</time>
      </trkpt>
      <trkpt lat="44.48338" lon="5.05239">
        <ele>574.04</ele>
        <time>2015-12-20T13:19:13Z</time>
      </trkpt>
      <trkpt lat="44.48329" lon="5.05236">
        <ele>573.08</ele>
        <time>2015-12-20T13:19:20Z</time>
      </trkpt>
      <trkpt lat="44.48326" lon="5.05235">
        <ele>573.08</ele>
        <time>2015-12-20T13:19:22Z</time>
      </trkpt>
      <trkpt lat="44.48307" lon="5.0523">
        <ele>568.76</ele>
        <time>2015-12-20T13:19:38Z</time>
      </trkpt>
      <trkpt lat="44.48296" lon="5.05227">
        <ele>565.87</ele>
        <time>2015-12-20T13:19:52Z</time>
      </trkpt>
      <trkpt lat="44.48286" lon="5.05224">
        <ele>562.51</ele>
        <time>2015-12-20T13:20:08Z</time>
      </trkpt>
      <trkpt lat="44.48272" lon="5.05222">
        <ele>560.11</ele>
        <time>2015-12-20T13:20:24Z</time>
      </trkpt>
      <trkpt lat="44.48271" lon="5.05221">
        <ele>560.59</ele>
        <time>2015-12-20T13:20:31Z</time>
      </trkpt>
      <trkpt lat="44.48262" lon="5.0522">
        <ele>560.11</ele>
        <time>2015-12-20T13:20:54Z</time>
      </trkpt>
      <trkpt lat="44.48263" lon="5.05219">
        <ele>560.11</ele>
        <time>2015-12-20T13:21:15Z</time>
      </trkpt>
      <trkpt lat="44.48262" lon="5.05221">
        <ele>560.11</ele>
        <time>2015-12-20T13:21:38Z</time>
      </trkpt>
      <trkpt lat="44.48261" lon="5.0522">
        <ele>560.59</ele>
        <time>2015-12-20T13:22:10Z</time>
      </trkpt>
      <trkpt lat="44.48262" lon="5.05221">
        <ele>560.59</ele>
        <time>2015-12-20T13:22:38Z</time>
      </trkpt>
      <trkpt lat="44.48255" lon="5.05221">
        <ele>559.14</ele>
        <time>2015-12-20T13:22:48Z</time>
      </trkpt>
      <trkpt lat="44.48243" lon="5.05221">
        <ele>555.78</ele>
        <time>2015-12-20T13:23:00Z</time>
      </trkpt>
      <trkpt lat="44.48231" lon="5.05216">
        <ele>552.9</ele>
        <time>2015-12-20T13:23:15Z</time>
      </trkpt>
      <trkpt lat="44.48226" lon="5.0521">
        <ele>550.97</ele>
        <time>2015-12-20T13:23:22Z</time>
      </trkpt>
      <trkpt lat="44.48216" lon="5.05196">
        <ele>547.13</ele>
        <time>2015-12-20T13:23:35Z</time>
      </trkpt>
      <trkpt lat="44.48209" lon="5.05181">
        <ele>544.72</ele>
        <time>2015-12-20T13:23:49Z</time>
      </trkpt>
      <trkpt lat="44.48208" lon="5.05179">
        <ele>543.28</ele>
        <time>2015-12-20T13:23:52Z</time>
      </trkpt>
      <trkpt lat="44.48203" lon="5.05168">
        <ele>539.92</ele>
        <time>2015-12-20T13:24:02Z</time>
      </trkpt>
      <trkpt lat="44.48194" lon="5.05152">
        <ele>536.55</ele>
        <time>2015-12-20T13:24:15Z</time>
      </trkpt>
      <trkpt lat="44.48185" lon="5.05142">
        <ele>534.15</ele>
        <time>2015-12-20T13:24:27Z</time>
      </trkpt>
      <trkpt lat="44.48179" lon="5.05131">
        <ele>530.79</ele>
        <time>2015-12-20T13:24:39Z</time>
      </trkpt>
      <trkpt lat="44.48174" lon="5.05122">
        <ele>528.38</ele>
        <time>2015-12-20T13:24:49Z</time>
      </trkpt>
      <trkpt lat="44.48165" lon="5.05108">
        <ele>525.02</ele>
        <time>2015-12-20T13:25:02Z</time>
      </trkpt>
      <trkpt lat="44.48153" lon="5.0509">
        <ele>522.13</ele>
        <time>2015-12-20T13:25:14Z</time>
      </trkpt>
      <trkpt lat="44.48144" lon="5.05077">
        <ele>519.73</ele>
        <time>2015-12-20T13:25:27Z</time>
      </trkpt>
      <trkpt lat="44.48138" lon="5.05066">
        <ele>517.33</ele>
        <time>2015-12-20T13:25:42Z</time>
      </trkpt>
      <trkpt lat="44.48136" lon="5.05056">
        <ele>516.37</ele>
        <time>2015-12-20T13:25:58Z</time>
      </trkpt>
      <trkpt lat="44.4813" lon="5.05049">
        <ele>514.92</ele>
        <time>2015-12-20T13:26:10Z</time>
      </trkpt>
      <trkpt lat="44.48123" lon="5.05037">
        <ele>511.56</ele>
        <time>2015-12-20T13:26:23Z</time>
      </trkpt>
      <trkpt lat="44.48116" lon="5.05031">
        <ele>508.67</ele>
        <time>2015-12-20T13:26:31Z</time>
      </trkpt>
      <trkpt lat="44.48104" lon="5.05026">
        <ele>505.79</ele>
        <time>2015-12-20T13:26:44Z</time>
      </trkpt>
      <trkpt lat="44.48098" lon="5.05016">
        <ele>502.91</ele>
        <time>2015-12-20T13:26:57Z</time>
      </trkpt>
      <trkpt lat="44.48091" lon="5.05009">
        <ele>500.02</ele>
        <time>2015-12-20T13:27:07Z</time>
      </trkpt>
      <trkpt lat="44.48082" lon="5.05">
        <ele>496.66</ele>
        <time>2015-12-20T13:27:20Z</time>
      </trkpt>
      <trkpt lat="44.48071" lon="5.04995">
        <ele>493.77</ele>
        <time>2015-12-20T13:27:35Z</time>
      </trkpt>
      <trkpt lat="44.48068" lon="5.04991">
        <ele>491.85</ele>
        <time>2015-12-20T13:27:44Z</time>
      </trkpt>
      <trkpt lat="44.48061" lon="5.04989">
        <ele>489.93</ele>
        <time>2015-12-20T13:27:58Z</time>
      </trkpt>
      <trkpt lat="44.48056" lon="5.04977">
        <ele>488.01</ele>
        <time>2015-12-20T13:28:12Z</time>
      </trkpt>
      <trkpt lat="44.48051" lon="5.04972">
        <ele>484.64</ele>
        <time>2015-12-20T13:28:21Z</time>
      </trkpt>
      <trkpt lat="44.48045" lon="5.04967">
        <ele>481.76</ele>
        <time>2015-12-20T13:28:32Z</time>
      </trkpt>
      <trkpt lat="44.4804" lon="5.04964">
        <ele>481.28</ele>
        <time>2015-12-20T13:28:44Z</time>
      </trkpt>
      <trkpt lat="44.48034" lon="5.04961">
        <ele>477.91</ele>
        <time>2015-12-20T13:28:58Z</time>
      </trkpt>
      <trkpt lat="44.48025" lon="5.04954">
        <ele>475.03</ele>
        <time>2015-12-20T13:29:11Z</time>
      </trkpt>
      <trkpt lat="44.48018" lon="5.04947">
        <ele>472.14</ele>
        <time>2015-12-20T13:29:24Z</time>
      </trkpt>
      <trkpt lat="44.4801" lon="5.04945">
        <ele>468.78</ele>
        <time>2015-12-20T13:29:37Z</time>
      </trkpt>
      <trkpt lat="44.47997" lon="5.04951">
        <ele>465.9</ele>
        <time>2015-12-20T13:29:53Z</time>
      </trkpt>
      <trkpt lat="44.47987" lon="5.0495">
        <ele>463.01</ele>
        <time>2015-12-20T13:30:07Z</time>
      </trkpt>
      <trkpt lat="44.47981" lon="5.04947">
        <ele>461.09</ele>
        <time>2015-12-20T13:30:14Z</time>
      </trkpt>
      <trkpt lat="44.47973" lon="5.04942">
        <ele>459.17</ele>
        <time>2015-12-20T13:30:21Z</time>
      </trkpt>
      <trkpt lat="44.47963" lon="5.0493">
        <ele>456.76</ele>
        <time>2015-12-20T13:30:34Z</time>
      </trkpt>
      <trkpt lat="44.47952" lon="5.04915">
        <ele>454.36</ele>
        <time>2015-12-20T13:30:51Z</time>
      </trkpt>
      <trkpt lat="44.47944" lon="5.04904">
        <ele>451.48</ele>
        <time>2015-12-20T13:31:04Z</time>
      </trkpt>
      <trkpt lat="44.47927" lon="5.04887">
        <ele>448.11</ele>
        <time>2015-12-20T13:31:20Z</time>
      </trkpt>
      <trkpt lat="44.47908" lon="5.04868">
        <ele>446.19</ele>
        <time>2015-12-20T13:31:36Z</time>
      </trkpt>
      <trkpt lat="44.47892" lon="5.04856">
        <ele>444.75</ele>
        <time>2015-12-20T13:31:50Z</time>
      </trkpt>
      <trkpt lat="44.47887" lon="5.04851">
        <ele>443.79</ele>
        <time>2015-12-20T13:32:03Z</time>
      </trkpt>
      <trkpt lat="44.47884" lon="5.04844">
        <ele>442.82</ele>
        <time>2015-12-20T13:32:13Z</time>
      </trkpt>
      <trkpt lat="44.47879" lon="5.04833">
        <ele>441.86</ele>
        <time>2015-12-20T13:32:30Z</time>
      </trkpt>
      <trkpt lat="44.47878" lon="5.04832">
        <ele>440.42</ele>
        <time>2015-12-20T13:32:39Z</time>
      </trkpt>
      <trkpt lat="44.47879" lon="5.04833">
        <ele>441.86</ele>
        <time>2015-12-20T13:32:56Z</time>
      </trkpt>
      <trkpt lat="44.47881" lon="5.04832">
        <ele>442.34</ele>
        <time>2015-12-20T13:33:13Z</time>
      </trkpt>
      <trkpt lat="44.47883" lon="5.04831">
        <ele>442.34</ele>
        <time>2015-12-20T13:33:25Z</time>
      </trkpt>
      <trkpt lat="44.47886" lon="5.04833">
        <ele>442.34</ele>
        <time>2015-12-20T13:33:38Z</time>
      </trkpt>
      <trkpt lat="44.47887" lon="5.04831">
        <ele>441.38</ele>
        <time>2015-12-20T13:33:55Z</time>
      </trkpt>
      <trkpt lat="44.479" lon="5.04826">
        <ele>440.42</ele>
        <time>2015-12-20T13:34:11Z</time>
      </trkpt>
      <trkpt lat="44.47901" lon="5.04825">
        <ele>440.42</ele>
        <time>2015-12-20T13:34:12Z</time>
      </trkpt>
      <trkpt lat="44.47915" lon="5.04811">
        <ele>439.46</ele>
        <time>2015-12-20T13:34:28Z</time>
      </trkpt>
      <trkpt lat="44.47924" lon="5.04796">
        <ele>439.46</ele>
        <time>2015-12-20T13:34:40Z</time>
      </trkpt>
      <trkpt lat="44.47933" lon="5.04786">
        <ele>438.98</ele>
        <time>2015-12-20T13:34:54Z</time>
      </trkpt>
      <trkpt lat="44.47934" lon="5.04784">
        <ele>438.98</ele>
        <time>2015-12-20T13:35:11Z</time>
      </trkpt>
      <trkpt lat="44.47935" lon="5.04782">
        <ele>438.5</ele>
        <time>2015-12-20T13:35:30Z</time>
      </trkpt>
      <trkpt lat="44.47935" lon="5.04784">
        <ele>438.5</ele>
        <time>2015-12-20T13:35:49Z</time>
      </trkpt>
      <trkpt lat="44.47935" lon="5.04784">
        <ele>438.98</ele>
        <time>2015-12-20T13:36:10Z</time>
      </trkpt>
      <trkpt lat="44.47936" lon="5.04786">
        <ele>438.98</ele>
        <time>2015-12-20T13:36:34Z</time>
      </trkpt>
      <trkpt lat="44.47936" lon="5.04785">
        <ele>438.98</ele>
        <time>2015-12-20T13:36:54Z</time>
      </trkpt>
      <trkpt lat="44.47937" lon="5.0478">
        <ele>439.46</ele>
        <time>2015-12-20T13:37:21Z</time>
      </trkpt>
      <trkpt lat="44.47938" lon="5.04778">
        <ele>439.46</ele>
        <time>2015-12-20T13:37:43Z</time>
      </trkpt>
      <trkpt lat="44.47937" lon="5.04777">
        <ele>439.46</ele>
        <time>2015-12-20T13:38:06Z</time>
      </trkpt>
      <trkpt lat="44.47936" lon="5.04776">
        <ele>440.9</ele>
        <time>2015-12-20T13:38:18Z</time>
      </trkpt>
      <trkpt lat="44.47937" lon="5.04776">
        <ele>439.46</ele>
        <time>2015-12-20T13:38:20Z</time>
      </trkpt>
      <trkpt lat="44.4794" lon="5.04778">
        <ele>439.46</ele>
        <time>2015-12-20T13:38:39Z</time>
      </trkpt>
      <trkpt lat="44.47939" lon="5.04778">
        <ele>439.46</ele>
        <time>2015-12-20T13:39:00Z</time>
      </trkpt>
      <trkpt lat="44.47939" lon="5.04778">
        <ele>440.42</ele>
        <time>2015-12-20T13:39:07Z</time>
      </trkpt>
      <trkpt lat="44.47939" lon="5.0478">
        <ele>441.38</ele>
        <time>2015-12-20T13:39:29Z</time>
      </trkpt>
    </trkseg>
  </trk>
</gpx>